Fay Baker
Watch movie
Exposing the deep web.

PRE DATA

Datetime Release
2017-06-23 00:01:11 X-Tof_-_Retro_Arena_Radioshow_(Topradio)-STREAM-09-06-2017-SOB_INT
2017-06-23 00:01:30 WonderFox.DVD.Video.Converter.v13.2.Incl.Keygen-AMPED
2017-06-23 00:01:32 Aengeldust-Agent_Orange-2017-FWYH
2017-06-23 00:02:40 Alfa-Spark_and_Fury-WEB-2017-ENTiTLED
2017-06-23 00:02:55 Blackout-The_Horse-WEB-2017-ENTiTLED
2017-06-23 00:03:11 Iain_Simcock-Christus_(Passion_Symphony_for_Organ)_Live-WEB-2017-ENTiTLED
2017-06-23 00:03:27 Lu_Luming-The_Receptionist_(Original_Motion_Picture_Soundtrack)-WEB-2017-ENTiTLED
2017-06-23 00:03:28 Cubanate-Brutalism-2017-FWYH
2017-06-23 00:03:34 X-Tof_-_Retro_Arena_Radioshow_(Topradio)-STREAM-16-06-2017-SOB_INT
2017-06-23 00:03:42 Peter_Adams-Queen_of_the_Attic-WEB-2017-ENTiTLED
2017-06-23 00:03:58 Pixie_Ninja-Ultrasound-WEB-2017-ENTiTLED
2017-06-23 00:04:14 Raggabund-Mehr_Sound_(Instrumental_Version)-WEB-2012-ENTiTLED
2017-06-23 00:04:30 Silver_Dust-The_Age_of_Decadence-WEB-2016-ENTiTLED
2017-06-23 00:05:28 Studio-X_Vs._Technoid-Neural_Torment-2017-FWYH
2017-06-23 00:05:31 Tricot-3-JP-2017-PMS
2017-06-23 00:05:33 The.Code.AU.S02E02.FRENCH.720p.HDTV.x264-AMB3R
2017-06-23 00:05:38 X-Tof_-_Retro_Arena_Radioshow_(Topradio)-STREAM-26-05-2017-SOB_INT
2017-06-23 00:06:59 Prison.Break.S05E01.720p.BluRay.x264-DEMAND
2017-06-23 00:07:05 Game.Of.Death.1978.REMASTERED.COMPLETE.BLURAY-COASTER
2017-06-23 00:09:05 Prison.Break.S05E02.720p.BluRay.x264-DEMAND
2017-06-23 00:10:46 Prison.Break.S05E03.720p.BluRay.x264-DEMAND
2017-06-23 00:11:19 Away.2016.DVDRip.x264-RedBlade
2017-06-23 00:12:29 Prison.Break.S05E04.720p.BluRay.x264-DEMAND
2017-06-23 00:12:33 Angel_Black-Monumento-(LDN116)-WEB-2017-2FAST4U
2017-06-23 00:13:40 Mzuka-Rain_Dance-(10122736)-WEB-2017-2FAST4U
2017-06-23 00:14:17 The.Code.AU.S02E03.FRENCH.HDTV.x264-AMB3R
2017-06-23 00:14:47 Dea5Head_Groovers-Groovy_Bassline-(TBR0172)-WEB-2017-2FAST4U
2017-06-23 00:14:52 Free.Rein.S01E01.German.720p.WebHD.x264-BiGiNT
2017-06-23 00:15:42 Tuneon-Mask_EP-(EM068)-WEB-2017-2FAST4U
2017-06-23 00:16:00 Free.Rein.S01E01.German.WebRip.x264-BiGiNT
2017-06-23 00:16:10 Riverdale.US.S01E11.SPANiSH.1080p.HDTV.x264-FERiCE
2017-06-23 00:16:14 Z.1969.iNTERNAL.FRENCH.BDRip.x264-LOFiDEL
2017-06-23 00:16:20 Moleman-Patience-(5054960330870)-WEB-2017-2FAST4U
2017-06-23 00:17:07 Riverdale.US.S01E11.SPANiSH.720p.HDTV.x264-FERiCE
2017-06-23 00:17:37 Riverdale.US.S01E11.SPANiSH.HDTV.x264-FERiCE
2017-06-23 00:18:04 Dremers-Follow_Me-(TRM024)-WEB-2017-2FAST4U
2017-06-23 00:18:56 Luk_Tek-Northen_Blue_EP-(TEC062)-WEB-2017-2FAST4U
2017-06-23 00:19:47 Funk__Filou-The_Town_(The_Secret_Weapons)-(9008798236336)-WEB-2017-2FAST4U
2017-06-23 00:20:34 I.am.not.your.Negro.2016.German.AC3D.DL.DOKU.720p.BluRay.x264-CLASSiCALHD
2017-06-23 00:20:43 Z.1969.FRENCH.720p.BluRay.x264-FiDELiO
2017-06-23 00:21:57 The.Rolling.Stones.Ole.Ole.Ole.A.Trip.Across.Latin.America.2016.DOCU.720p.BluRay.x264-FKKHD
2017-06-23 00:22:30 I.am.not.your.Negro.2016.German.AC3D.DL.DOKU.1080p.BluRay.x264-CLASSiCALHD
2017-06-23 00:24:12 Jacob_Sartorius-Hit_Me_Back_(feat_Blackbear)-SINGLE-WEB-2017-ENTiTLED
2017-06-23 00:24:20 Z.1969.FRENCH.1080p.BluRay.x264-FiDELiO
2017-06-23 00:25:16 Ian_Williams-6Ixty-(B072Z8BHF3)-WEB-2017-bAMM
2017-06-23 00:25:52 Prison.Break.S05E05.720p.BluRay.x264-DEMAND
2017-06-23 00:26:27 Inca_Maps-EP_One-(B072XNX3T2)-WEB-2017-bAMM
2017-06-23 00:26:33 Unser.Kosmos.-.Die.Reise.geht.weiter.S01E01.Neues.aus.der.Milchstrasse.German.DL.DOKU.BDRiP.x264-UTOPiA
2017-06-23 00:27:54 Ellen_Edwards-YouRe_The_Reason-(B072ZT3PP8)-WEB-2017-bAMM
2017-06-23 00:28:48 Maxim_Novitskiy-YouLl_Be_Mine-(10120805)-WEB-2017-bAMM
2017-06-23 00:29:23 Josh_Hassell-Premonitions-(TAFDIGI423)-WEB-2016-bAMM
2017-06-23 00:31:10 Grizzman-Caste-(DEU394)-WEB-2017-WRT
2017-06-23 00:32:41 Jay100-The_Book_Of_Sin_2-(B072QQXHMN)-WEB-2017-WRT
2017-06-23 00:32:53 Chevy_Woods-Alright-SINGLE-WEB-2017-ENRAGED
2017-06-23 00:33:19 Area21-We_Did_It-SINGLE-WEB-2017-ENRAGED
2017-06-23 00:33:22 Cafe_Drechsler-And_NowBoogie-WEB-2017-ENTiTLED
2017-06-23 00:33:34 Approaching.the.Unknown.2016.German.WebRip.x264-SLG
2017-06-23 00:33:37 Granada_Metal-Sincronizado-WEB-2017-ENTiTLED
2017-06-23 00:33:37 Area21-Spaceships-SINGLE-WEB-2016-ENRAGED
2017-06-23 00:33:47 Rettet.Oz.2015.German.WebRip.x264-SLG
2017-06-23 00:33:53 Laurin_Buser-SCHMUCK-WEB-DE-2017-ENTiTLED
2017-06-23 00:33:54 Before.We.Go.2014.German.WebRip.x264-SLG
2017-06-23 00:33:55 Justo-Black_Ops-(B072WQLG83)-WEB-2017-WRT
2017-06-23 00:33:57 Be.Somebody.2016.German.WebRip.x264-SLG
2017-06-23 00:34:03 Die.Fetten.Jahre.Sind.Vorbei.2014.German.1080p.WebHD.x264-SLG
2017-06-23 00:34:08 Mob_Rules-Somerled-SINGLE-WEB-2017-ENTiTLED
2017-06-23 00:34:15 Lor_Scoota-LIVE_from_the_A_(Special_Edition)-BONUS_TRACKS-WEB-2017-ENRAGED
2017-06-23 00:34:23 Neurotech-The_Catalyst-WEB-2017-ENTiTLED
2017-06-23 00:34:30 Die.Fetten.Jahre.Sind.Vorbei.2014.German.720p.WebHD.x264-SLG
2017-06-23 00:34:38 Spain-Live_at_the_Love_Song_(Live)-WEB-2017-ENTiTLED
2017-06-23 00:34:46 Traumland.2013.German.1080p.WebHD.x264-SLG
2017-06-23 00:35:00 The.Rolling.Stones.Ole.Ole.Ole.A.Trip.Across.Latin.America.2016.DOCU.1080p.BluRay.x264-FKKHD
2017-06-23 00:35:07 Traumland.2013.German.720p.WebHD.x264-SLG
2017-06-23 00:35:51 Parallax-Depth_Perception-(650045585156)-WEB-2014-WRT
2017-06-23 00:35:54 Pardison_Fontaine-In_The_Field_Remix_(feat_Fabolous_and_Casanova_2x)-SINGLE-WEB-2017-ENRAGED
2017-06-23 00:36:26 Pardison_Fontaine-Not_Supposed_To_Be_Here-WEB-2015-ENRAGED
2017-06-23 00:36:39 Dubxx-Smoking_In_Public-(808391024045)-WEB-2017-WRT
2017-06-23 00:36:54 Nico_and_Vinz-Intrigued-SINGLE-WEB-2017-ENRAGED
2017-06-23 00:37:05 Approaching.the.Unknown.2016.German.1080p.WebHD.x264-SLG
2017-06-23 00:37:23 Terence_Ryan-Dont_Panic-WEB-2017-ENRAGED
2017-06-23 00:37:23 Approaching.the.Unknown.2016.German.720p.WebHD.x264-SLG
2017-06-23 00:37:39 Shes.the.Man.2006.German.1080p.WebHD.x264-SLG
2017-06-23 00:37:46 Trae_tha_Truth-Im_On_3.0_(feat_VA)-SINGLE-WEB-2017-ENRAGED
2017-06-23 00:37:54 Quavo-Atl-(NPS009)-WEB-2017-WRT
2017-06-23 00:38:02 The-Dream-Summer_Body-SINGLE-WEB-2017-ENRAGED
2017-06-23 00:38:13 Shes.the.Man.2006.German.720p.WebHD.x264-SLG
2017-06-23 00:38:13 Ars_Magna_Umbrae-Through_Lunar_Gateways-EP-WEB-2017-ENTiTLED
2017-06-23 00:38:21 Phineas_Gage-Route_to_Realisation-WEB-2017-ENTiTLED
2017-06-23 00:38:23 WizKid-Naughty_Ride-SINGLE-WEB-2017-ENRAGED
2017-06-23 00:38:48 Littleman.2006.German.1080p.WebHD.x264-SLG
2017-06-23 00:38:48 Cream_Dinero-Just_Because-WEB-2016-ENRAGED
2017-06-23 00:39:04 Cream_Dinero-This_Shhh_Easy-WEB-2015-ENRAGED
2017-06-23 00:39:08 Jem.and.the.Holograms.2015.German.1080p.WebHD.x264-SLG
2017-06-23 00:39:18 Nico_and_Vinz-Cornerstone-EP-WEB-2015-ENRAGED
2017-06-23 00:39:23 Jimi_Boaz-Imagine_That-(808391024465)-WEB-2017-WRT
2017-06-23 00:39:27 Jem.and.the.Holograms.2015.German.720p.WebHD.x264-SLG
2017-06-23 00:39:34 Nico_and_Vinz-Nico_and_Vinz-WEB-2014-ENRAGED
2017-06-23 00:39:45 Rettet.Oz.2015.German.720p.WebHD.x264-SLG
2017-06-23 00:39:49 Nico_and_Vinz-The_Magic-WEB-2014-ENRAGED
2017-06-23 00:40:22 Shy_Glizzy-The_World_Is_Yours-EP-WEB-2017-ENRAGED
2017-06-23 00:40:38 TYuS-Between_Us_(feat_21_Savage)-SINGLE-WEB-2016-ENRAGED
2017-06-23 00:40:41 Roach-EPitome_Of_An_Emcee-(B072SVZ82Y)-WEB-2017-WRT
2017-06-23 00:40:54 VA-Drugs_Sex_and_Hip_Hop_Vol_1-WEB-2016-ENRAGED
2017-06-23 00:41:08 Rettet.Oz.2015.German.1080p.WebHD.x264-SLG
2017-06-23 00:41:11 Yung_Laudoe-Welcome_to_Blood_Paradise-EP-WEB-2017-ENRAGED
2017-06-23 00:41:25 Yung_Swavor-Elevation-BONUS_TRACKS-WEB-2016-ENRAGED
2017-06-23 00:41:33 Be.Somebody.2016.German.720p.WebHD.x264-SLG
2017-06-23 00:41:40 Yung_Swavor-Why_Stop-WEB-2017-ENRAGED
2017-06-23 00:41:59 Be.Somebody.2016.German.1080p.WebHD.x264-SLG
2017-06-23 00:42:34 Like.Crazy.2011.German.720p.WebHD.x264-SLG
2017-06-23 00:43:03 Like.Crazy.2011.German.1080p.WebHD.x264-SLG
2017-06-23 00:43:19 Ionix-Handle_With_Care-(10120122)-WEB-2017-2FAST4U
2017-06-23 00:43:26 Before.We.Go.2014.German.720p.WebHD.x264-SLG
2017-06-23 00:43:44 Before.We.Go.2014.German.1080p.WebHD.x264-SLG
2017-06-23 00:44:00 Carlos_Inc-Come_On-(229)-WEB-2017-2FAST4U
2017-06-23 00:44:36 Thedjlawyer-19-(BR60N)-WEB-2017-2FAST4U
2017-06-23 00:44:46 The.Code.AU.S02E03.FRENCH.720p.HDTV.x264-AMB3R
2017-06-23 00:45:16 Mighty_Real-Do_It-(10122861)-WEB-2017-2FAST4U
2017-06-23 00:45:54 Dj_Memory-Beautiful_Fall-(DDMO20152)-WEB-2017-2FAST4U
2017-06-23 00:46:31 Mc_Freeflow-Life_Is_What_You_Make_It-(GFM46)-WEB-2017-2FAST4U
2017-06-23 00:47:17 TYuS-Between_Us_(feat_21_Savage)-SINGLE-WEB-2016
2017-06-23 00:49:04 Shkedul-Subsconscious_Leverage_-_EP-(GTR006)-WEB-2017-2FAST4U
2017-06-23 00:51:05 Progeye-Principals_Of_Psychoacoustics-(BAM0592017)-WEB-2017-2FAST4U
2017-06-23 00:52:59 Men_From_Nobu-Born_Again__Reconnected-(GPR00007)-WEB-2017-2FAST4U
2017-06-23 00:53:23 JM_Silk-Hold_on_to_Your_Dream_(Bonus_Track_Version)-BONUS_TRACKS-WEB-2014-ENSLAVE
2017-06-23 00:55:23 Ziggi_Recado-The_Commission_-_EP-(848760051180)-WEB-2017-MORE
2017-06-23 00:56:19 Punto_Rojo-La_Resistencia-(10122853)-WEB-2017-MORE
2017-06-23 00:58:13 Herbie-The_Herbie_Experience-(VLR029)-WEB-2017-2FAST4U
2017-06-23 00:59:16 Prince_and_The_Revolution-I_Would_Die_4_U-EP-WEB-1984-ENTiTLED
2017-06-23 01:01:28 99_Trees-21St_Century-(BMEP008)-WEB-2017-bAMM
2017-06-23 01:02:11 Chips.German.DL.AC3.Dubbed.1080p.BluRay.x264-PsO
2017-06-23 01:02:39 Scott_Middough-Intent-(B072Z8ZNSP)-WEB-2017-bAMM
2017-06-23 01:02:49 Metalheadz_Ft_SBB1_And_Artificial_Intelligence-Rinse-FM-06-21-2017-z0ne
2017-06-23 01:02:54 En.La.Zona.Prohibida.2017.SPANiSH.DOC.1080p.HDTV.x264-FERiCE
2017-06-23 01:02:58 Slimzee-Rinse-FM-06-19-2017-z0ne
2017-06-23 01:03:28 Youngsta_And_Nomine-Rinse-FM-06-19-2017-z0ne
2017-06-23 01:03:34 Longy-Trash_Talkin_Filthy_Love_-_EP-(B0732YRC1J)-WEB-2017-bAMM
2017-06-23 01:03:34 Longy-Trash_Talkin_Filthy_Love_-_EP-(B0732YRC1J)-WEB-2017-bAM
2017-06-23 01:03:37 En.La.Zona.Prohibida.2017.SPANiSH.DOC.720p.HDTV.x264-FERiCE
2017-06-23 01:03:54 En.La.Zona.Prohibida.2017.SPANiSH.DOC.HDTV.x264-FERiCE
2017-06-23 01:05:21 Greg-Rainbow-(B072W92BJ6)-WEB-2017-bAMM
2017-06-23 01:07:23 Ben_Herron-A_Song_Of_Seasons-(B072FPJPVR)-WEB-2017-bAMM
2017-06-23 01:08:07 Luca_Zeta_-_Im_Ready-WEB-2003-iDC
2017-06-23 01:08:17 Tom_Aylott-Stay_Awake_For_Me-(B072Z1Q49M)-WEB-2017-bAMM
2017-06-23 01:09:11 Toby_Crook-Bad_Production-(B0731Q4PTR)-WEB-2010-bAMM
2017-06-23 01:09:42 Chips.German.DL.AC3.Dubbed.720p.BluRay.x264-PsO
2017-06-23 01:10:39 Criminal.Minds.S12E07.FRENCH.720p.HDTV.x264-AMB3R
2017-06-23 01:10:54 Sgt.Bilko.1996.720p.BluRay.x264-PSYCHD
2017-06-23 01:12:40 Big.Brother.UK.S18E18.HDTV.x264-PLUTONiUM
2017-06-23 01:12:55 Guts-Stop_The_Violence-(3521381543995)-WEB-2017-WRT
2017-06-23 01:17:51 Chips.German.AC3.Dubbed.BDRip.x264-PsO
2017-06-23 01:18:10 Bunny_House-Joyful_Piano-(CAT12794STEMS)-WEB-2017-2FAST4U
2017-06-23 01:19:02 Color_Parade-Circles-(EDM17848)-WEB-2017-2FAST4U
2017-06-23 01:20:07 Anomal_Sequence-Unleashed-(0730699004941)-WEB-2017-2FAST4U
2017-06-23 01:20:45 Lamar_Ensemble-Chill_Me_Up-(GVNS002)-WEB-2017-2FAST4U
2017-06-23 01:21:14 Big.Brother.UK.S18E18.720p.HDTV.x264-PLUTONiUM
2017-06-23 01:21:23 Alan_Schiavone-Burning-(SR027)-WEB-2017-2FAST4U
2017-06-23 01:23:31 Cvpellv-Unknown_Tape-(3614975993235)-WEB-2017-2FAST4U
2017-06-23 01:24:53 Lynda.After.Effects.Compositing.1.Intro.to.VFX.Jun.2017-XQZT
2017-06-23 01:28:22 Lynda.WordPress.Custom.Post.Types.and.Taxonomies.Jun.2017-XQZT
2017-06-23 01:32:25 Ueberleben.im.Sumpf.S08E07.GERMAN.DOKU.1080p.HDTV.x264-DELOS
2017-06-23 01:32:43 Ueberleben.im.Sumpf.S08E07.GERMAN.DOKU.720p.HDTV.x264-DELOS
2017-06-23 01:32:56 Ueberleben.im.Sumpf.S08E07.GERMAN.DOKU.HDTVRip.x264-DELOS
2017-06-23 01:33:09 Prison.Break.S05E06.720p.BluRay.x264-DEMAND
2017-06-23 01:33:23 Ueberleben.im.Sumpf.S08E08.GERMAN.DOKU.1080p.HDTV.x264-DELOS
2017-06-23 01:33:34 Ueberleben.im.Sumpf.S08E08.GERMAN.DOKU.720p.HDTV.x264-DELOS
2017-06-23 01:33:44 Ueberleben.im.Sumpf.S08E08.GERMAN.DOKU.HDTVRip.x264-DELOS
2017-06-23 01:35:49 Prison.Break.S05E07.720p.BluRay.x264-DEMAND
2017-06-23 01:36:37 Criminal.Minds.S12E08.FRENCH.720p.HDTV.x264-AMB3R
2017-06-23 01:38:14 Ylyne-26-(AU2002)-WEB-2017-bAMM
2017-06-23 01:39:04 Tonight.S19E24.Sun.Sea.And.Scams.720p.HDTV.x264-QPEL
2017-06-23 01:39:22 Soner_One-90S_Kids-(S44R012)-WEB-2017-bAMM
2017-06-23 01:40:00 Chad_Vangaalen-Old_Heads-(SPD9270)-WEB-2017-bAMM
2017-06-23 01:40:21 Resident.Evil.The.Final.Chapter.German.DL.AC3.Dubbed.1080p.BluRay.x264-PsO
2017-06-23 01:41:06 Menini__Viani-Trust__Soul-(Sosumi077)-WEB-2017-POSH
2017-06-23 01:42:27 The.Code.AU.S02E03.FRENCH.1080p.HDTV.x264-Ryotox
2017-06-23 01:43:12 The_House_Rastas-Rasta_House-(VOO28)-WEB-2017-2FAST4U
2017-06-23 01:44:37 Spring_Reason-Venera-(LTC035)-WEB-2017-2FAST4U
2017-06-23 01:45:02 Fargo.S03E09.1080p.WEBRip.X264-DEFLATE
2017-06-23 01:46:16 Sertax-Had_To_Be_There-(DSR10)-WEB-2017-2FAST4U
2017-06-23 01:46:44 Lynda.Cert.Prep.Unity.Fundamentals-XQZT
2017-06-23 01:47:06 Fargo.S03E10.1080p.WEBRip.X264-DEFLATE
2017-06-23 01:50:33 Resident.Evil.The.Final.Chapter.German.DL.AC3.Dubbed.720p.BluRay.x264-PsO
2017-06-23 01:51:12 One.Piece.E793.SUBFRENCH.720p.HDTV.x264-AMB3R
2017-06-23 01:51:20 One.Piece.E793.SUBFRENCH.HDTV.x264-AMB3R
2017-06-23 01:51:57 Ironside.2013.S01E04.FRENCH.1080p.HDTV.x264-Ryotox
2017-06-23 01:52:25 Skinds-The_Touch-(WAVE013)-WEB-2017-2FAST4U
2017-06-23 01:53:36 Pry-Arc-(AVO003)-WEB-2017-2FAST4U
2017-06-23 01:54:13 Hyperune-Nostrum-(PR174)-WEB-2017-2FAST4U
2017-06-23 01:55:08 Hydriss-Organic_Deep_House-(CDR103)-WEB-2017-2FAST4U
2017-06-23 01:56:03 Steve_Shaden-Black_Eye-(TRAPEZ190)-WEB-2017-2FAST4U
2017-06-23 01:58:04 Luke_Black-Buccaneers_Bodice-(TACTDIGI016)-WEB-2017-2FAST4U
2017-06-23 01:58:41 Ben_Lepper-2010-(XRS072)-WEB-2017-2FAST4U
2017-06-23 01:59:16 Ahrenfullstop__Jared_Hohne-Hot_Chocolate__Cold_Cuddles-(RBR009)-WEB-2017-2FAST4U
2017-06-23 01:59:26 Resident.Evil.The.Final.Chapter.German.AC3.Dubbed.BDRip.x264-PsO
2017-06-23 01:59:54 Superfine-Components-(NC2256707652)-WEB-2017-2FAST4U
2017-06-23 02:02:31 STONE.RIVER.RUBY.PROGRAMMING.FUNDAMENTALS.TUTORiAL-PROPAGANDA
2017-06-23 02:02:35 Eazy-E-Eazy-Impact_of_A_Legend-2002-CMS
2017-06-23 02:09:44 INFINITE.SKILLS.INTRODUCTION.TO.ALLUXIO.TUTORiAL-PROPAGANDA
2017-06-23 02:13:05 Everlast-Ends_(Summer_Mix)-Promo_CDS-1998-CMS
2017-06-23 02:13:53 Resident.Evil.The.Final.Chapter.3D.German.DL.AC3.Dubbed.1080p.BluRay.x264-PsO
2017-06-23 02:19:48 Anon_-_Leave_Me_Behind_(Naturalize_Remix)-(BTRDR421)-WEB-2017-BarGhest
2017-06-23 02:19:56 Brojanowski_-_Radio_Paradise-(ZENCD117)-WEB-2017-BarGhest
2017-06-23 02:20:04 Deep_Kontakt_-_A_World_Beyond-(JNR096)-WEB-2017-BarGhest
2017-06-23 02:20:11 Hardie_Cooper_-_The_Admirer_From_Space-(LD004)-WEB-2017-BarGhest
2017-06-23 02:20:19 Localeye_-_Mental_Health-(JNR097)-WEB-2017-BarGhest
2017-06-23 02:20:27 Norma_Project_-_Peace_And_Love-(STRDW053)-WEB-2017-BarGhest
2017-06-23 02:20:36 P.R.O.G_-_The_Spirits_Awaken-WEB-2017-BarGhest
2017-06-23 02:20:57 Rubix_Qube_-_Konvolution-(MREP059)-WEB-2017-BarGhest
2017-06-23 02:21:06 Sensifeel_-_In_Deep_n_Dance-WEB-2017-BarGhest
2017-06-23 02:21:12 Side_Winder_-_Analogue-(ENT001)-WEB-2017-BarGhest
2017-06-23 02:21:20 Unseen_Dimensions_-_Bittersweet-(SPN1DIGI374D)-WEB-2017-BarGhest
2017-06-23 02:21:28 Wanted_-_Zoe-(ARC165)-WEB-2017-BarGhest
2017-06-23 02:24:51 F.is.for.Family.S02E01.WEB.x264-ELUDE
2017-06-23 02:25:21 F.is.for.Family.S02E02.WEB.x264-ELUDE
2017-06-23 02:25:31 Raskin-Libertad-(CAT33202)-WEB-2017-2FAST4U
2017-06-23 02:25:47 F.is.for.Family.S02E03.WEB.x264-ELUDE
2017-06-23 02:26:16 F.is.for.Family.S02E04.WEB.x264-ELUDE
2017-06-23 02:26:38 Rix-Wide_Foot-(BR228)-WEB-2017-2FAST4U
2017-06-23 02:27:01 The.Night.Shift.S04E01.HDTV.x264-KILLERS
2017-06-23 02:27:02 F.is.for.Family.S02E05.WEB.x264-ELUDE
2017-06-23 02:27:33 Cristian_Van_Gurgel-Beans-(10122983)-WEB-2017-2FAST4U
2017-06-23 02:27:37 F.is.for.Family.S02E06.WEB.x264-ELUDE
2017-06-23 02:28:02 The.Night.Shift.S04E01.720p.HDTV.x264-KILLERS
2017-06-23 02:28:09 Mike_Balance-My_Style-(INS274)-WEB-2017-2FAST4U
2017-06-23 02:28:19 F.is.for.Family.S02E07.WEB.x264-ELUDE
2017-06-23 02:29:03 Diztort-The_Following-(TRD004)-WEB-2017-2FAST4U
2017-06-23 02:29:06 F.is.for.Family.S02E08.WEB.x264-ELUDE
2017-06-23 02:30:10 I.am.not.your.Negro.German.2016.DL.COMPLETE.PAL.DOKU.DVD9-HiGHLiGHT
2017-06-23 02:30:12 F.is.for.Family.S02E09.WEB.x264-ELUDE
2017-06-23 02:30:58 F.is.for.Family.S02E10.WEB.x264-ELUDE
2017-06-23 02:33:49 Free.Rein.S01E01.German.1080p.WebHD.x264-BiGiNT
2017-06-23 02:33:50 Resident.Evil.Vendetta.German.DL.AC3.Dubbed.1080p.WebHD.h264-PsO
2017-06-23 02:39:22 Resident.Evil.Vendetta.German.DL.AC3.Dubbed.720p.WebHD.h264-PsO
2017-06-23 02:47:11 Resident.Evil.Vendetta.German.AC3.Dubbed.WEBRip.x264-PsO
2017-06-23 02:50:19 Juste.Un.Regard.S01E03.FRENCH.1080p.HDTV.x264-Ryotox
2017-06-23 02:53:32 Varcity-Joy_In_Me-(OMG712)-WEB-2017-wAx
2017-06-23 02:59:25 More_-_Save_The_World-WEB-2001-iDC
2017-06-23 03:00:48 T-Loc_And_C.W._Da_Youngblood-Gangbangin_And_Dopeslangin-WEB-2017-ESG
2017-06-23 03:02:48 Private.Eyes.S02E05.HDTV.x264-KILLERS
2017-06-23 03:03:59 Private.Eyes.S02E05.720p.HDTV.x264-KILLERS
2017-06-23 03:08:08 Flaked.S01E01.WEB.x264-ELUDE
2017-06-23 03:10:19 Flaked.S01E02.WEB.x264-ELUDE
2017-06-23 03:13:19 Dubape_and_Phentix-Get_It_Silk_Road-(MFR090)-WEB-2017-wAx
2017-06-23 03:13:39 Levela_and_Kit_Rice-I_Keep_Going-(MFM097)-WEB-2017-wAx
2017-06-23 03:14:02 Neonlight-ARCOT01_Boom_Slap-(BLCKTNL045)-WEB-2017-wAx
2017-06-23 03:14:21 Spirit-Think_Bounty_Killer-(INNA042)-WEB-2017-wAx
2017-06-23 03:15:20 Flaked.S01E03.WEB.x264-ELUDE
2017-06-23 03:22:02 Impish-Around_No_One_Else-(CIAQSDK007)-WEB-2017-wAx
2017-06-23 03:22:14 I.am.not.your.Negro.2016.German.AC3D.DL.DOKU.1080p.BluRay.AVC-CLASSiCALHD
2017-06-23 03:22:20 Trex-Lazers_Tabernacle-(SNB021)-WEB-2017-wAx
2017-06-23 03:23:21 Flaked.S01E04.WEB.x264-ELUDE
2017-06-23 03:25:27 Flaked.S01E05.WEB.x264-ELUDE
2017-06-23 03:25:48 Macca_and_Loz_Contreras-Anything_For_You-(SGN050S1)-WEB-2017-wAx
2017-06-23 03:27:05 Flaked.S01E06.WEB.x264-ELUDE
2017-06-23 03:27:47 Citizen.Khan.S05.PAL.DVDR-WaLMaRT
2017-06-23 03:30:28 Lasers_and_Fast_and_Shit-Second_Cat_Fight-WEB-2012-FATHEAD
2017-06-23 03:31:31 Eric_Burdon_and_The_Animals-Every_One_Of_Us-VINYL-FLAC-1968-FATHEAD
2017-06-23 03:31:37 Juste.Un.Regard.S01E04.FRENCH.1080p.HDTV.x264-Ryotox
2017-06-23 03:32:39 Golden_Earring-Golden_Earring-VINYL-FLAC-1970-FATHEAD
2017-06-23 03:33:51 Soul_Asylum-Say_What_You_Will-VINYL-FLAC-1984-FATHEAD
2017-06-23 03:35:02 Soul_Asylum-While_You_Were_Out-VINYL-FLAC-1986-FATHEAD
2017-06-23 03:36:16 The_Butterfield_Blues_Band-Keep_On_Moving-VINYL-FLAC-1969-FATHEAD
2017-06-23 03:37:43 Resist-Arrival_EP-(UNCMN01)-WEB-2017-wAx
2017-06-23 03:38:12 The_Holy_Ghostriders-Fast_Track_Heart_Attack-VINYL-FLAC-2008-FATHEAD
2017-06-23 03:38:12 Flaked.S01E07.WEB.x264-ELUDE
2017-06-23 03:38:12 Voltage-Ritual_EP-(UNCMN02)-WEB-2017-wAx
2017-06-23 03:38:47 The_Illinois_Speed_Press-The_Illinois_Speed_Press-VINYL-FLAC-1969-FATHEAD
2017-06-23 03:41:07 Flaked.S01E08.WEB.x264-ELUDE
2017-06-23 03:46:16 Missing.S01E01.WEB.x264-TASTETV
2017-06-23 03:47:22 Missing.S01E02.WEB.x264-TASTETV
2017-06-23 03:48:24 Missing.S01E03.WEB.x264-TASTETV
2017-06-23 03:49:28 Missing.S01E04.WEB.x264-TASTETV
2017-06-23 03:50:41 Missing.S01E05.WEB.x264-TASTETV
2017-06-23 03:51:47 Missing.S01E06.WEB.x264-TASTETV
2017-06-23 03:52:52 Missing.S01E07.WEB.x264-TASTETV
2017-06-23 03:53:54 Missing.S01E08.WEB.x264-TASTETV
2017-06-23 03:54:58 Missing.S01E09.WEB.x264-TASTETV
2017-06-23 03:56:00 Missing.S01E10.WEB.x264-TASTETV
2017-06-23 03:56:57 Abyss-SOLDIER-SINGLE-WEB-2014-ENRAGED_iNT
2017-06-23 03:57:04 Missing.S01E11.WEB.x264-TASTETV
2017-06-23 03:57:13 Abyss-Why_You_Mad-SINGLE-WEB-2016-ENRAGED
2017-06-23 03:57:28 Cuban_Link-Abusadora-SINGLE-WEB-2017-ENRAGED
2017-06-23 03:57:44 DJ_Stevie_J-It_Only_Happens_In_Miami_(feat_Young_Dolph_Zoey_Dollaz_and_Trick_Daddy)-SINGLE-WEB-2016-ENRAGED
2017-06-23 03:58:00 Flipp_Dinero-The_Guala_Way-EP-WEB-2017-ENRAGED
2017-06-23 03:58:09 Missing.S01E12.WEB.x264-TASTETV
2017-06-23 03:58:15 J-Deuce-All_Things_to_All_People-WEB-2013-ENRAGED
2017-06-23 03:58:30 J-Deuce-Changed_Man-WEB-2014-ENRAGED
2017-06-23 03:58:42 Yowda-City_Of_No_Sleep_(CONS)-WEB-2014-ESG
2017-06-23 03:58:47 One_and_O-Digital_Dope_ft_Nascar_Visi-SINGLE-WEB-2016-ENRAGED
2017-06-23 03:59:02 One_and_O-Just_My_Style_(ft_DI)-SINGLE-WEB-2017-ENRAGED
2017-06-23 03:59:08 Yowda-Reception-WEB-2015-ESG
2017-06-23 03:59:14 Missing.S01E13.WEB.x264-TASTETV
2017-06-23 03:59:17 One_and_O-Whole_Squad_Turnt_(feat_Avenu_Andrieux)-SINGLE-WEB-2016-ENRAGED
2017-06-23 03:59:34 Shy_Glizzy-FTO-WEB-2015-ENRAGED
2017-06-23 03:59:44 Yowda-Cokanomics-WEB-2016-ESG
2017-06-23 03:59:52 Shy_Glizzy-Jefe-Shy_Glizzy_Greatest_Hits_(Deluxe_Edition)-BONUS_TRACKS-WEB-2017-ENRAGED
2017-06-23 04:00:05 Shy_Glizzy-Law_1_and_2-WEB-2014-ENRAGED
2017-06-23 04:00:17 Missing.S01E14.WEB.x264-TASTETV
2017-06-23 04:00:21 Shy_Glizzy-Young_Jefe-WEB-2014-ENRAGED
2017-06-23 04:00:54 Skaz_One-Thats_Life_2_(Dead_In_Jail_Or_Famous)-WEB-2015-ESG
2017-06-23 04:01:18 Skaz_One-Revolting-WEB-2016-ESG
2017-06-23 04:01:24 Missing.S01E15.WEB.x264-TASTETV
2017-06-23 04:01:42 Skaz_One-White_Trash_Bruschetta__EP-WEB-2017-ESG
2017-06-23 04:01:49 Nashville.2012.S05E15.720p.HDTV.x264-SVA
2017-06-23 04:02:11 The_Council-One_Tribe_One_Nation-WEB-2013-ESG
2017-06-23 04:02:29 Kong.Skull.Island.German.DL.AC3.Dubbed.1080p.BluRay.x264-PsO
2017-06-23 04:02:40 Nashville.2012.S05E15.HDTV.x264-SVA
2017-06-23 04:03:22 Missing.S01E16.WEB.x264-TASTETV
2017-06-23 04:03:23 VA-Boom_Bap_Hip_Hop_Classic_Underground_Hip-Hop-WEB-2015-ESG
2017-06-23 04:03:31 Missing.S01E17.WEB.x264-TASTETV
2017-06-23 04:03:46 Prison.Break.S05E08.720p.BluRay.x264-DEMAND
2017-06-23 04:04:36 Missing.S01E18.WEB.x264-TASTETV
2017-06-23 04:05:35 Saving.Hope.S05E12.HDTV.x264-KILLERS
2017-06-23 04:06:15 Missing.S02E01.INTERNAL.WEB.x264-TASTETV
2017-06-23 04:06:36 Saving.Hope.S05E12.720p.HDTV.x264-KILLERS
2017-06-23 04:07:18 Missing.S02E02.INTERNAL.WEB.x264-TASTETV
2017-06-23 04:07:43 Prison.Break.S05E09.720p.BluRay.x264-DEMAND
2017-06-23 04:08:29 Missing.S02E03.INTERNAL.WEB.x264-TASTETV
2017-06-23 04:09:31 Missing.S02E04.INTERNAL.WEB.x264-TASTETV
2017-06-23 04:10:34 Missing.S02E05.INTERNAL.WEB.x264-TASTETV
2017-06-23 04:11:36 Missing.S02E06.INTERNAL.WEB.x264-TASTETV
2017-06-23 04:12:02 Andrew_Wood-Melodies_And_Dreams-WEB-2011-ENTiTLED
2017-06-23 04:12:23 Chris_Cornell-Til_the_Sun_Comes_Back_Around-SINGLE-WEB-2016-ENTiTLED
2017-06-23 04:12:42 Missing.S02E07.INTERNAL.WEB.x264-TASTETV
2017-06-23 04:12:44 Kong.Skull.Island.German.DL.AC3.Dubbed.720p.BluRay.x264-PsO
2017-06-23 04:12:44 Frank_Zappa-Dutch_Courage-BONUS_TRACKS-WEB-2016-ENTiTLED
2017-06-23 04:13:54 Missing.S02E08.INTERNAL.WEB.x264-TASTETV
2017-06-23 04:14:56 Missing.S02E09.INTERNAL.WEB.x264-TASTETV
2017-06-23 04:16:02 Missing.S02E10.INTERNAL.WEB.x264-TASTETV
2017-06-23 04:17:04 Missing.S02E11.INTERNAL.WEB.x264-TASTETV
2017-06-23 04:18:07 Missing.S02E12.INTERNAL.WEB.x264-TASTETV
2017-06-23 04:19:10 Missing.S02E13.INTERNAL.WEB.x264-TASTETV
2017-06-23 04:19:15 DDFBusty.17.06.23.Patty.Michova.XXX.1080p.MP4-KTR
2017-06-23 04:19:30 Big.Brothers.Bit.On.The.Side.S13E14.HDTV.x264-PLUTONiUM
2017-06-23 04:19:49 FullyClothedSex.17.06.22.Dona.XXX.1080p.MP4-KTR
2017-06-23 04:20:11 Missing.S02E14.INTERNAL.WEB.x264-TASTETV
2017-06-23 04:20:29 HotLegsAndFeet.17.06.23.Kayla.Green.XXX.1080p.MP4-KTR
2017-06-23 04:21:15 Missing.S02E15.INTERNAL.WEB.x264-TASTETV
2017-06-23 04:21:46 HotLegsAndFeet.17.06.23.Kayla.Green.XXX.2160p.MP4-KTR
2017-06-23 04:22:11 MyVeryFirstTime.17.06.23.Nina.Skye.Ninas.First.Scene.XXX.1080p.MP4-KTR
2017-06-23 04:22:18 Missing.S02E16.INTERNAL.WEB.x264-TASTETV
2017-06-23 04:23:19 Missing.S02E17.INTERNAL.WEB.x264-TASTETV
2017-06-23 04:24:12 MyVeryFirstTime.17.06.23.Nina.Skye.Ninas.First.Scene.XXX.2160p.MP4-KTR
2017-06-23 04:24:22 Missing.S02E18.INTERNAL.WEB.x264-TASTETV
2017-06-23 04:24:25 Kong.Skull.Island.German.AC3.Dubbed.BDRip.x264-PsO
2017-06-23 04:25:18 POVD.17.06.23.Alex.Blake.Hot.Yoga.XXX.1080p.MP4-KTR
2017-06-23 04:25:25 Missing.S03E01.WEB.x264-TASTETV
2017-06-23 04:26:30 Missing.S03E02.WEB.x264-TASTETV
2017-06-23 04:26:35 Big.Brothers.Bit.On.The.Side.S13E14.720p.HDTV.x264-PLUTONiUM
2017-06-23 04:27:34 Missing.S03E03.WEB.x264-TASTETV
2017-06-23 04:28:35 Missing.S03E04.WEB.x264-TASTETV
2017-06-23 04:29:39 Missing.S03E05.WEB.x264-TASTETV
2017-06-23 04:30:42 Missing.S03E06.WEB.x264-TASTETV
2017-06-23 04:31:46 Missing.S03E07.WEB.x264-TASTETV
2017-06-23 04:32:50 Missing.S03E08.WEB.x264-TASTETV
2017-06-23 04:33:26 Loving.2016.German.DL.1080p.BluRay.AVC-REMUX
2017-06-23 04:33:53 Missing.S03E09.WEB.x264-TASTETV
2017-06-23 04:35:04 Missing.S03E10.WEB.x264-TASTETV
2017-06-23 04:36:18 Missing.S03E11.WEB.x264-TASTETV
2017-06-23 04:37:23 Missing.S03E12.WEB.x264-TASTETV
2017-06-23 04:38:13 Need_For_Mirrors-Mutiny_EP-(GBBYF1700005)-WEB-2017-wAx
2017-06-23 04:38:27 Missing.S03E13.WEB.x264-TASTETV
2017-06-23 04:38:42 LarasPlayground.17.06.23.Lara.Waiting.For.The.Guy.To.Arrive.XXX.1080p.MP4-KTR
2017-06-23 04:38:57 Redeyes_and_Shield-Modern_Soul_3_LP_Sampler-(VDLLTDLP003S)-WEB-2017-wAx
2017-06-23 04:39:13 PornMegaLoad.17.06.22.Ariel.Chill.Teen.XXX.1080p.MP4-KTR
2017-06-23 04:39:23 Salaryman-Your_Love_Lifts_Me_Up_Badman_Sound-(RAMM260)-WEB-2017-wAx
2017-06-23 04:39:30 Missing.S03E14.WEB.x264-TASTETV
2017-06-23 04:39:41 Too_Greezey-Mysterons_(Taxman_Remix)_Heros-(SLR025)-WEB-2017-wAx
2017-06-23 04:39:58 PornMegaLoad.17.06.22.Katie.Black.Bouncy.And.Bubbly.XXX.1080p.MP4-KTR
2017-06-23 04:40:32 Missing.S03E15.WEB.x264-TASTETV
2017-06-23 04:40:36 PornMegaLoad.17.06.22.Princess.Pumpkins.Deep.In.The.Pumpkin.Patch.XXX.1080p.MP4-KTR
2017-06-23 04:41:19 PornMegaLoad.17.06.22.Velvet.Skye.Newcomer.Velvet.Gets.Fresh.Young.Meat.XXX.1080p.MP4-KTR
2017-06-23 04:41:24 Big.Brothers.Bit.On.The.Side.S13E14.1080p.HDTV.x264-PLUTONiUM
2017-06-23 04:41:36 Missing.S03E16.WEB.x264-TASTETV
2017-06-23 04:42:25 60_East-10_000_Hours_A_Story_of_Success-WEB-2016-ENRAGED
2017-06-23 04:42:41 Missing.S03E17.WEB.x264-TASTETV
2017-06-23 04:42:41 60_East-The_Freeway_Series_Vol_1-EP-WEB-2014-ENRAGED
2017-06-23 04:42:55 Big_Fase_100-Cash_Brings_Power-WEB-2013-ENRAGED
2017-06-23 04:43:12 Big_Fase_100-Keep_It_100-WEB-2010-ENRAGED
2017-06-23 04:43:28 Big_Fase_100-Pimpin_Since_The_Pyramids-WEB-2012-ENRAGED
2017-06-23 04:43:40 Flaked.S02E01.WEB.x264-ELUDE
2017-06-23 04:43:43 Big_Fase_100-Piruminati-WEB-2013-ENRAGED
2017-06-23 04:43:44 Missing.S03E18.WEB.x264-TASTETV
2017-06-23 04:43:55 Nashville.2012.S05E15.1080p.WEB.x264-TBS
2017-06-23 04:43:56 Killbox_and_Ryme_Tyme-Clickbait-(RAMM268)-WEB-2017-wAx
2017-06-23 04:44:00 Big_Fase_100-The_Warning-SINGLE-WEB-2016-ENRAGED
2017-06-23 04:44:14 Cruze-Follow_Me_(feat_Idrise)-SINGLE-WEB-2016-ENRAGED
2017-06-23 04:44:25 Flaked.S02E02.WEB.x264-ELUDE
2017-06-23 04:44:30 Cruze-Get_Lit_(DJ_Edit)_feat_Mawuli_and_Idrise-SINGLE-WEB-2017-ENRAGED
2017-06-23 04:44:46 Cruze-Get_Lit_(feat_Mawuli_and_Idrise)-SINGLE-WEB-2017-ENRAGED
2017-06-23 04:44:48 Missing.S03E19.WEB.x264-TASTETV
2017-06-23 04:45:01 DJ_ClimeX-Feel_the_Vibe_(feat_Don_Andre)-SINGLE-WEB-2017-ENRAGED
2017-06-23 04:45:14 Flaked.S02E03.WEB.x264-ELUDE
2017-06-23 04:45:18 DJ_Willi-All_About_You-SINGLE-WEB-2017-ENRAGED
2017-06-23 04:45:34 French_Montana-Unforgettable_(J_Hus_and_Jae5_Remix)-SINGLE-WEB-2017-ENRAGED
2017-06-23 04:45:36 Flaked.S02E04.WEB.x264-ELUDE
2017-06-23 04:45:48 French_Montana-Unforgettable_(Major_Lazer_Remix)-SINGLE-WEB-2017-ENRAGED
2017-06-23 04:46:02 Flaked.S02E05.WEB.x264-ELUDE
2017-06-23 04:46:04 J-Mill-Certified_HuSTle_EP-EP-WEB-2008-ENRAGED
2017-06-23 04:46:20 J-Mill-Get_Money_Money_Ft_Big_Fase_100_(DirtyRadio)-SINGLE-WEB-2010-ENRAGED
2017-06-23 04:46:21 Flaked.S02E06.WEB.x264-ELUDE
2017-06-23 04:46:35 J_Banks-Give_It_Up_(feat_Lil_Blood)-SINGLE-WEB-2017-ENRAGED
2017-06-23 04:46:51 Lil_B-Stone-Street_Essentails-SINGLE-WEB-2007-ENRAGED
2017-06-23 04:47:01 DJ_Kash_feat_Laura_Saggers_-_Rev_It_Up-(P2P028)-WEB-2017-ZzZz
2017-06-23 04:47:07 Lil_B-Stone-Street_Game-SINGLE-WEB-2006-ENRAGED
2017-06-23 04:47:22 Mr_Bono_featuring_Mitchy_Slick-Not_A_Problem-SINGLE-WEB-2013-ENRAGED
2017-06-23 04:47:38 Rayven_Justice-Why_Me-SINGLE-WEB-2017-ENRAGED
2017-06-23 04:47:48 Unbreakable.Kimmy.Schmidt.S03E01.WEB.x264-ELUDE
2017-06-23 04:47:53 Zeta_Attlast-Overdose_(feat_Yaphet)-SINGLE-WEB-2016-ENRAGED
2017-06-23 04:48:21 Unbreakable.Kimmy.Schmidt.S03E02.WEB.x264-ELUDE
2017-06-23 04:48:51 Unbreakable.Kimmy.Schmidt.S03E03.WEB.x264-ELUDE
2017-06-23 04:49:28 Unbreakable.Kimmy.Schmidt.S03E04.WEB.x264-ELUDE
2017-06-23 04:50:27 Big.Brother.UK.2017.06.22.Live.From.The.House.HDTV.x264-PLUTONiUM
2017-06-23 04:50:32 Unbreakable.Kimmy.Schmidt.S03E05.WEB.x264-ELUDE
2017-06-23 04:51:52 Unbreakable.Kimmy.Schmidt.S03E06.WEB.x264-ELUDE
2017-06-23 04:52:24 Unbreakable.Kimmy.Schmidt.S03E07.WEB.x264-ELUDE
2017-06-23 04:54:25 Unbreakable.Kimmy.Schmidt.S03E08.WEB.x264-ELUDE
2017-06-23 04:54:52 Unbreakable.Kimmy.Schmidt.S03E09.WEB.x264-ELUDE
2017-06-23 04:55:08 Unbreakable.Kimmy.Schmidt.S03E10.WEB.x264-ELUDE
2017-06-23 04:55:21 Unbreakable.Kimmy.Schmidt.S03E11.WEB.x264-ELUDE
2017-06-23 04:55:23 Mysteries.at.the.Museum.S16E08.iNTERNAL.720p.HDTV.x264-DHD
2017-06-23 04:55:43 Unbreakable.Kimmy.Schmidt.S03E12.WEB.x264-ELUDE
2017-06-23 04:55:55 Free.Rein.S01E01.720p.WEBRip.x264-STRiFE
2017-06-23 04:56:16 Unbreakable.Kimmy.Schmidt.S03E13.WEB.x264-ELUDE
2017-06-23 05:00:15 PACKT.PUBLISHING.LEARNING.PATH.ELASTICSEARCH.MASTERING.ADVANCED.SEARCH.QUERIES.TUTORiAL-PROPAGANDA
2017-06-23 05:02:02 Queen.of.the.South.S02E03.720p.HDTV.x264-SVA
2017-06-23 05:02:07 Free.Rein.S01E02.720p.WEBRip.x264-STRiFE
2017-06-23 05:02:13 PRENTICE.HALL.OBIEE.11G.REPORTS.AND.DASHBOARDS.TUTORiAL-PROPAGANDA
2017-06-23 05:02:38 Queen.of.the.South.S02E03.HDTV.x264-SVA
2017-06-23 05:11:24 Bang.Gonzo.17.06.23.Brittany.Shae.XXX.1080p.MP4-KTR
2017-06-23 05:12:08 CzechMassage.17.06.22.Massage.354.XXX.1080p.MP4-KTR
2017-06-23 05:13:16 Defloration.17.06.22.Galina.Kabachok.Hardcore.Defloration.XXX.1080p.MP4-KTR
2017-06-23 05:13:54 Free.Rein.S01E03.720p.WEBRip.x264-STRiFE
2017-06-23 05:13:55 GroupBanged.17.06.09.Gang.Bang.Bitch.Only.Wearing.Her.Stockings.XXX.1080p.MP4-KTR
2017-06-23 05:14:50 GroupBanged.17.06.23.This.Gangbang.MILF.Wants.Even.More.Cum.XXX.1080p.MP4-KTR
2017-06-23 05:15:15 Underbelly.NZ.Land.of.the.Long.Green.Cloud.S01E01.720p.WEB.x264-TASTETV
2017-06-23 05:15:24 KarupsHA.17.06.22.Amia.Moretti.Hardcore.2.XXX.720p.MP4-KTR
2017-06-23 05:15:53 KarupsPC.17.06.22.Kathy.Capri.Hardcore.XXX.720p.MP4-KTR
2017-06-23 05:16:19 Underbelly.NZ.Land.of.the.Long.Green.Cloud.S01E02.720p.WEB.x264-TASTETV
2017-06-23 05:16:39 The.Daily.Show.2017.06.22.Jerrod.Carmichael.1080p.WEB.x264-TBS
2017-06-23 05:16:50 The.Daily.Show.2017.06.22.Jerrod.Carmichael.WEB.x264-TBS
2017-06-23 05:16:55 The.Daily.Show.2017.06.22.Jerrod.Carmichael.720p.WEB.x264-TBS
2017-06-23 05:17:30 Underbelly.NZ.Land.of.the.Long.Green.Cloud.S01E03.720p.WEB.x264-TASTETV
2017-06-23 05:18:33 Underbelly.NZ.Land.of.the.Long.Green.Cloud.S01E04.720p.WEB.x264-TASTETV
2017-06-23 05:19:03 Bang.Gonzo.17.06.23.Brittany.Shae.XXX.2160p.MP4-KTR
2017-06-23 05:19:36 The.Mist.S01E01.720p.HDTV.x264-KILLERS
2017-06-23 05:20:25 Underbelly.NZ.Land.of.the.Long.Green.Cloud.S01E05.720p.WEB.x264-TASTETV
2017-06-23 05:21:28 Underbelly.NZ.Land.of.the.Long.Green.Cloud.S01E06.720p.WEB.x264-TASTETV
2017-06-23 05:22:01 ADDISON.WESLEY.LIVE.LESSONS.DOCKER.CONTAINERS.TUTORiAL-PROPAGANDA
2017-06-23 05:23:32 Loving.2016.German.DTS.DL.1080p.BluRay.x264-COiNCiDENCE
2017-06-23 05:23:45 Moontrap.Target.Earth.2017.1080p.BluRay.x264-GUACAMOLE
2017-06-23 05:23:56 Loving.2016.German.DTS.DL.720p.BluRay.x264-COiNCiDENCE
2017-06-23 05:24:06 The.Mist.S01E01.HDTV.x264-KILLERS
2017-06-23 05:24:28 Loving.German.2016.AC3.BDRip.x264-COiNCiDENCE
2017-06-23 05:28:27 HookupHotshot.16.12.04.Moka.Mora.Up.The.Butt.Meet-Up.XXX.2160p.MP4-KTR
2017-06-23 05:28:47 Genius.2017.S01E09-E10.1080p.HDTV.x264-CROOKS
2017-06-23 05:29:16 HookupHotshot.16.12.07.Olivia.Young.BTS.XXX.1080p.MP4-KTR
2017-06-23 05:31:52 HookupHotshot.16.12.07.Olivia.Young.BTS.XXX.2160p.MP4-KTR
2017-06-23 05:31:54 HookupHotshot.16.12.07.Olivia.Young.BT.XXX.2160p.MP4--KTR
2017-06-23 05:34:02 HookupHotshot.16.12.09.Abella.Danger.A.Match.Made.Up.The.Ass.XXX.2160p.MP4-KTR
2017-06-23 05:34:39 Pluralsight.Penetration.Testing.Life.Cycle.Explained-XQZT
2017-06-23 05:34:49 10.Days.in.a.Madhouse.2015.German.DL.1080p.BluRay.x264-MOViEiT
2017-06-23 05:37:37 FallInLovia.17.04.05.A.Day.At.The.Beach.XXX.1080p.MP4-KTR
2017-06-23 05:38:41 FallInLovia.17.04.11.Give.Me.A.Show.XXX.1080p.MP4-KTR
2017-06-23 05:39:26 FallInLovia.17.04.12.Welcome.To.Miami.XXX.1080p.MP4-KTR
2017-06-23 05:40:23 FallInLovia.17.04.23.A.Casual.Affair.XXX.1080p.MP4-KTR
2017-06-23 05:41:12 FallInLovia.17.04.26.Evas.Beach.Tease.XXX.1080p.MP4-KTR
2017-06-23 05:42:04 FallInLovia.17.04.29.Open.Sea.Fun.XXX.1080p.MP4-KTR
2017-06-23 05:42:07 ADDISON.WESLEY.GIT.UNDER.THE.HOOD.TUTORiAL-PROPAGANDA
2017-06-23 05:42:43 FallInLovia.17.05.04.Shyla.Jennings.Beach.Tease.XXX.1080p.MP4-KTR
2017-06-23 05:43:25 FallInLovia.17.05.06.Beach.Babe.XXX.1080p.MP4-KTR
2017-06-23 05:44:28 Porntugal.15.12.11.Lucia.Live.And.Uncensored.PORTUGUESE.XXX.1080p.MP4-KTR
2017-06-23 05:45:44 Porntugal.15.12.11.Rebecca.Pinar.Fishnet.Stripper.PORTUGUESE.XXX.1080p.MP4-KTR
2017-06-23 05:46:58 Porntugal.15.12.11.Scarlett.Johnson.The.Right.Tool.For.The.Job.PORTUGUESE.XXX.1080p.MP4-KTR
2017-06-23 05:46:59 Mountain.Men.S06E03.720p.HDTV.x264-KILLERS
2017-06-23 05:48:11 Porntugal.15.12.11.Susana.Melo.The.Princess.Throne.PORTUGUESE.XXX.1080p.MP4-KTR
2017-06-23 05:48:49 RileyVega.17.01.08.Cock.Tease.XXX.720p.MP4-KTR
2017-06-23 05:48:55 Kong.Skull.Island.2017.FRENCH.720p.BluRay.x264-VENUE
2017-06-23 05:49:07 Kong.Skull.Island.2017.FRENCH.BDRip.x264-VENUE
2017-06-23 05:49:26 Kong.Skull.Island.2017.MULTi.1080p.BluRay.x264-VENUE
2017-06-23 05:49:39 RileyVega.17.01.09.Quick.Iphone.Cum.XXX.1080p.MP4-KTR
2017-06-23 05:50:32 RileyVega.17.01.09.Wearing.Your.Shirt.XXX.1080p.MP4-KTR
2017-06-23 05:51:18 RileyVega.17.01.10.Sexy.Shower.Play.XXX.720p.MP4-KTR
2017-06-23 05:52:07 RileyVega.17.01.24.Fuckin.In.My.Chucks.XXX.1080p.MP4-KTR
2017-06-23 05:52:36 VA_-_Harder_Styler_Austria-(10120635)-WEB-2017-ZzZz
2017-06-23 05:52:53 Mountain.Men.S06E03.HDTV.x264-KILLERS
2017-06-23 05:53:01 RileyVega.17.01.24.Hot.Ass.Video.XXX.1080p.MP4-KTR
2017-06-23 05:55:36 The.Strain.S03E01.FRENCH.720p.BluRay.x264-VENUE
2017-06-23 05:55:58 The.Strain.S03E02.FRENCH.720p.BluRay.x264-VENUE
2017-06-23 05:56:04 The.Strain.S03E03.FRENCH.720p.BluRay.x264-VENUE
2017-06-23 05:56:12 The.Strain.S03E04.FRENCH.720p.BluRay.x264-VENUE
2017-06-23 05:56:18 The.Strain.S03E05.FRENCH.720p.BluRay.x264-VENUE
2017-06-23 05:56:23 The.Strain.S03E06.FRENCH.720p.BluRay.x264-VENUE
2017-06-23 05:56:30 The.Strain.S03E07.FRENCH.720p.BluRay.x264-VENUE
2017-06-23 05:56:36 The.Strain.S03E08.FRENCH.720p.BluRay.x264-VENUE
2017-06-23 05:56:44 The.Strain.S03E09.FRENCH.720p.BluRay.x264-VENUE
2017-06-23 05:58:48 The.Strain.S03E10.FINAL.FRENCH.720p.BluRay.x264-VENUE
2017-06-23 06:03:35 Cosmid.17.06.23.Toni.T.Toni.Ts.In.The.Bath.Again.XXX.1080p.MP4-YAPG
2017-06-23 06:03:40 DirtyMasseur.17.06.23.Jada.Stevens.Taking.Care.Of.Businessman.XXX.1080p.MP4-KTR
2017-06-23 06:06:49 DPFanatics.17.06.23.Ally.Breelsen.Employee.Of.The.Month.XXX.1080p.MP4-KTR
2017-06-23 06:07:49 Throated.17.06.23.Giselle.Palmer.XXX.1080p.MP4-KTR
2017-06-23 06:08:25 Free.Rein.S01E04.720p.WEBRip.x264-STRiFE
2017-06-23 06:10:01 MilfsLikeItBig.17.06.23.Synthia.Fixx.Photo.Finish.On.My.Tits.XXX.1080p.MP4-KTR
2017-06-23 06:10:06 At.Midnight.2017.06.22.720p.WEB.x264-TBS
2017-06-23 06:10:19 At.Midnight.2017.06.22.WEB.x264-TBS
2017-06-23 06:11:06 At.Midnight.2017.06.22.1080p.WEB.x264-TBS
2017-06-23 06:11:29 PervsOnPatrol.17.06.23.Audrey.Royal.Ex-Girlfriend.Sex.Tape.Surprise.XXX.1080p.MP4-KTR
2017-06-23 06:12:43 Big.Brother.UK.2017.06.22.Live.From.The.House.720p.HDTV.x264-PLUTONiUM
2017-06-23 06:13:00 Going_Deeper_and_Deep_Matter_ft_AWR__-_First_Glimpse-(ARTR200A)-WEB-2017-MMS
2017-06-23 06:15:33 Alone.S04E02.720p.HDTV.x264-KILLERS
2017-06-23 06:18:12 CherryPop.17.06.23.Kiley.Jay.Lets.Have.Some.Fun.XXX.1080p.MP4-KTR
2017-06-23 06:19:01 DarkX.17.06.23.Quinn.Wilde.And.Zoe.Clark.We.Share.Everything.Part.2.XXX.1080p.MP4-KTR
2017-06-23 06:19:02 Food.Paradise.S11E04.Donut.Shop.HDTV.x264-CRiMSON
2017-06-23 06:19:40 EroticaX.17.06.23.Dolly.Leigh.Make.Me.Feel.Special.XXX.1080p.MP4-KTR
2017-06-23 06:19:54 Food.Paradise.S11E04.Donut.Shop.720p.HDTV.x264-CRiMSON
2017-06-23 06:20:50 HardX.17.06.23.Gina.Valentina.Keep.It.Creamy.XXX.1080p.MP4-KTR
2017-06-23 06:21:17 Food.Paradise.S11E05.Keepin.It.Retro.HDTV.x264-CRiMSON
2017-06-23 06:21:27 PixAndVideo.17.06.23.Darcia.Lee.Daugthers.Friend.XXX.1080p.MP4-KTR
2017-06-23 06:21:33 Alone.S04E02.HDTV.x264-KILLERS
2017-06-23 06:22:21 WebYoung.17.06.23.Gia.Paige.And.Adria.Rae.Panty.Raid.XXX.1080p.MP4-KTR
2017-06-23 06:22:31 Big.Brother.UK.2017.06.22.Live.From.The.House.1080p.HDTV.x264-PLUTONiUM
2017-06-23 06:27:05 AllInternal.17.06.23.Chelsy.Sun.XXX.1080p.MP4-KTR
2017-06-23 06:28:19 NewSensations.17.06.23.Daisy.Gomez.XXX.1080p.MP4-KTR
2017-06-23 06:28:59 NuruMassage.17.06.23.Brett.Rossi.And.Jaye.Summers.Gel.Manicure.Mixup.XXX.1080p.MP4-KTR
2017-06-23 06:29:30 Free.Rein.S01E05.720p.WEBRip.x264-STRiFE
2017-06-23 06:30:32 PropertySex.17.06.23.April.Snow.Come.Work.For.Me.XXX.1080p.MP4-KTR
2017-06-23 06:33:08 3cue-Continuum-(KTFR0204DD)-WEB-2017-LEV
2017-06-23 06:33:38 Ai-Paradigmension-(BLURRED002D)-WEB-2017-LEV
2017-06-23 06:34:08 Alicia_Gwynn-I_AM-WEB-2017-LEV
2017-06-23 06:34:38 Ananda_Project-Remix_Collection-(KSD353)-WEB-2017-LEV
2017-06-23 06:35:08 Bass_Riders-Low_And_Slow_Feel_The_Boom-(894232664723)-WEB-2017-LEV
2017-06-23 06:35:11 Highway.Thru.Hell.Extremrettung.in.Kanada.S02E02.Groesste.Herausforderung.German.DOKU.HDTVRiP.x264-UTOPiA
2017-06-23 06:35:23 Free.Rein.S01E06.720p.WEBRip.x264-STRiFE
2017-06-23 06:35:38 Berangere_Maximin-Frozen_Refrains-(ARDG007)-WEB-2017-LEV
2017-06-23 06:36:08 Bernie_Taupin-He_Who_Rides_The_Tiger-WEB-2017-LEV
2017-06-23 06:36:38 Bonanza_Feat._Bonna_Ross-Positive_Thinking_(Digital_Remastered_2017)-(4012010130741)-WEB-2017-LEV
2017-06-23 06:37:08 Boricua_Nation-Reggaeton_Roots_And_Dancehall_Rhythms-(894232665027)-WEB-2017-LEV
2017-06-23 06:37:38 Captain_Credible-Fantasy_Mansion-(MEAU0096PCB)-WEB-2017-LEV
2017-06-23 06:38:08 Chix_With_Guitars-Metal_Trap-(894232665225)-WEB-2017-LEV
2017-06-23 06:38:33 Highway.Thru.Hell.Extremrettung.in.Kanada.S02E03.Scott.kehrt.zurueck.German.DOKU.HDTVRiP.x264-UTOPiA
2017-06-23 06:38:38 Clem-Kalambur_House_Collection_Vol_93-(KCD17116)-WEB-2017-LEV
2017-06-23 06:39:38 Crooked_Colours-Vera-(SWEATDS264DJ)-WEB-2017-LEV
2017-06-23 06:40:08 Current_Control-Spring_Fever-(TFR253)-WEB-2017-LEV
2017-06-23 06:40:17 The.F.Word.US.S01E04.WEB.h264-TBS
2017-06-23 06:40:38 DJ_Reversive-The_Best_Of_Banging_Grooves_Records_Vol_19-(BGR235)-WEB-2017-LEV
2017-06-23 06:40:57 The.F.Word.US.S01E04.720p.WEB.h264-TBS
2017-06-23 06:41:08 Ding_Dong-My_Grung_Vol_1-(JW025)-WEB-2017-LEV
2017-06-23 06:41:21 Highway.Thru.Hell.Extremrettung.in.Kanada.S02E04.Konkurrenzkampf.German.DOKU.HDTVRiP.x264-UTOPiA
2017-06-23 06:41:52 Lexer_-_Reason-WEB-2017-MMS
2017-06-23 06:42:00 AEXCIT_ft._Mick_Fouse_-_Chain_Reaction-(TBM261B)-WEB-2017-MMS
2017-06-23 06:42:06 ATKGirlfriends.17.06.23.Gia.Paige.XXX.1080p.MP4-KTR
2017-06-23 06:42:09 Esteve-Across_The_Ocean-(4260359623336)-WEB-2017-LEV
2017-06-23 06:42:16 Cidian_-_Alyve-(STM172B)-WEB-2017-MMS
2017-06-23 06:42:37 FXHard-ThicK-(RADE011)-WEB-2017-LEV
2017-06-23 06:42:41 Highway.Thru.Hell.Extremrettung.in.Kanada.S02E05.Eilige.Medikamente.German.DOKU.HDTVRiP.x264-UTOPiA
2017-06-23 06:42:44 John_Dahlbaeck_-_Color_in_My_Heart_EP-(ARMAS1300B)-WEB-2017-MMS
2017-06-23 06:43:08 FYK-Unstoppable-(7630047124938)-WEB-2017-LEV
2017-06-23 06:43:30 ATKGirlfriends.17.06.23.Gia.Paige.XXX.2160p.MP4-KTR
2017-06-23 06:43:38 Faji-The_Whims_II-(3614975877429)-WEB-2017-LEV
2017-06-23 06:44:08 Gigi_Damico-Shoes-(NMMLP002)-WEB-2017-LEV
2017-06-23 06:44:19 Highway.Thru.Hell.Extremrettung.in.Kanada.S02E06.Konkurrenz.am.Berg.German.DOKU.HDTVRiP.x264-UTOPiA
2017-06-23 06:44:38 Hush_Space-Lets_Do_This-(MHR044)-WEB-2017-LEV
2017-06-23 06:44:49 ATKGirlfriends.17.06.23.Olivia.Lua.XXX.1080p.MP4-KTR
2017-06-23 06:45:08 Joshua_Ali-Over_Dey-(FXF1553)-WEB-2017-LEV
2017-06-23 06:45:39 KaizzaB-The_Downward_(Bonus_Tracks_Version)-BONUS_TRACKS-(EKB006)-WEB-2017-LEV
2017-06-23 06:46:08 Kimola_Brown-Lift_Him_Up_Vol_1-WEB-2017-LEV
2017-06-23 06:46:38 Kimola_Brown-Lift_Him_Up_Vol_2-WEB-2017-LEV
2017-06-23 06:46:47 Highway.Thru.Hell.Extremrettung.in.Kanada.S02E07.Crazy.Horse.German.DOKU.HDTVRiP.x264-UTOPiA
2017-06-23 06:47:09 Kynt-Extended_(DJ_Essential_Mix_Set)-(CC1607A)-WEB-2016-LEV
2017-06-23 06:47:24 Van_Dutch_and_Silver_Nikan_ft_Dee_Dee_-_Its_My_Life_(Danceboy_2017_Remixes)-WEB-2017-MMS
2017-06-23 06:47:42 The.Choir.S04.PAL.DVD9-SaMSCLUB
2017-06-23 06:48:08 VA-Classic_Grooves-(GSR0063)-WEB-2017-LEV
2017-06-23 06:48:38 VA-The_Arkadian_Spring-(AWD318503)-WEB-2017-LEV
2017-06-23 06:48:45 Sommar.Med.Ernst.S10E01.SWEDiSH.1080p.HDTV.x264-KAFFEREP
2017-06-23 06:48:57 Highway.Thru.Hell.Extremrettung.in.Kanada.S02E08.Jetzt.reichts.Schaetzchen.German.DOKU.HDTVRiP.x264-UTOPiA
2017-06-23 06:49:08 VA-Worx_All_Singles_And_Best_Remixes-(10121988)-WEB-2017-LEV
2017-06-23 06:49:38 tman-Sensual_Spaces-(SKP0403)-WEB-2017-LEV
2017-06-23 06:50:49 Highway.Thru.Hell.Extremrettung.in.Kanada.S02E09.Am.Abgrund.German.DOKU.HDTVRiP.x264-UTOPiA
2017-06-23 06:51:09 Highway.Thru.Hell.Extremrettung.in.Kanada.S02E10.Ein.Mann.ein.Wort.German.DOKU.HDTVRiP.x264-UTOPiA
2017-06-23 06:52:13 FTVGirls.17.06.23.Cecilia.Showing.It.All.Off.XXX.1080p.MP4-KTR
2017-06-23 06:53:23 Highway.Thru.Hell.Extremrettung.in.Kanada.S02E11.Keine.halben.Sachen.German.DOKU.HDTVRiP.x264-UTOPiA
2017-06-23 06:53:36 Highway.Thru.Hell.Extremrettung.in.Kanada.S02E12.Stunde.der.Entscheidung.German.DOKU.HDTVRiP.x264-UTOPiA
2017-06-23 06:54:18 Antoine_Clamaran-Brazil-WEB-2017-DWM
2017-06-23 06:54:22 FTVGirls.17.06.23.Kaylie.The.Benefits.Of.Flexibility.XXX.1080p.MP4-KTR
2017-06-23 06:54:40 Highway.Thru.Hell.Extremrettung.in.Kanada.S02E13.Aufgeben.ist.keine.Option.German.DOKU.HDTVRiP.x264-UTOPiA
2017-06-23 06:55:34 Highway.Thru.Hell.Extremrettung.in.Kanada.S02E02.Groesste.Herausforderung.German.DOKU.720p.HDTV.x264-UTOPiA
2017-06-23 06:56:31 Il.Corriere.Della.Sera.06.23.2017.iTALiAN.RETAiL.eBook-DiVER
2017-06-23 06:57:30 Highway.Thru.Hell.Extremrettung.in.Kanada.S02E03.Scott.kehrt.zurueck.German.DOKU.720p.HDTV.x264-UTOPiA
2017-06-23 06:58:26 PlayboyPlus.17.06.23.Katya.Clover.Poolside.Pleasure.XXX.1080p.MP4-KTR
2017-06-23 06:59:13 GangbangCreampie.17.06.19.G115.Aurora.BTS.XXX.1080p.MP4-KTR
2017-06-23 06:59:26 Highway.Thru.Hell.Extremrettung.in.Kanada.S02E04.Konkurrenzkampf.German.DOKU.720p.HDTV.x264-UTOPiA
2017-06-23 06:59:47 Highway.Thru.Hell.Extremrettung.in.Kanada.S02E05.Eilige.Medikamente.German.DOKU.720p.HDTV.x264-UTOPiA
2017-06-23 07:00:06 GangbangCreampie.17.06.23.G116.Tiff.Bannister.XXX.1080p.MP4-KTR
2017-06-23 07:02:11 Highway.Thru.Hell.Extremrettung.in.Kanada.S02E06.Konkurrenz.am.Berg.German.DOKU.720p.HDTV.x264-UTOPiA
2017-06-23 07:03:27 Highway.Thru.Hell.Extremrettung.in.Kanada.S02E07.Crazy.Horse.German.DOKU.720p.HDTV.x264-UTOPiA
2017-06-23 07:04:08 Highway.Thru.Hell.Extremrettung.in.Kanada.S02E08.Jetzt.reichts.Schaetzchen.German.DOKU.720p.HDTV.x264-UTOPiA
2017-06-23 07:04:57 PlumperPass.17.06.23.Veronica.Bottoms.Big.Cock.Resume.XXX.1080p.MP4-KTR
2017-06-23 07:06:02 Highway.Thru.Hell.Extremrettung.in.Kanada.S02E09.Am.Abgrund.German.DOKU.720p.HDTV.x264-UTOPiA
2017-06-23 07:07:56 Highway.Thru.Hell.Extremrettung.in.Kanada.S02E10.Ein.Mann.ein.Wort.German.DOKU.720p.HDTV.x264-UTOPiA
2017-06-23 07:10:08 Highway.Thru.Hell.Extremrettung.in.Kanada.S02E11.Keine.halben.Sachen.German.DOKU.720p.HDTV.x264-UTOPiA
2017-06-23 07:10:19 Highway.Thru.Hell.Extremrettung.in.Kanada.S02E12.Stunde.der.Entscheidung.German.DOKU.720p.HDTV.x264-UTOPiA
2017-06-23 07:10:22 RoccoSiffredi.Roccos.Psycho.Teens.11.XXX.720p.MP4-KTR
2017-06-23 07:12:10 Highway.Thru.Hell.Extremrettung.in.Kanada.S02E13.Aufgeben.ist.keine.Option.German.DOKU.720p.HDTV.x264-UTOPiA
2017-06-23 07:12:44 Highway.Thru.Hell.Extremrettung.in.Kanada.S02E02.Groesste.Herausforderung.German.DOKU.1080p.HDTV.x264-UTOPiA
2017-06-23 07:15:44 Highway.Thru.Hell.Extremrettung.in.Kanada.S02E03.Scott.kehrt.zurueck.German.DOKU.1080p.HDTV.x264-UTOPiA
2017-06-23 07:17:24 RoccoSiffredi.Roccos.Psycho.Teens.11.XXX.1080p.MP4-KTR
2017-06-23 07:19:31 Highway.Thru.Hell.Extremrettung.in.Kanada.S02E04.Konkurrenzkampf.German.DOKU.1080p.HDTV.x264-UTOPiA
2017-06-23 07:19:41 MomKnowsBest.17.06.23.Carolina.Sweets.And.Jaclyn.Taylor.Wear.And.Tear.XXX.1080p.MP4-KTR
2017-06-23 07:20:10 OREILLY.TIME.AND.RELATIONAL.THEORY.TUTORiAL-PROPAGANDA
2017-06-23 07:22:49 Highway.Thru.Hell.Extremrettung.in.Kanada.S02E05.Eilige.Medikamente.German.DOKU.1080p.HDTV.x264-UTOPiA
2017-06-23 07:23:07 Highway.Thru.Hell.Extremrettung.in.Kanada.S02E06.Konkurrenz.am.Berg.German.DOKU.1080p.HDTV.x264-UTOPiA
2017-06-23 07:25:21 Highway.Thru.Hell.Extremrettung.in.Kanada.S02E07.Crazy.Horse.German.DOKU.1080p.HDTV.x264-UTOPiA
2017-06-23 07:25:40 Highway.Thru.Hell.Extremrettung.in.Kanada.S02E08.Jetzt.reichts.Schaetzchen.German.DOKU.1080p.HDTV.x264-UTOPiA
2017-06-23 07:27:06 Highway.Thru.Hell.Extremrettung.in.Kanada.S02E07.Crazy.Horse.German.DOKU.1080p.HDTV.x-UTOPiA
2017-06-23 07:33:55 The.President.Show.S01E09.Matt.Walsh.720p.HDTV.x264-CROOKS
2017-06-23 07:34:12 The.President.Show.S01E09.Matt.Walsh.HDTV.x264-CROOKS
2017-06-23 07:38:11 La.Gazzetta.Dello.Sport.06.23.2017.iTALiAN.RETAiL.eBook-DiVER
2017-06-23 07:39:38 AnalTeenAngels.17.06.20.Linda.Weasley.Fill.My.Teen.Ass.XXX.1080p.MP4-KTR
2017-06-23 07:39:43 Prison.Break.S05E01.BDRip.x264-DEMAND
2017-06-23 07:39:51 Prison.Break.S05E02.BDRip.x264-DEMAND
2017-06-23 07:40:01 Prison.Break.S05E03.BDRip.x264-DEMAND
2017-06-23 07:40:11 Prison.Break.S05E04.BDRip.x264-DEMAND
2017-06-23 07:40:20 Prison.Break.S05E05.BDRip.x264-DEMAND
2017-06-23 07:40:32 Prison.Break.S05E06.BDRip.x264-DEMAND
2017-06-23 07:40:39 Prison.Break.S05E07.BDRip.x264-DEMAND
2017-06-23 07:40:47 Prison.Break.S05E08.BDRip.x264-DEMAND
2017-06-23 07:40:56 Prison.Break.S05E09.BDRip.x264-DEMAND
2017-06-23 07:46:06 Powerless.S01E10.720p.WEB.h264-TBS
2017-06-23 07:46:14 Powerless.S01E10.WEB.h264-TBS
2017-06-23 07:51:09 Highway.Thru.Hell.Extremrettung.in.Kanada.S02E09.Am.Abgrund.German.DOKU.1080p.HDTV.x264-UTOPiA
2017-06-23 07:51:25 Xphixiate-Daedalus-(PRIMEDIGI094)-WEB-2017-2FAST4U
2017-06-23 07:52:20 Highway.Thru.Hell.Extremrettung.in.Kanada.S02E10.Ein.Mann.ein.Wort.German.DOKU.1080p.HDTV.x264-UTOPiA
2017-06-23 07:53:07 Thoquu-See_The_Sky-(TRXX863)-WEB-2017-2FAST4U
2017-06-23 07:56:02 Highway.Thru.Hell.Extremrettung.in.Kanada.S02E11.Keine.halben.Sachen.German.DOKU.1080p.HDTV.x264-UTOPiA
2017-06-23 07:56:22 Highway.Thru.Hell.Extremrettung.in.Kanada.S02E12.Stunde.der.Entscheidung.German.DOKU.1080p.HDTV.x264-UTOPiA
2017-06-23 07:56:30 Highway.Thru.Hell.Extremrettung.in.Kanada.S02E13.Aufgeben.ist.keine.Option.German.DOKU.1080p.HDTV.x264-UTOPiA
2017-06-23 08:03:11 Highway.Thru.Hell.Extremrettung.in.Kanada.S03E01.Alte.Hoelle.neue.Gefahren.German.DOKU.1080p.HDTV.x264-UTOPiA
2017-06-23 08:06:36 Challenges.N527.FRENCH.RETAIL.eBook-PRESSECiTRON
2017-06-23 08:07:04 ELLE.N3731.FRENCH.RETAIL.eBook-PRESSECiTRON
2017-06-23 08:07:27 WildOnCam.15.10.20.Morgan.Lee.XXX.1080p.MP4-KTR
2017-06-23 08:07:32 L.Equipe.23.Juin.2017.FRENCH.RETAIL.eBook-PRESSECiTRON
2017-06-23 08:08:01 La.Libre.Belgique.23.Juin.2017.FRENCH.RETAIL.eBook-PRESSECiTRON
2017-06-23 08:08:29 Le.Figaro.23.Juin.2017.FRENCH.RETAIL.eBook-PRESSECiTRON
2017-06-23 08:08:58 Le.Parisien.23.juin.2017.FRENCH.RETAIL.eBook-PRESSECiTRON
2017-06-23 08:09:11 Sahara.2017.DANISH.WEBRip.x264-MoA
2017-06-23 08:09:27 Les.Echos.23.Juin.2017.FRENCH.RETAIL.eBook-PRESSECiTRON
2017-06-23 08:09:55 Liberation.23.Juin.2017.FRENCH.RETAIL.eBook-PRESSECiTRON
2017-06-23 08:10:28 WildOnCam.15.10.21.Abigail.Mac.XXX.1080p.MP4-KTR
2017-06-23 08:13:18 WildOnCam.15.10.21.Jessica.Ryan.XXX.1080p.MP4-KTR
2017-06-23 08:16:08 WildOnCam.15.10.22.Dava.Foxx.XXX.1080p.MP4-KTR
2017-06-23 08:18:06 Splashdown.XXX.720p.WEBRip.MP4-VSEX
2017-06-23 08:19:06 WildOnCam.15.10.23.Silvia.Saige.XXX.1080p.MP4-KTR
2017-06-23 08:21:35 Bang.Europe.30.XXX.720p.WEBRip.MP4-VSEX
2017-06-23 08:21:36 Bang.Europe.30.XXX.720p.WEBRip.MP4-VSE
2017-06-23 08:26:41 FemJoy.com_17.06.23.Li.Moon.Liberty.XXX.iMAGESET-YAPG
2017-06-23 08:28:12 Bang.Europe.30.XXX.1080p.WEBRip.MP4-VSEX
2017-06-23 08:32:02 BackroomFacials.com_17.06.22.Evilyn.Fierce.Sexy.Brunettes.Amazing.Body.XXX.iMAGESET-YAPG
2017-06-23 08:35:12 DJ_Khaled-Grateful-WEB-2017-ENRAGED
2017-06-23 08:37:09 BangBus.com_17.06.21.Jessica.Jones.Blonde.Dumped.And.Splashed.XXX.iMAGESET-YAPG
2017-06-23 08:37:21 Kathias.Wet.Dreams.XXX.720p.WEBRip.MP4-VSEX
2017-06-23 08:39:29 PublicPickUps.com_17.06.21.Selena.Sosa.Miama.Latina.Goes.Straight.For.Cash.XXX.iMAGESET-YAPG
2017-06-23 08:40:13 IKnowThatGirl.com_17.06.22.August.Ames.Have.Fun.Fuck.XXX.iMAGESET-YAPG
2017-06-23 08:40:52 PervsOnPatrol.com_17.06.23.Audrey.Royal.Ex-Girlfriend.Sex.Tape.Surprise.XXX.iMAGESET-YAPG
2017-06-23 08:41:43 Prison.Break.S05E01.1080p.BluRay.x264-ROVERS
2017-06-23 08:41:50 WeLiveTogether.com_17.06.20.Riley.Star.And.Daisy.Stone.Sun.Kissing.Sluts.XXX.iMAGESET-YAPG
2017-06-23 08:42:15 MC_Eiht-Keep_It_Hood-EP-WEB-2013-ENRAGED
2017-06-23 08:42:32 MC_Eiht-Represent_Like_This-SINGLE-WEB-2017-ENRAGED
2017-06-23 08:42:47 Shill_Macc-Two_2_the_Neck-SINGLE-WEB-2017-ENRAGED
2017-06-23 08:43:10 MonsterCurves.com_17.06.20.Skyla.Novea.Monster.Curves.Science.XXX.iMAGESET-YAPG
2017-06-23 08:43:11 Prison.Break.S05E02.1080p.BluRay.x264-ROVERS
2017-06-23 08:44:08 StreetBlowJobs.com_17.06.21.Alice.Coxxx.Lost.Ride.XXX.iMAGESET-YAPG
2017-06-23 08:44:15 Prison.Break.S05E03.1080p.BluRay.x264-ROVERS
2017-06-23 08:45:12 BigTitsBoss.com_17.06.21.Angie.Noir.Busty.Boss.Appreciation.Day.XXX.iMAGESET-YAPG
2017-06-23 08:45:52 Prison.Break.S05E04.1080p.BluRay.x264-ROVERS
2017-06-23 08:45:55 FirstTimeAuditions.com_17.06.22.Clea.Gaultier.Cleas.Dream.Cums.True.XXX.iMAGESET-YAPG
2017-06-23 08:46:06 Reverse_Prime-Mystery_Out-(IN020)-WEB-2017-WRT
2017-06-23 08:46:52 Mpumi_Mpumesh-Nomathotholo-(CAT33170)-WEB-2017-WRT
2017-06-23 08:46:56 RKPrime.com_17.06.22.Angela.White.After.School.Shenanigans.XXX.iMAGESET-YAPG
2017-06-23 08:47:23 Docolv-The_Scenes-(C11)-WEB-2017-WRT
2017-06-23 08:47:50 Prison.Break.S05E05.1080p.BluRay.x264-ROVERS
2017-06-23 08:48:25 Imdolla-Ball-(CAT32858)-WEB-2017-WRT
2017-06-23 08:48:42 VA-Warehouse_Acid-(SVRVA_061)-WEB-2017-BB8
2017-06-23 08:49:07 Kimberly_Deal-Orchidopexy-(3614973673412)-WEB-2016-2FAST4U
2017-06-23 08:49:08 Prison.Break.S05E06.1080p.BluRay.x264-ROVERS
2017-06-23 08:49:39 VA-Megahits_-_Sommer_2017-WEB-2017-VOiCE
2017-06-23 08:50:25 Rennie_Foster-Rf_Remixed_V2-(RFT03)-WEB-2017-2FAST4U
2017-06-23 08:50:33 Prison.Break.S05E07.1080p.BluRay.x264-ROVERS
2017-06-23 08:51:45 Lock_Pick__Wrexial-Noise_Architecture-(WWR084)-WEB-2017-2FAST4U
2017-06-23 08:51:54 Prison.Break.S05E08.1080p.BluRay.x264-ROVERS
2017-06-23 08:52:38 Detski-The_Twist-(OSD062)-WEB-2017-2FAST4U
2017-06-23 08:53:01 Prison.Break.S05E09.1080p.BluRay.x264-ROVERS
2017-06-23 08:53:20 Beginni-Escobar-(CAT32291)-WEB-2017-2FAST4U
2017-06-23 08:54:18 Kathias.Wet.Dreams.XXX.1080p.WEBRip.MP4-VSEX
2017-06-23 08:54:32 Aio-Mantra-(GZ003)-WEB-2017-2FAST4U
2017-06-23 08:55:08 Milk__Sugar-Summertime-(MSR207STEMS)-WEB-2017-2FAST4U
2017-06-23 08:55:47 Cairo_Venom-Pulse-(ER0002)-WEB-2017-2FAST4U
2017-06-23 08:56:40 Massive-Ghetto_Monk_Step-(DBD17325)-WEB-2017-2FAST4U
2017-06-23 09:00:05 Blasto-Bun_Yah-(848760052224)-WEB-2017-MORE
2017-06-23 09:00:32 Katalys_Crew-Woman-(848760051913)-WEB-2017-MORE
2017-06-23 09:00:59 HIDDN_and_LEVV_-_Blood_On_My_Hands-(ARMAS1299)-WEB-2017-MMS
2017-06-23 09:01:00 Roxxie-How_We_Live-(848760052743)-WEB-2017-MORE
2017-06-23 09:01:26 Xibata-Woman-(CR005)-WEB-2017-MORE
2017-06-23 09:01:54 Propa_Kancep-Bigringdong-(848760052002)-WEB-2017-MORE
2017-06-23 09:02:24 Ajonii-Naked_Truth-(848760051876)-WEB-2017-MORE
2017-06-23 09:02:56 Quata_Budukusu-Pum_Pum_Shots-(848760051708)-WEB-2015-MORE
2017-06-23 09:03:24 Quata_Budukusu-Fake_Loyalty-(848760051715)-WEB-2017-MORE
2017-06-23 09:05:12 4_Seas_-_Sagra-(EGMSIN144)-WEB-2017-MMS
2017-06-23 09:05:34 BadDaddyPOV.17.06.23.Katrina.Jade.Is.A.Disrepectful.Young.Slut.XXX.1080p.MP4-KTR
2017-06-23 09:06:05 Social_Contract-Six_Pips-(EARM002)-WEB-2017-bAMM
2017-06-23 09:06:11 Allura_-_Byzantium-(SCR097)-WEB-2017-MMS
2017-06-23 09:06:41 Becky-Blazing-(5054960335219)-WEB-2017-bAMM
2017-06-23 09:07:12 AllOver30.com_17.06.23.Michelle.F.XXX.iMAGESET-YAPG
2017-06-23 09:07:20 Married.at.First.Sight.Second.Chances.S01E09.WEB.h264-TBS
2017-06-23 09:07:32 Cowbell-What_Am_I_Supposed_To_Do-(DAMIT20)-WEB-2017-bAMM
2017-06-23 09:07:33 Rafael_Osmo_-_Loca-(TRLI009)-WEB-2017-MMS
2017-06-23 09:07:42 JamesDeen.17.06.23.Anna.Morna.XXX.1080p.MP4-KTR
2017-06-23 09:07:42 Married.at.First.Sight.Second.Chances.S01E09.720p.WEB.h264-TBS
2017-06-23 09:08:05 Phil_Bogolub-The_1-(PBR001)-WEB-2017-bAMM
2017-06-23 09:08:10 Logan.The.Wolverine.2017.iTALiAN.BDRip.x264-NTROPiC
2017-06-23 09:08:30 AllOver30.com_17.06.23.Karen.XXX.iMAGESET-YAPG
2017-06-23 09:09:05 Nubiles.17.06.23.Krystal.Orchid.Red.Head.XXX.1080p.MP4-KTR
2017-06-23 09:09:42 AllOver30.com_17.06.23.Sage.Quest.XXX.iMAGESET-YAPG
2017-06-23 09:09:45 Blood_Cultures-Moon-(3614975953840)-WEB-2017-bAMM
2017-06-23 09:10:04 Nubiles.17.06.23.Krystyna.Puffy.Nipples.XXX.1080p.MP4-KTR
2017-06-23 09:10:20 Ivy_Falls-Twelve-(UNDAY065D)-WEB-2017-bAMM
2017-06-23 09:10:37 MetArtX.17.06.23.Elina.De.Leon.Butterflies.In.My.Stomach.XXX.1080p.MP4-KTR
2017-06-23 09:10:57 J_Bruno-Believe_In_Love-(191773224363)-WEB-2017-bAMM
2017-06-23 09:10:57 AllOver30.com_17.06.23.Tracy.Rose.XXX.iMAGESET-YAPG
2017-06-23 09:11:44 Teens.Teens.Teens.3.DiSC1.XXX.DVDRip.x264-WOP
2017-06-23 09:11:46 Papillon_Rising-Leading_Man-(SHERO004)-WEB-2017-bAMM
2017-06-23 09:11:59 Analized.17.06.23.Harlow.Harrison.Does.Her.First.DP.XXX.1080p.MP4-KTR
2017-06-23 09:12:54 Logan.The.Wolverine.2017.iTALiAN.DTS.720p.BluRay.x264-NTROPiC
2017-06-23 09:13:24 Myababiee-In_Love_Wit_Money-(MDE1992)-WEB-2017-POSH
2017-06-23 09:13:33 Sgt.Bilko.1996.1080p.BluRay.x264-PSYCHD
2017-06-23 09:13:46 Analized.17.06.23.Harlow.Harrison.Does.Her.First.DP.XXX.2160p.MP4-KTR
2017-06-23 09:14:32 MetArtFilms.17.06.22.Natasha.E.Hot.And.Cold.XXX.1080p.MP4-KTR
2017-06-23 09:15:03 TheLifeErotic.17.06.23.Louisa.A.Primal.2.XXX.1080p.MP4-KTR
2017-06-23 09:15:54 SexArt.17.06.23.Alexis.Crystal.And.Lady.Bug.Crazy.Day.XXX.1080p.MP4-KTR
2017-06-23 09:16:12 Ayhan_Akca-With_Your_Lies-(DSB157)-WEB-2017-bAMM
2017-06-23 09:16:34 VivThomas.17.06.23.Isabella.Lui.And.Rebecca.Volpetti.Seduction.XXX.1080p.MP4-KTR
2017-06-23 09:16:41 Love.Connection.2017.S01E04.WEB.h264-TBS
2017-06-23 09:16:49 Four.Corners.S57E14.The.Siege.Part.2.720p.HDTV.x264-ORENJI
2017-06-23 09:16:51 Four.Corners.S57E14.The.Siege.Part.2.HDTV.x264-FQM
2017-06-23 09:16:58 Love.Connection.2017.S01E04.720p.WEB.h264-TBS
2017-06-23 09:17:03 Neil_Frances-Back_To_What_I_Know-(018736516221)-WEB-2017-bAMM
2017-06-23 09:17:28 VivThomas.17.06.23.Isabella.Lui.And.Rebecca.Volpetti.Seduction.XXX.2160p.MP4-KTR
2017-06-23 09:17:43 Four.Corners.S57E15.Power.and.Influence.HDTV.x264-FQM
2017-06-23 09:17:45 Four.Corners.S57E15.Power.and.Influence.720p.HDTV.x264-ORENJI
2017-06-23 09:18:26 Femto-Compilation_N1-(B0732K5R14)-WEB-2017-2FAST4U
2017-06-23 09:18:53 Four.Corners.S57E16.Breaking.the.Brotherhood.HDTV.x264-FQM
2017-06-23 09:18:55 Four.Corners.S57E16.Breaking.the.Brotherhood.720p.HDTV.x264-ORENJI
2017-06-23 09:19:04 Themetique-Infinite_Wire-(MMD8)-WEB-2017-2FAST4U
2017-06-23 09:19:17 MyFirstSexTeacher.17.06.23.Ariella.Ferrera.XXX.1080p.MP4-KTR
2017-06-23 09:19:39 Big.Brother.UK.S18E18.1080p.HDTV.x264-PLUTONiUM
2017-06-23 09:19:51 Riesige.Naturbusen.2.German.XXX.DVDRip.x264-EGP
2017-06-23 09:19:59 Joseph_Disco-Believe-(TBQ015)-WEB-2017-2FAST4U
2017-06-23 09:20:06 Four.Corners.S57E17.Rise.Of.The.Trolls.720p.HDTV.x264-ORENJI
2017-06-23 09:20:07 Four.Corners.S57E17.Rise.Of.The.Trolls.HDTV.x264-FQM
2017-06-23 09:20:53 Freche.Lolitas.Wild.Und.Entfesselt.Maedels.Beim.Ersten.Mal.German.XXX.DVDRip.x264-EGP
2017-06-23 09:21:01 NaughtyOffice.17.06.23.Natalia.Starr.XXX.1080p.MP4-KTR
2017-06-23 09:21:39 Ladymarysound_Feat_Kimicoh-Long_Journey-(B0725TNFHG)-WEB-2017-2FAST4U
2017-06-23 09:22:02 Logan.The.Wolverine.2017.iTALiAN.DTS.1080p.BluRay.x264-NTROPiC
2017-06-23 09:22:38 Greg_Bejger-Origami-(FREQ1739)-WEB-2017-2FAST4U
2017-06-23 09:23:30 Auriogala-Intelligence_Xperience-(10122341)-WEB-2017-2FAST4U
2017-06-23 09:23:39 Spizoo.17.06.23.Anna.Bell.Peaks.Wake.Up.With.Anna.Bell.XXX.1080p.MP4-KTR
2017-06-23 09:23:41 The.President.Show.S01E09.1080p.WEB.x264-TBS
2017-06-23 09:24:23 Jack_Liberto-Freaky_Jungle-(FKJ17071)-WEB-2017-2FAST4U
2017-06-23 09:25:00 Mrlonely_Wolf-Secret-(TER00005)-WEB-2017-2FAST4U
2017-06-23 09:25:29 Jack_Liberto-Freaky_Jungle-(FKJ17071)-WEB-2017-2FAS
2017-06-23 09:25:50 Smad-Holy_Slight_EP-(SMR126)-WEB-2017-2FAST4U
2017-06-23 09:26:37 AllOver30.17.06.23.Olivia.Wilder.XXX.1080p.MP4-KTR
2017-06-23 09:30:43 Married.at.First.Sight.S05E11.720p.WEB.h264-TBS
2017-06-23 09:31:10 Switix-Driving_Power-(NR000011)-WEB-2017-2FAST4U
2017-06-23 09:32:03 2Wice_Shye-Primal-(MVMT059)-WEB-2017-2FAST4U
2017-06-23 09:32:43 TonightsGirlfriend.17.06.23.Tiffany.Watson.XXX.1080p.MP4-KTR
2017-06-23 09:32:45 Married.at.First.Sight.S05E11.WEB.h264-TBS
2017-06-23 09:32:46 Tanzprognose-Monolith-(10122985)-WEB-2017-2FAST4U
2017-06-23 09:33:19 VelvetEcstasy.17.06.23.Cassidy.Kay.Cum.On.Kay.XXX.1080p.MP4-KTR
2017-06-23 09:33:55 The_Sweetlife_Society-Hard_On-(INCSIN102)-WEB-2017-2FAST4U
2017-06-23 09:34:25 Easy_Money-Rules_Of_The_Game-Midas_Touch-CD-FLAC-2017-CATARACT
2017-06-23 09:34:30 Bad_Intent-By_Any_Means-(ER0001)-WEB-2017-2FAST4U
2017-06-23 09:35:06 Erufu-Samsara-(10123055)-WEB-2017-2FAST4U
2017-06-23 09:35:56 SexArt.17.06.23.Alexis.Crystal.And.Lady.Bug.Crazy.Day.XXX.2160p.MP4-KTR
2017-06-23 09:35:58 Raphael_Mello-The_Choice-(OSD061)-WEB-2017-2FAST4U
2017-06-23 09:36:33 Joe_Le_Blanc-Fixed-(3614973439575)-WEB-2017-2FAST4U
2017-06-23 09:37:24 Dj_Nano-Maeba_(A_Summer_Story_2017_Official_Anthem_Remixes)-(NTR011)-WEB-2017-2FAST4U
2017-06-23 09:37:54 Beat.Shazam.S01E04.WEB.h264-TBS
2017-06-23 09:38:50 Beat.Shazam.S01E04.720p.WEB.h264-TBS
2017-06-23 09:39:05 MyFirstSexTeacher.17.06.23.Ariella.Ferrera.XXX.2160p.MP4-KTR
2017-06-23 09:41:22 NaughtyOffice.17.06.23.Natalia.Starr.XXX.2160p.MP4-KTR
2017-06-23 09:44:17 Fuego.Abierto.S01E02.SPANiSH.1080p.HDTV.x264-FCC
2017-06-23 09:44:21 TonightsGirlfriend.17.06.23.Tiffany.Watson.XXX.2160p.MP4-KTR
2017-06-23 09:44:50 Fuego.Abierto.S01E02.SPANiSH.720p.HDTV.x264-FCC
2017-06-23 09:44:57 Beauty.And.The.Beast.1991.DUTCH.EXTENDED.1080p.BluRay.x264-MERLiNA
2017-06-23 09:45:17 Fuego.Abierto.S01E02.SPANiSH.HDTV.x264-FCC
2017-06-23 09:45:37 Outcast.S02E04.SPANiSH.1080p.HDTV.x264-FCC
2017-06-23 09:46:12 Outcast.S02E04.SPANiSH.720p.HDTV.x264-FCC
2017-06-23 09:46:40 Outcast.S02E04.SPANiSH.HDTV.x264-FCC
2017-06-23 09:46:42 Beauty.And.The.Beast.1991.DUTCH.EXTENDED.BDRip.x264-MERLiNA
2017-06-23 09:46:45 Shaun.T.SHAUN.WEEK.INSANE.FOCUS.Day.2.Pure.Cardio.2.2017.1080p.WEB.x264-I_KnoW
2017-06-23 09:47:22 Beauty.And.The.Beast.1991.DUTCH.EXTENDED.720p.BluRay.x264-MERLiNA
2017-06-23 09:49:03 Revenge.of.the.Pink.Panther.1978.COMPLETE.BLURAY-COASTER
2017-06-23 09:50:20 Shaun.T.SHAUN.WEEK.INSANE.FOCUS.Day.2.Pure.Cardio.2.2017.iNTERNAL.WEBRip.x264-I_KnoW
2017-06-23 09:56:44 Growing.Up.Hip.Hop.Atlanta.S01E01.WEBRip.x264-TBS
2017-06-23 09:56:58 Growing.Up.Hip.Hop.Atlanta.S01E01.720p.WEBRip.x264-TBS
2017-06-23 09:57:15 Growing.Up.Hip.Hop.Atlanta.S01E01.1080p.WEBRip.x264-TBS
2017-06-23 09:57:24 Cold.Case.Files.2017.S01E09.A.Family.Cursed.HDTV.x264-CRiMSON
2017-06-23 10:00:36 GLOW.S01E04.720p.WEBRip.x264-STRiFE
2017-06-23 10:01:50 VintageFlash.17.06.23.Ashleigh.Mckenzie.Appointment.For.Pleasure.XXX.1080p.MP4-KTR
2017-06-23 10:03:22 Trail.of.the.Pink.Panther.1982.COMPLETE.BLURAY-COASTER
2017-06-23 10:07:38 Bigflo_Et_Oli-La_Vraie_Vie-WEB-FR-2017-H5N1
2017-06-23 10:08:04 Blacko-Mon_Tresor-WEB-FR-2017-H5N1
2017-06-23 10:08:28 Georgio-Hpa_(Hera_Reedition)-WEB-FR-2017-H5N1
2017-06-23 10:08:30 BoxTruckSex.17.06.23.Lucia.Denvile.XXX.1080p.MP4-KTR
2017-06-23 10:09:26 Lea_Paci-Chapitre_1-WEB-FR-2017-H5N1
2017-06-23 10:09:50 Lomepal-Yeux_Disent-WEB-FR-2017-H5N1
2017-06-23 10:10:02 Markus_Schulz_-_Global_DJ_Broadcast-SAT-06-22-2017-TALiON
2017-06-23 10:10:16 Louane-On_Etait_Beau-WEB-FR-2017-H5N1
2017-06-23 10:10:58 Malo-Be_Etre-WEB-2017-H5N1
2017-06-23 10:11:03 Dreko_-_Guest_Room_Mix-SAT-06-22-2017-TALiON
2017-06-23 10:11:36 Sultan-On_Va_Leur_Faire-WEB-FR-2017-H5N1
2017-06-23 10:12:04 Kolsch_-_BBC_Radio1_Residency__Live_from_Glastonbury-SAT-06-22-2017-TALiON
2017-06-23 10:13:02 Eats_Everything_-_BBC_Radio1_Residency__Live_from_Glastonbury-SAT-06-22-2017-TALiON
2017-06-23 10:13:26 BitchesAbroad.17.06.23.Anya.Akulova.XXX.1080p.MP4-KTR
2017-06-23 10:14:02 Cold.Case.Files.2017.S01E09.A.Family.Cursed.720p.HDTV.x264-CRiMSON
2017-06-23 10:14:03 Metrik_-_BBC_Radio1_Residency-SAT-06-23-2017-TALiON
2017-06-23 10:15:02 Toddla_T_-_BBC_Radio1-SAT-06-23-2017-TALiON
2017-06-23 10:16:03 Digital_Punk_-_Unleashed_052-CABLE-06-23-2017-TALiON
2017-06-23 10:18:11 Joymii.17.06.23.Lexi.Dona.Fucking.My.Trainer.XXX.1080p.MP4-KTR
2017-06-23 10:18:18 Blood.Drive.S01E02.1080p.WEB.x264-HEAT
2017-06-23 10:19:18 Citizen.Khan.S05.PAL.DVD9-SaMSCLUB
2017-06-23 10:20:08 Logan.2017.MULTi.COMPLETE.iNTERNAL.BLURAY-MHT
2017-06-23 10:30:28 BrownBunnies.17.06.23.Kira.Noir.XXX.1080p.MP4-KTR
2017-06-23 10:35:00 Fearless.S01E02.1080p.HDTV.x264-MTB
2017-06-23 10:35:32 Tiziano_Ferro-Lamore_E_Una_Cosa_Semplice-IT-CD-FLAC-2011-MAHOU
2017-06-23 10:48:26 James.Corden.2017.06.22.Dominic.Cooper.720p.WEB.h264-WEBSTER
2017-06-23 10:51:06 James.Corden.2017.06.22.Dominic.Cooper.WEB.x264-TBS
2017-06-23 11:00:41 Promo.Only.Club.Video.June.2017.NTSC.DVD9.MDVDR-AURORA
2017-06-23 11:00:45 Young.And.Sexy.2.DiSC1.XXX.DVDRip.x264-WOP
2017-06-23 11:01:54 Teens.Teens.Teens.3.DiSC2.XXX.DVDRip.x264-WOP
2017-06-23 11:04:12 The.Wall.US.S02E03.720p.WEB.x264-TBS
2017-06-23 11:04:16 GLOW.S01E05.720p.WEBRip.x264-STRiFE
2017-06-23 11:04:35 The.Wall.US.S02E03.WEB.x264-TBS
2017-06-23 11:09:26 Free.Rein.S01E01.1080p.WEBRip.x264-STRiFE
2017-06-23 11:21:35 Free.Rein.S01E04.1080p.WEBRip.x264-STRiFE
2017-06-23 11:22:17 Adam.Zkt.Eva.VIPS.S01E06.DUTCH.720p.HDTV.x264-iFH
2017-06-23 11:23:52 Jensen.USA.S01E06.DUTCH.720p.HDTV.x264-iFH
2017-06-23 11:28:08 GLOW.S01E02.720p.WEBRip.x264-STRiFE
2017-06-23 11:28:19 Boy.Band.S01E01.WEB.x264-TBS
2017-06-23 11:28:38 A.Flickering.Truth.2015.SUBBED.DVDRip.x264-GHOULS
2017-06-23 11:29:16 Jimmy.Kimmel.2017.06.22.Anthony.Hopkins.WEB.x264-TBS
2017-06-23 11:29:42 Jimmy.Kimmel.2017.06.22.Anthony.Hopkins.720p.WEB.x264-TBS
2017-06-23 11:29:43 Jimmy.Kimme.2017.06.22.Anthony.Hopkins.720p.WEB.x264-TBS
2017-06-23 11:30:21 Boy.Band.S01E01.720p.WEB.x264-TBS
2017-06-23 11:34:34 GLOW.S01E01.720p.WEBRip.x264-STRiFE
2017-06-23 11:37:15 GLOW.S01E06.720p.WEBRip.x264-STRiFE
2017-06-23 11:37:47 The.Mist.S01E01.1080p.WEB.x264-TBS
2017-06-23 11:38:46 The.Mist.S01E02.WEB.x264-TBS
2017-06-23 11:38:58 The.Mist.S01E02.720p.WEB.x264-TBS
2017-06-23 11:39:51 The.Mist.S01E02.1080p.WEB.x264-TBS
2017-06-23 11:39:57 The.Mist.S01E03.WEB.x264-TBS
2017-06-23 11:40:03 The.Mist.S01E03.720p.WEB.x264-TBS
2017-06-23 11:41:15 The.Mist.S01E03.1080p.WEB.x264-TBS
2017-06-23 11:53:20 Confederations.Cup.2017.Group.B.Germany.vs.Chile.1080p.HDTV.x264-VERUM
2017-06-23 11:57:16 Moto3.2017.Assen.Practice.One.HDTV.x264-VERUM
2017-06-23 11:57:22 Armello.Shattered.Kingdom-PLAZA
2017-06-23 11:59:22 Geisterjaeger_John_Sinclair-F64_Die_Grausamen_Ritter_(Tonstudio_Braun_Remastered)-Audiobook-DE-2017-VOiCE
2017-06-23 11:59:35 Moto3.2017.Assen.Practice.One.720p.HDTV.x264-VERUM
2017-06-23 12:03:57 Angriff.der.Riesenkralle.1957.GERMAN.DL.COMPLETE.PAL.DVDR-iNViTE
2017-06-23 12:09:51 Loopmasters.Maison.Records.Tribal.House.and.Tech.MULTiFORMAT-MASCHiNE
2017-06-23 12:10:03 Loopmasters.My.Digital.Enemy.Dirty.Tech.House.MULTiFORMAT-MASCHiNE
2017-06-23 12:10:13 Loopmasters.Organic.Electronics.Vol.2.MULTiFORMAT-MASCHiNE
2017-06-23 12:20:37 Food.Paradise.S11E05.Keepin.It.Retro.720p.HDTV.x264-CRiMSON
2017-06-23 12:34:44 Alex_Vidal-Electric_Night-WEB-2017-FALCON
2017-06-23 12:36:30 Jimmy.Fallon.2017.06.22.Ray.Romano.720p.WEB.x264-TBS
2017-06-23 12:36:54 Jimmy.Fallon.2017.06.22.Ray.Romano.WEB.x264-TBS
2017-06-23 12:36:57 GLOW.S01E03.720p.WEBRip.x264-STRiFE
2017-06-23 12:39:57 Jimmy.Fallon.2016.22.Ray.Romaomano.720p.WEB.x264-TBS
2017-06-23 12:46:39 Jamestown.S01E01.720p.BluRay.x264-SHORTBREHD
2017-06-23 12:46:41 Jamestown.S01E02.720p.BluRay.x264-SHORTBREHD
2017-06-23 12:46:45 Jamestown.S01E05.720p.BluRay.x264-SHORTBREHD
2017-06-23 12:46:46 Jamestown.S01E04.720p.BluRay.x264-SHORTBREHD
2017-06-23 12:46:46 Jamestown.S01E07.720p.BluRay.x264-SHORTBREHD
2017-06-23 12:47:02 Selector.Infected.Wixoss.S01E01.1080p.BluRay.x264-TENEIGHTY
2017-06-23 12:49:29 Growing.Up.Hip.Hop.Atlanta.S01E02.WEBRip.x264-TBS
2017-06-23 12:49:41 Growing.Up.Hip.Hop.Atlanta.S01E02.720p.WEBRip.x264-TBS
2017-06-23 12:49:57 Growing.Up.Hip.Hop.Atlanta.S01E02.1080p.WEBRip.x264-TBS
2017-06-23 12:52:58 Selector.Infected.Wixoss.S01E02.1080p.BluRay.x264-TENEIGHTY
2017-06-23 12:53:29 Jedi_Mind_Tricks-The_Psycho_Social_(Hhs.Com_Bonus_CD)-2002-CMS
2017-06-23 12:53:54 Under_The_Sunrise-Get_Shit_Done-(B071ZRJX65)-WEB-2017-bAMM
2017-06-23 12:54:09 Selector.Infected.Wixoss.S01E03.1080p.BluRay.x264-TENEIGHTY
2017-06-23 12:55:12 VA-Creative_Summer_Riddim-(B072MSBJCP)-WEB-2017-MORE
2017-06-23 12:55:15 Jedi_Mind_Tricks-The_Psycho-Social_Biological_and_Electro-Magnet-2002-CMS
2017-06-23 12:55:39 Selector.Infected.Wixoss.S01E04.1080p.BluRay.x264-TENEIGHTY
2017-06-23 12:58:02 Selector.Infected.Wixoss.S01E05.1080p.BluRay.x264-TENEIGHTY
2017-06-23 12:58:17 Aktual-Mash-(B072V3S72T)-WEB-2017-WRT
2017-06-23 12:59:48 LUUJA_feat_Jason_Anousheh_-_Kinder_Des_Mondes_(Premium_Edition)-(4260004711784)-WEB-DE-2017-ZzZz
2017-06-23 13:00:34 Selector.Infected.Wixoss.S01E06.1080p.BluRay.x264-TENEIGHTY
2017-06-23 13:00:38 Ask.Video.Ableton.Live.FastTrack.301.Distortion.TUTORiAL-DYNAMiCS
2017-06-23 13:01:06 Ask.Video.Dance.Music.Sound.Design.101.Designing.Bass.TUTORiAL-DYNAMiCS
2017-06-23 13:01:44 Ask.Video.Dance.Music.Styles.108.Techno.TUTORiAL-DYNAMiCS
2017-06-23 13:02:11 Selector.Infected.Wixoss.S01E07.1080p.BluRay.x264-TENEIGHTY
2017-06-23 13:02:20 Ask.Video.DJing.with.Live.101.DJing.with.Live.Essentials.TUTORiAL-DYNAMiCS
2017-06-23 13:02:27 Deep_Breez-Bring_Out_Your_Dead-(B06ZY21VBG)-WEB-2017-WRT
2017-06-23 13:02:55 Jamestown.S01E03.720p.BluRay.x264-SHORTBREHD
2017-06-23 13:03:06 Billy_Alex-Despatch-WEB-2017-FALCON
2017-06-23 13:03:12 El_Mimi-Creeper-WEB-2017-FALCON
2017-06-23 13:03:22 Ask.Video.Moog.Model.15.101.Moog.Model.15.Video.Guide.TUTORiAL-DYNAMiCS
2017-06-23 13:04:18 LUUJA_feat_Jason_Anousheh_-_Kinder_Des_Mondes_(Premium_Edition)-(4260004711784)-WEB-DE-7-ZzZz
2017-06-23 13:05:00 Selector.Infected.Wixoss.S01E08.1080p.BluRay.x264-TENEIGHTY
2017-06-23 13:06:06 Jfr_Moon-Moony-(B071JG6WLF)-WEB-2017-bAMM
2017-06-23 13:06:11 Ask.Video.Reaktor.6.104.More.Ensembles.Explored.TUTORiAL-DYNAMiCS
2017-06-23 13:06:43 Ask.Video.Solid.State.Logic.101.SSL.Duende.Native.TUTORiAL-DYNAMiCS
2017-06-23 13:07:19 Flame_On_Fire-Drops-WEB-2017-FALCON
2017-06-23 13:08:02 GLOW.S01E08.720p.WEBRip.x264-STRiFE
2017-06-23 13:08:30 Selector.Infected.Wixoss.S01E09.1080p.BluRay.x264-TENEIGHTY
2017-06-23 13:08:50 Ask.Video.Universal.Audio.201.Learn.The.Mix.Console.TUTORiAL-DYNAMiCS
2017-06-23 13:08:59 Noah_Jon-Take_Me_For_Granted-(B072X1VSXP)-WEB-2017-WRT
2017-06-23 13:09:03 Ask.Video.Waves.202.Abbey.Road.Mastering.Collection.TUTORiAL-DYNAMiCS
2017-06-23 13:09:15 Hernan_Tapia-Changos-WEB-2017-FALCON
2017-06-23 13:09:34 J.Breeze-Londoner-WEB-2017-FALCON
2017-06-23 13:10:18 Red_Sage-Pick_Up_The_Pieces-(B072TPN6TQ)-WEB-2017-MORE
2017-06-23 13:10:53 Selector.Infected.Wixoss.S01E10.1080p.BluRay.x264-TENEIGHTY
2017-06-23 13:11:32 Paul_Najera__Jr_Quijada-Can_You_Hear_It-(APL15)-WEB-2017-2FAST4U
2017-06-23 13:12:28 Rafven3-Ipnotic-(JANGOX081)-WEB-2017-2FAST4U
2017-06-23 13:13:34 BladeBeard-Dark_Valley-(FTRST001)-WEB-2017-2FAST4U
2017-06-23 13:13:36 Selector.Infected.Wixoss.S01E11.1080p.BluRay.x264-TENEIGHTY
2017-06-23 13:14:32 Richard_Ulh-Blow-(BX037)-WEB-2017-2FAST4U
2017-06-23 13:15:00 Selector.Infected.Wixoss.S01E12.1080p.BluRay.x264-TENEIGHTY
2017-06-23 13:16:17 Draud-Take_My_Hand-(BG7431)-WEB-2017-2FAST4U
2017-06-23 13:17:07 Nooby-Eternal-(10122955)-WEB-2017-2FAST4U
2017-06-23 13:18:00 Jann-Murder_People-(PBD06)-WEB-2017-2FAST4U
2017-06-23 13:18:40 Prismo-Hold_On-(NCS340)-WEB-2017-2FAST4U
2017-06-23 13:19:38 Neff-C-Telegraph-(B072WQ7DWR)-WEB-2017-WRT
2017-06-23 13:21:59 House_Hounds-Saturate-(B071ZQ4MNV)-WEB-2017-bAMM
2017-06-23 13:22:28 Domina.v1.0.52-ALiAS
2017-06-23 13:23:03 VA-60_Mill_Riddim-(B072QYFWGW)-WEB-2017-MORE
2017-06-23 13:25:02 John_Banrock-Spin_The_Bottle-(B0728FKRJR)-WEB-2017-bAMM
2017-06-23 13:26:30 Littleboybigheadonbike-God_Damn_Wonderland-(B072MDB9HF)-WEB-2017-bAMM
2017-06-23 13:27:22 You.Get.Me.2017.720p.WEBRip.x264-STRiFE
2017-06-23 13:27:38 Lemon8-Sorcerer-WEB-2017-FALCON
2017-06-23 13:27:49 Made_In_Paris-Lost_Perception-WEB-2017-FALCON
2017-06-23 13:28:07 Presley_Johnson-Lost_In_Palpitations-(B0722QHWNV)-WEB-2017-bAMM
2017-06-23 13:29:01 Annedroids.S04E13.Das.Vermaechtnis.2.GERMAN.WS.HDTV.x264-aWake
2017-06-23 13:29:19 Formula2.2017.Azerbaijan.Grand.Prix.Practice.HDTV.x264-GRiP
2017-06-23 13:29:50 Annedroids.S04E13.Das.Vermaechtnis.2.GERMAN.WS.720p.HDTV.x264-aWake
2017-06-23 13:30:38 Brojects.S03E01.Die.Kueche.im.Freien.GERMAN.WS.HDTV.x264-aWake
2017-06-23 13:31:27 Brojects.S03E01.Die.Kueche.im.Freien.GERMAN.WS.720p.HDTV.x264-aWake
2017-06-23 13:31:42 Pete_Mccarthey-Java-WEB-2017-FALCON
2017-06-23 13:31:45 Jamestown.S01E01.BDRip.x264-HAGGiS
2017-06-23 13:32:05 Jamestown.S01E02.BDRip.x264-HAGGiS
2017-06-23 13:32:14 Brojects.S03E01.Die.Kueche.im.Freien.GERMAN.WS.1080p.HDTV.x264-aWake
2017-06-23 13:32:20 Jamestown.S01E03.BDRip.x264-HAGGiS
2017-06-23 13:32:36 Jamestown.S01E04.BDRip.x264-HAGGiS
2017-06-23 13:32:49 MotoGP.2017.Assen.Practice.One.HDTV.x264-VERUM
2017-06-23 13:32:54 Jamestown.S01E05.BDRip.x264-HAGGiS
2017-06-23 13:33:02 Brojects.S03E02.Die.ultimative.Dachterrasse.GERMAN.WS.HDTV.x264-aWake
2017-06-23 13:33:09 Jamestown.S01E06.BDRip.x264-HAGGiS
2017-06-23 13:33:10 Then.and.Now.With.Andy.Cohen.S01E11.WEB.x264-TBS
2017-06-23 13:33:30 Then.and.Now.With.Andy.Cohen.S01E11.720p.WEB.x264-TBS
2017-06-23 13:33:51 Brojects.S03E02.Die.ultimative.Dachterrasse.GERMAN.WS.720p.HDTV.x264-aWake
2017-06-23 13:33:59 The_Dubplates-Box_Full_Of_Steel-(B071ZM76YD)-WEB-2017-MORE
2017-06-23 13:34:04 Then.and.Now.With.Andy.Cohen.S01E11.1080p.WEB.x264-TBS
2017-06-23 13:34:39 Brojects.S03E02.Die.ultimative.Dachterrasse.GERMAN.WS.1080p.HDTV.x264-aWake
2017-06-23 13:35:13 Aisha-The_First_Lady_Of_Dub-(B072PZ9HHP)-WEB-2017-MORE
2017-06-23 13:35:45 Die.Mr.Peabody.und.Sherman.Show.S03E04.Der.Temperaturomat.und.Ziryab.GERMAN.WS.HDTV.x264-aWake
2017-06-23 13:36:14 Die.Mr.Peabody.und.Sherman.Show.S03E04.Der.Temperaturomat.und.Ziryab.GERMAN.WS.720p.HDTV.x264-aWake
2017-06-23 13:36:18 VA-Immigrant_Riddim-(B072N45PGZ)-WEB-2017-MORE
2017-06-23 13:36:30 MotoGP.2017.Assen.Practice.One.720p.HDTV.x264-VERUM
2017-06-23 13:37:01 Die.Mr.Peabody.und.Sherman.Show.S03E04.Der.Temperaturomat.und.Ziryab.GERMAN.WS.1080p.HDTV.x264-aWake
2017-06-23 13:37:03 Le.Monde.24.Juin.2017.French.Retail.eBook-FMR
2017-06-23 13:37:08 Le.Monde.Eco.et.Entreprise.24.Juin.2017.French.Retail.eBook-FMR
2017-06-23 13:37:13 Le.Monde.Idees.24.Juin.2017.French.Retail.eBook-FMR
2017-06-23 13:37:19 Le.Monde.M.24.Juin.2017.French.Retail.eBook-FMR
2017-06-23 13:37:45 GLOW.S01E01.German.DL.DUBBED.720p.WebHD.x264-AIDA
2017-06-23 13:37:48 Jodha.Akbar.S01E115.GERMAN.WS.HDTV.x264-aWake
2017-06-23 13:37:56 GLOW.S01E01.German.DUBBED.WebRip.x264-AIDA
2017-06-23 13:37:58 VA-Soca_Gold_2017-(B071H4884Y)-WEB-2017-MORE
2017-06-23 13:38:35 Jodha.Akbar.S01E115.GERMAN.WS.720p.HDTV.x264-aWake
2017-06-23 13:38:53 Casual.S03E07.SUBFRENCH.720p.HDTV.x264-SH0W
2017-06-23 13:38:54 VA-Tax_Reflief_Riddim-(B072192SW7)-WEB-2017-MORE
2017-06-23 13:39:03 Casual.S03E07.SUBFRENCH.HDTV.x264-SH0W
2017-06-23 13:39:23 Teletubbies.2015.S01E48.Immer.abwechselnd.GERMAN.WS.HDTV.x264-aWake
2017-06-23 13:40:11 Teletubbies.2015.S01E48.Immer.abwechselnd.GERMAN.WS.720p.HDTV.x264-aWake
2017-06-23 13:41:56 Ash_Adams-Ash_Adams_-_EP-(B0721GMPHX)-WEB-2017-bAMM
2017-06-23 13:43:21 Emblems-Hide__Seek-(B07212NCLT)-WEB-2017-bAMM
2017-06-23 13:43:51 Formula2.2017.Azerbaijan.Grand.Prix.Practice.720p.HDTV.x264-GRiP
2017-06-23 13:43:52 Weekend_Heroes-Terra-WEB-2017-FALCON
2017-06-23 13:44:18 Van_Dale-Of_The_Valley_Ii-(B072M8XYPL)-WEB-2017-bAMM
2017-06-23 13:44:19 Mellow_Gang-Play-(B071NJFVJ7)-WEB-2017-bAMM
2017-06-23 13:45:31 Gebhardt-That_Day_EP-(B071LSPBXD)-WEB-2017-bAMM
2017-06-23 13:46:00 Lawrence_-_Tarzan_Boy-WEB-1996-iDC
2017-06-23 13:46:13 Nadine_-_Dreams_I_Believe-WEB-1999-iDC
2017-06-23 13:47:53 Seth.Meyers.2017.06.22.Ice.Cube.720p.WEB.x264-TBS
2017-06-23 13:48:25 Seth.Meyers.2017.06.22.Ice.Cube.WEB.x264-TBS
2017-06-23 13:48:32 Clitbangers-Deze_EP_Is_Hard-(B072WQQRTR)-WEB-2017-WRT
2017-06-23 13:50:14 Quistar-Werewolves_On_The_Island-(B072WCHVPQ)-WEB-2017-WRT
2017-06-23 13:51:58 Byron_A-Truth_And_Mystery-(B071FBKH8L)-WEB-2017-WRT
2017-06-23 13:52:50 James_Upshaw-Purple-(B071X1MJZG)-WEB-2017-WRT
2017-06-23 13:54:19 T-Watts-No_Love-(B072ZZWGHM)-WEB-2017-WRT
2017-06-23 13:55:40 Koula-Never_Daw-(B072WC21TW)-WEB-2016-WRT
2017-06-23 13:56:36 John_Coltrane-A_Retrospective-The_Impulse_Years_CD2-1992-CMS
2017-06-23 13:57:11 Tkstayrokkin-The_Golden_Year_-_Xxv3-(B072WR5SN1)-WEB-2017-WRT
2017-06-23 13:57:44 John_Coltrane-A_Retrospective-The_Impulse_Years_CD3-1992-CMS
2017-06-23 13:58:27 Scoot_Da_Kidd-Auto_Pilot_Lifestyle_(Ap2)-(B072YT3W57)-WEB-2017-WRT
2017-06-23 14:03:05 Animal_Nation-Dont_Grow_Up_to_Be_Like_Us-WEB-2017-DISTRACT
2017-06-23 14:03:16 Jamestown.S01E06.720p.BluRay.x264-SHORTBREHD
2017-06-23 14:05:45 Adam.Zkt.Eva.VIPS.S01E06.DUTCH.1080p.HDTV.x264-iFH
2017-06-23 14:07:24 Formula2.2017.Azerbaijan.Grand.Prix.Practice.1080p.HDTV.x264-GRiP
2017-06-23 14:08:45 Jensen.USA.S01E06.DUTCH.1080p.HDTV.x264-iFH
2017-06-23 14:09:07 Raw.30.DiSC1.XXX.DVDRip.x264-WOP
2017-06-23 14:09:32 Gysnoize-Hot_Mixes_Tecno_Trance_Tracks-WEB-2017-DISTRACT
2017-06-23 14:13:03 Shinehead-Best_of_Shinehead-WEB-2017-DISTRACT
2017-06-23 14:14:36 GLOW.S01E10.720p.WEBRip.x264-STRiFE
2017-06-23 14:14:40 Jonathan_Mendelsohn_-_The_First_Time-WEB-2017-MMS
2017-06-23 14:17:56 Formula1.2017.Azerbaijan.Grand.Prix.Practice.One.HDTV.x264-GRiP
2017-06-23 14:18:12 Geoff_McBride-Do_You_Still_Remember_Love-1990-GCP
2017-06-23 14:18:28 Tony_Elieh-Its_Good_to_Die_Every_Now_and_Then-WEB-2017-DISTRACT
2017-06-23 14:18:48 Conan.2017.06.22.Will.Ferrell.720p.HDTV.x264-CROOKS
2017-06-23 14:18:50 Conan.2017.06.22.Will.Ferrell.HDTV.x264-CROOKS
2017-06-23 14:19:15 VMware.Fusion.Professional.v8.5.8.MACOSX.Incl.Keygen-AMPED
2017-06-23 14:19:51 VMware.Workstation.Pro.v12.5.7.LINUX.X64.Incl.Keygen-AMPED
2017-06-23 14:20:23 VMware.Workstation.Pro.v12.5.7.X64.Incl.Keygen-AMPED
2017-06-23 14:21:28 GLOW.S01E07.720p.WEBRip.x264-STRiFE
2017-06-23 14:22:27 Kintaro-Universal_EP-(APR106)-WEB-2017-SOUNDz
2017-06-23 14:23:06 Theory_Hazit-Bless_Your_Food-WEB-2017-SOUNDz
2017-06-23 14:23:44 Theory_Hazit-I_See_What_You_Did_There-WEB-2017-SOUNDz
2017-06-23 14:24:24 Theory_Hazit-Uglyface-WEB-2017-SOUNDz
2017-06-23 14:24:26 Jimmy.Fallon.2017.06.22.Ray.Romano.HDTV.x264-SORNY
2017-06-23 14:26:18 Jimmy.Fallon.2017.06.22.Ray.Romano.720p.HDTV.x264-SORNY
2017-06-23 14:31:14 Raw.30.DiSC2.XXX.DVDRip.x264-WOP
2017-06-23 14:34:23 Djbluefog-Gravity_7200-(10123148)-WEB-2017-2FAST4U
2017-06-23 14:35:49 Devv-Hit_Record-(10122730)-WEB-2017-2FAST4U
2017-06-23 14:37:17 No_Else-Rawthentic_Moves-(SAWH048)-WEB-2017-2FAST4U
2017-06-23 14:39:10 Growing.Up.Hip.Hop.Atlanta.S01E03.WEBRip.x264-TBS
2017-06-23 14:39:35 Daniel_Hall-Maelstrom-(B072V1DJFL)-WEB-2017-2FAST4U
2017-06-23 14:40:20 Moto2.2017.Assen.Practice.One.HDTV.x264-VERUM
2017-06-23 14:40:39 Growing.Up.Hip.Hop.Atlanta.S01E03.720p.WEBRip.x264-TBS
2017-06-23 14:41:12 P_E_N_I_N_S_O_L_A_R-Interrum-(ERR028)-WEB-2017-2FAST4U
2017-06-23 14:42:09 Growing.Up.Hip.Hop.Atlanta.S01E03.1080p.WEBRip.x264-TBS
2017-06-23 14:42:49 Moto2.2017.Assen.Practice.One.720p.HDTV.x264-VERUM
2017-06-23 14:52:38 You.Get.Me.2017.1080p.WEBRip.x264-STRiFE
2017-06-23 14:53:05 The.Presidents.Book.of.Secrets.2010.COMPLETE.PAL.DVDR-WaLMaRT
2017-06-23 14:55:58 GLOW.S01E01.FRENCH.WEBRip.x264-AMB3R
2017-06-23 14:56:16 GLOW.S01E02.FRENCH.WEBRip.x264-AMB3R
2017-06-23 14:56:39 GLOW.S01E03.FRENCH.WEBRip.x264-AMB3R
2017-06-23 14:57:33 GLOW.S01E04.FRENCH.WEBRip.x264-AMB3R
2017-06-23 14:57:58 GLOW.S01E05.FRENCH.WEBRip.x264-AMB3R
2017-06-23 14:58:00 Shattered.S01E01.720p.WEB.x264-TASTETV
2017-06-23 14:58:29 Mariana_Revilla-DonT_Wanna-(AE011)-WEB-2017-2FAST4U
2017-06-23 14:59:03 Shattered.S01E02.720p.WEB.x264-TASTETV
2017-06-23 14:59:22 Igor-Enthalpy_Forces-(AM3893)-WEB-2017-2FAST4U
2017-06-23 15:00:08 Shattered.S01E03.720p.WEB.x264-TASTETV
2017-06-23 15:00:33 Queen.Of.The.South.S02E03.1080p.WEB.x264-TBS
2017-06-23 15:01:04 Ninze__Okaxy-Blurry_Mind-(FT007)-WEB-2017-2FAST4U
2017-06-23 15:01:10 Shattered.S01E04.720p.WEB.x264-TASTETV
2017-06-23 15:01:46 Ricky_Rough-Itechno-(RAISE418)-WEB-2017-2FAST4U
2017-06-23 15:02:14 Shattered.S01E05.720p.WEB.x264-TASTETV
2017-06-23 15:02:40 Renzo_Zong-Ceremonia_EP-(CCM00015)-WEB-2017-2FAST4U
2017-06-23 15:03:17 Shattered.S01E06.720p.WEB.x264-TASTETV
2017-06-23 15:03:43 Hosh-Stories_From_Sa_Talaia_Chapter_I-(FH002)-WEB-2017-2FAST4U
2017-06-23 15:04:23 Shattered.S01E07.720p.WEB.x264-TASTETV
2017-06-23 15:05:34 Shattered.S01E08.720p.WEB.x264-TASTETV
2017-06-23 15:05:50 Deni_Astera-Roof_Of_The_World-(GRB127)-WEB-2017-2FAST4U
2017-06-23 15:06:42 Shattered.S01E09.720p.WEB.x264-TASTETV
2017-06-23 15:06:49 Rousing_House-Sexy_Groove-(CAT15882)-WEB-2017-2FAST4U
2017-06-23 15:07:46 Shattered.S01E10.720p.WEB.x264-TASTETV
2017-06-23 15:08:07 Proper_Micro_Nv-Colours-(SR573)-WEB-2017-2FAST4U
2017-06-23 15:08:48 Teens.Who.Squirt.XXX.720P.WEBRIP.MP4-GUSH
2017-06-23 15:08:51 Shattered.S01E11.720p.WEB.x264-TASTETV
2017-06-23 15:09:54 Shattered.S01E12.720p.WEB.x264-TASTETV
2017-06-23 15:10:56 Shattered.S01E13.720p.WEB.x264-TASTETV
2017-06-23 15:11:59 Shattered.S01E01.WEBRip.x264-TASTETV
2017-06-23 15:13:01 Shattered.S01E02.WEBRip.x264-TASTETV
2017-06-23 15:14:04 Shattered.S01E03.WEBRip.x264-TASTETV
2017-06-23 15:14:50 Netzwerk_-_Memories__Remix-WEB-1995-iDC
2017-06-23 15:15:08 Shattered.S01E04.INTERNAL.WEBRip.x264-TASTETV
2017-06-23 15:16:13 Shattered.S01E05.WEBRip.x264-TASTETV
2017-06-23 15:17:18 Shattered.S01E06.WEBRip.x264-TASTETV
2017-06-23 15:18:20 Shattered.S01E07.WEBRip.x264-TASTETV
2017-06-23 15:19:29 Shattered.S01E08.WEBRip.x264-TASTETV
2017-06-23 15:20:17 Heavenly_Trip-Mysterious-(TPD007)-WEB-2017-2FAST4U
2017-06-23 15:20:31 Shattered.S01E09.WEBRip.x264-TASTETV
2017-06-23 15:21:06 GLOW.S01E09.720p.WEBRip.x264-STRiFE
2017-06-23 15:21:09 BoobDay.17.06.23.Claudia.Bavel.XXX.1080p.MP4-KTR
2017-06-23 15:21:33 Ben_Nook-Black_Room-(GAR253)-WEB-2015-2FAST4U
2017-06-23 15:21:37 Shattered.S01E10.WEBRip.x264-TASTETV
2017-06-23 15:22:28 Tommy_Boccuto-Agama-(10122370)-WEB-2017-2FAST4U
2017-06-23 15:22:38 Shattered.S01E11.WEBRip.x264-TASTETV
2017-06-23 15:22:43 American.Boyband.S01E03.720p.WEB.x264-CookieMonster
2017-06-23 15:22:49 Formula1.2017.Azerbaijan.Grand.Prix.1st.Practice.DANiSH.720p.HDTV.x264-SKANK
2017-06-23 15:23:11 American.Boyband.S01E03.WEB.x264-CookieMonster
2017-06-23 15:23:40 Shattered.S01E12.WEBRip.x264-TASTETV
2017-06-23 15:23:45 King.Of.The.Road.US.S02E03.720p.WEB.x264-CookieMonster
2017-06-23 15:24:37 Lv8-Momentum-(B072MFY87J)-WEB-2017-2FAST4U
2017-06-23 15:24:46 Shattered.S01E13.WEBRip.x264-TASTETV
2017-06-23 15:24:49 King.Of.The.Road.US.S02E03.WEB.x264-CookieMonster
2017-06-23 15:25:15 King.Of.The.Road.US.S02E03.WEB.x264-CookieMo
2017-06-23 15:25:30 Party.Legends.S02E03.720p.WEB.x264-CookieMonster
2017-06-23 15:26:16 Party.Legends.S02E03.WEB.x264-CookieMonster
2017-06-23 15:26:24 Gustavo_Luyz-Synthesizer-(SUB1036)-WEB-2017-2FAST4U
2017-06-23 15:27:02 Desus.And.Mero.2017.06.22.720p.WEB.x264-CookieMonster
2017-06-23 15:27:28 Dwarv-Ambush_EP-(FFA015)-WEB-2017-2FAST4U
2017-06-23 15:28:06 Beyond_Horizons-Dragon_Journey_From_Saigon-(KLMD297)-WEB-2017-2FAST4U
2017-06-23 15:28:16 Desus.And.Mero.2017.06.22.WEB.x264-CookieMonster
2017-06-23 15:29:18 Artificial_Intelligence-Reprisal-(META052)-WEB-2017-2FAST4U
2017-06-23 15:29:39 Desus.And.Mero.2017.06.22.1080p.WEB.x264-CookieMonster
2017-06-23 15:30:09 Alessandra_Roncone_-_For_Our_Angels-(FSOE240)-WEB-2017-MMS
2017-06-23 15:30:11 American.Boyband.S01E03.1080p.WEB.x264-CookieMonster
2017-06-23 15:30:27 Armin_Van_Buuren_ft_Josh_Cumbee_-_Sunny_Days__Extended_Club_Mix-(ARMD1360)-WEB-2017-MMS
2017-06-23 15:30:37 King.Of.The.Road.US.S02E03.1080p.WEB.x264-CookieMonster
2017-06-23 15:31:59 Party.Legends.S02E03.1080p.WEB.x264-CookieMonster
2017-06-23 15:32:27 Ancient.Aliens.S05E07.Prophets.and.Prophecies.REAL.1080p.WEB.h264-TASTETV
2017-06-23 15:34:29 Romeo_Santos-Imitadora-WEB-SP-2017-SPANK
2017-06-23 15:37:34 10.Days.in.a.Madhouse.2015.720p.BluRay.x264-GUACAMOLE
2017-06-23 15:37:53 EDX_-_Voyage-(ETR379)-WEB-2017-MMS
2017-06-23 15:38:08 Finger_and_Kadel_and_Talstrasse_3-5_-_Farbfilm-(TB511)-WEB-DE-2017-MMS
2017-06-23 15:38:47 Rock.n.Roll.2017.FRENCH.BDRip.x264-PHoQUE
2017-06-23 15:39:36 Das_Lotron-Reset-WEB-2017-ENSLAVE
2017-06-23 15:39:51 Freiheit-Mental_Explosion_EP-(PRM148)-WEB-2017-ENSLAVE
2017-06-23 15:40:06 Ken_Hiwatashi-Sound_Valley-(LLRM5003)-WEB-2017-ENSLAVE
2017-06-23 15:40:23 VA-303_Day_Acid_Jams-(CM05)-WEB-2017-ENSLAVE
2017-06-23 15:42:13 Ansel_Elgort-All_I_Think_About_Is_You-SINGLE-WEB-2017-ENRAGED
2017-06-23 15:42:28 Ansel_Elgort-Home_Alone-SINGLE-WEB-2016-ENRAGED
2017-06-23 15:42:44 Ansel_Elgort-Thief-SINGLE-WEB-2017-ENRAGED
2017-06-23 15:42:47 10.Days.in.a.Madhouse.2015.1080p.BluRay.x264-GUACAMOLE
2017-06-23 15:42:59 Ansel_Elgort-You_Can_Count_On_Me-SINGLE-WEB-2017-ENRAGED
2017-06-23 15:43:14 KSI-Creature-SINGLE-WEB-2017-ENRAGED
2017-06-23 15:43:30 Mir_Fontane-Arizona_(feat_Ish_Williams)-SINGLE-WEB-2016-ENRAGED
2017-06-23 15:43:47 Mir_Fontane-Down_By_The_River-SINGLE-WEB-2016-ENRAGED
2017-06-23 15:44:02 Mir_Fontane-Frank_Ocean-SINGLE-WEB-2017-ENRAGED
2017-06-23 15:44:17 Mir_Fontane-Still_In_The_Hood-SINGLE-WEB-2017-ENRAGED
2017-06-23 15:44:33 Mir_Fontane-WYD-SINGLE-WEB-2017-ENRAGED
2017-06-23 15:44:48 Mir_Fontane-Whos_Watching_the_Kids-EP-WEB-2016-ENRAGED
2017-06-23 15:45:04 Pierre-Dont_Sweat_P_(Alll_You)-SINGLE-WEB-2017-ENRAGED
2017-06-23 15:45:21 TLC-American_Gold-SINGLE-WEB-2017-ENRAGED
2017-06-23 15:45:58 Mir_Fontane-Whos_Watching_the_Kids-EP-WEB-2
2017-06-23 15:48:48 Formula1.2017.Azerbaijan.Grand.Prix.Practice.One.720p.HDTV.x264-VERUM
2017-06-23 15:52:42 10.Days.in.a.Madhouse.2015.DUAL.COMPLETE.BLURAY-MOViEiT
2017-06-23 16:02:48 AGirlKnows.17.06.23.Sicilia.And.Evelina.Darling.XXX.1080p.MP4-KTR
2017-06-23 16:03:17 ATKExotics.17.06.23.Veronica.Valentine.Solo.XXX.1080p.MP4-KTR
2017-06-23 16:04:52 DaughterSwap.17.06.23.Emma.Hix.And.Katya.Rodriguez.XXX.1080p.MP4-KTR
2017-06-23 16:06:08 TheRealWorkout.17.06.23.Daisy.Stone.XXX.1080p.MP4-KTR
2017-06-23 16:11:16 I.K-Tijuana-WEB-FR-2017-H5N1
2017-06-23 16:14:42 Pit_Baccardi_And_Locko-Ma_Vision-WEB-FR-2017-H5N1
2017-06-23 16:16:50 Nassi-Pas_Fatigue-WEB-FR-2017-H5N1
2017-06-23 16:17:12 Formula1.2017.Azerbaijan.Grand.Prix.Practice.One.READNFO.720p.HDTV.x264-GRiP
2017-06-23 16:17:53 James.Corden.2017.06.22.Laura.Haddock.720p.HDTV.x264-CROOKS
2017-06-23 16:17:55 James.Corden.2017.06.22.Laura.Haddock.HDTV.x264-CROOKS
2017-06-23 16:18:08 Brennan_Heart_And_Galactixx_ft._Elle_B_-_Dreamer-WEB-2017-MMS_INT
2017-06-23 16:38:02 Curbi_X_Mesto_-_BRUH-(MF199)-WEB-2017-FMC
2017-06-23 16:38:42 John_Christian_-_The_Grimm-(MF206)-WEB-2017-FMC
2017-06-23 16:46:59 Will_Simms_and_Charly_Black_and_Styl--Chariot-(00602557651737)-WEB-2017-WUS
2017-06-23 16:49:12 GLOW.S01E07.1080p.WEBRip.x264-STRiFE
2017-06-23 16:50:21 Shadow.Dancer.2012.German.DL.1080p.BluRay.AVC-ONFiRE
2017-06-23 16:51:17 Formel1.2017.Aserbajdsjans.Grand.Prix.Foerste.Traening.DANiSH.HDTV.x264-SKANK
2017-06-23 16:56:23 Kolt-Hands_Up_EP-(FS106)-WEB-2017-2FAST4U
2017-06-23 16:57:03 La.Legge.Della.Notte.2016.iTALiAN.BDRip.x264-NTROPiC
2017-06-23 16:57:04 Tres.Banderas.Mosul.2017.SPANiSH.DOC.1080p.HDTV.x264-FERiCE
2017-06-23 16:57:04 Tres.Banderas.Mosul.2017.SPANiSH.DOC.720p.HDTV.x264-FERiCE
2017-06-23 16:57:07 Tres.Banderas.Mosul.2017.SPANiSH.DOC.HDTV.x264-FERiCE
2017-06-23 16:57:08 Chance.S01E03.SPANiSH.1080p.HDTV.x264-FERiCE
2017-06-23 16:57:23 Chance.S01E03.SPANiSH.720p.HDTV.x264-FERiCE
2017-06-23 16:57:27 Chance.S01E03.SPANiSH.HDTV.x264-FERiCE
2017-06-23 16:57:29 Yonak-Blue_Lights-(CAT32738)-WEB-2017-2FAST4U
2017-06-23 16:57:40 GLOW.S01E01.1080p.WEBRip.x264-STRiFE
2017-06-23 16:58:05 Jon_Mills-Tears-(ER0008)-WEB-2017-2FAST4U
2017-06-23 16:58:41 Allume-Melbourne-(3614973400650)-WEB-2017-2FAST4U
2017-06-23 16:59:08 Joe_Goddard-Solid_Steel-DAB-06-23-2017-z0ne
2017-06-23 16:59:17 Jun_Kamoda-Solid_Steel-DAB-06-23-2017-z0ne
2017-06-23 16:59:32 La.Legge.Della.Notte.2016.iTALiAN.720p.BluRay.x264-NTROPiC
2017-06-23 17:00:02 Conversations.With.A.Serial.Killer.S01E01.Ted.Bundy.WEB.x264-UNDERBELLY
2017-06-23 17:00:21 Impure-Connect_EP-(NXGDEP09)-WEB-2017-2FAST4U
2017-06-23 17:00:59 Drake_Liddell-Shelter_Me-(RE069)-WEB-2017-2FAST4U
2017-06-23 17:01:07 Conversations.With.A.Serial.Killer.S01E02.Charles.Starkweather.WEB.x264-UNDERBELLY
2017-06-23 17:01:22 La.Legge.Della.Notte.2016.iTALiAN.1080p.BluRay.x264-NTROPiC
2017-06-23 17:01:55 Ruben_Zurita-Call_Me_At_Night-(MLD067)-WEB-2017-2FAST4U
2017-06-23 17:02:10 Conversations.With.A.Serial.Killer.S01E03.Richard.Trenton.Chase.WEB.x264-UNDERBELLY
2017-06-23 17:03:07 Alone.S04E02.PROPER.720p.HDTV.x264-W4F
2017-06-23 17:03:27 Conversations.With.A.Serial.Killer.S01E04.Albert.De.Salvo.WEB.x264-UNDERBELLY
2017-06-23 17:04:27 Alone.S04E02.PROPER.HDTV.x264-W4F
2017-06-23 17:04:33 Conversations.With.A.Serial.Killer.S01E05.John.Wayne.Gacy.WEB.x264-UNDERBELLY
2017-06-23 17:04:58 Live.by.Night.2016.MULTi.COMPLETE.iNTERNAL.BLURAY-MHT
2017-06-23 17:05:09 Giulio_Franceschelli-Socomon-(HRL008)-WEB-2017-2FAST4U
2017-06-23 17:05:41 Conversations.With.A.Serial.Killer.S01E06.Aileen.Wuornos.WEB.x264-UNDERBELLY
2017-06-23 17:06:02 Nurogl__Leeroy-Doom_Slayer-(DB010)-WEB-2017-2FAST4U
2017-06-23 17:07:18 Aantigen-Murti-(AMSQ056)-WEB-2017-2FAST4U
2017-06-23 17:07:25 Conversations.With.A.Serial.Killer.S01E07.Jeffrey.Dahmer.WEB.x264-UNDERBELLY
2017-06-23 17:08:07 GLOW.S01E09.1080p.WEBRip.x264-STRiFE
2017-06-23 17:08:08 Rood-4_Acres_And_A_Mule-(TRIBE158)-WEB-2017-2FAST4U
2017-06-23 17:08:27 Conversations.With.A.Serial.Killer.S01E08.Belle.Gunness.WEB.x264-UNDERBELLY
2017-06-23 17:08:44 Mockme-Coming_Up-(VOX080)-WEB-2017-2FAST4U
2017-06-23 17:09:51 Rosehaven-The_First_Step_To_Getting_Better-(B071GK4CYG)-WEB-2017-2FAST4U
2017-06-23 17:10:04 Jamestown.S01E07.BDRip.x264-HAGGiS
2017-06-23 17:10:59 Der.grosse.Trip.Wild.2014.German.DL.1080p.BluRay.AVC-ONFiRE
2017-06-23 17:11:09 Seth_Schwarz_vs._Westerby--Aphelion_EP-(3000GRAD044)-PROMO-2017-SHELTER_iNT
2017-06-23 17:11:17 8thStreetLatinas.17.06.23.Jericha.Jem.Shopping.For.Dick.XXX.1080p.MP4-KTR
2017-06-23 17:12:18 Seth.Meyers.2017.06.22.Ice.Cube.720p.HDTV.x264-CROOKS
2017-06-23 17:12:21 Seth.Meyers.2017.06.22.Ice.Cube.HDTV.x264-CROOKS
2017-06-23 17:12:47 RoundAndBrown.17.06.23.Osa.Lovely.Hot.Maid.Big.Ass.XXX.1080p.MP4-KTR
2017-06-23 17:14:03 DaneJones.17.06.23.Apolonia.Lapiedra.XXX.1080p.MP4-KTR
2017-06-23 17:14:59 SheWillCheat.17.06.23.Maya.Bijou.XXX.1080p.MP4-KTR
2017-06-23 17:16:01 House.Of.Anubis.S01E05.FRENCH.720p.HDTV.x264-BAWLS
2017-06-23 17:16:09 House.Of.Anubis.S01E05.FRENCH.HDTV.x264-BAWLS
2017-06-23 17:16:15 House.Of.Anubis.S01E06.FRENCH.720p.HDTV.x264-BAWLS
2017-06-23 17:16:23 House.Of.Anubis.S01E06.FRENCH.HDTV.x264-BAWLS
2017-06-23 17:16:30 House.Of.Anubis.S01E07.FRENCH.720p.HDTV.x264-BAWLS
2017-06-23 17:16:38 House.Of.Anubis.S01E07.FRENCH.HDTV.x264-BAWLS
2017-06-23 17:16:44 House.Of.Anubis.S01E08.FRENCH.720p.HDTV.x264-BAWLS
2017-06-23 17:16:51 House.Of.Anubis.S01E08.FRENCH.HDTV.x264-BAWLS
2017-06-23 17:16:59 House.Of.Anubis.S01E09.FRENCH.720p.HDTV.x264-BAWLS
2017-06-23 17:17:06 House.Of.Anubis.S01E09.FRENCH.HDTV.x264-BAWLS
2017-06-23 17:17:16 Ice.Road.Truckers.S07E03.FRENCH.720p.HDTV.x264-BAWLS
2017-06-23 17:17:22 Ice.Road.Truckers.S07E03.FRENCH.HDTV.x264-BAWLS
2017-06-23 17:17:29 Swamp.People.S05E05.FRENCH.720p.HDTV.x264-BAWLS
2017-06-23 17:17:36 Swamp.People.S05E05.FRENCH.HDTV.x264-BAWLS
2017-06-23 17:17:43 Swamp.People.S05E06.FRENCH.720p.HDTV.x264-BAWLS
2017-06-23 17:17:49 Swamp.People.S05E06.FRENCH.HDTV.x264-BAWLS
2017-06-23 17:17:56 Free.Rein.S01E07.720p.WEBRip.x264-STRiFE
2017-06-23 17:22:38 Blasongz-Rockstar_Lyrical_Savage-(B0732PDC62)-WEB-2017-WRT
2017-06-23 17:23:02 C86-Shadow_In_The_Darkness-(B072WQ8B4K)-WEB-2017-WRT
2017-06-23 17:24:29 D-Millz-Eye_Leaux_View_Theory-(B071FXG3BD)-WEB-2017-WRT
2017-06-23 17:26:15 No_Face-C-Dubb_Presents_No_Face_The_Mob_Hour-(B07333TX3D)-WEB-2017-WRT
2017-06-23 17:27:09 Zeyy-Pre_Apoc-(B072W79HZ4)-WEB-2017-WRT
2017-06-23 17:27:22 FakeDrivingSchool.17.06.23.Candy.Kane.XXX.1080p.MP4-KTR
2017-06-23 17:28:21 Free.Rein.S01E03.1080p.WEBRip.x264-STRiFE
2017-06-23 17:28:22 Scrobe-Take_5-(B071G3MTJL)-WEB-2017-WRT
2017-06-23 17:29:51 Mister_Rogers-Welcome_To_Mister_Rogers_Hood-(B0732SQWTM)-WEB-2017-WRT
2017-06-23 17:30:59 PublicAgent.17.06.23.Nicoletta.Noirett.XXX.1080p.MP4-KTR
2017-06-23 17:31:06 Bobby_Reezy-2_Much_Like_Right-(B072W911QS)-WEB-2017-WRT
2017-06-23 17:32:47 Heyzo.17.03.21.Muzuki.Hirose.Beautiful.Breasts.And.Slender.XXX.1080p.MP4-oRo
2017-06-23 17:33:57 Free.Rein.S01E07.1080p.WEBRip.x264-STRiFE
2017-06-23 17:34:04 Martin_Jensen-Solo_Dance_(From_Morning_Till_Midnight)-(UL8729)-WEB-2017-POSH
2017-06-23 17:34:15 Angie.Tribeca.S03E04.Mach.mich.an.Geils.German.Dubbed.HDTV.x264-ITG
2017-06-23 17:34:19 Heyzo.17.03.23.Serika.Shirogane.Sexual.Service.Training.XXX.1080p.MP4-oRo
2017-06-23 17:34:27 Angie.Tribeca.S03E04.Mach.mich.an.Geils.GERMAN.DUBBED.720p.HDTV.x264-ZZGtv
2017-06-23 17:35:17 Stereofysh-Ohana-(LFC10)-WEB-2017-POSH
2017-06-23 17:35:50 Heyzo.17.03.25.Yumina.How.To.Train.An.Innocent.Girl.XXX.1080p.MP4-oRo
2017-06-23 17:37:22 Heyzo.17.03.27.Miharu.Tanaka.Cum.Inside.Spirits.XXX.1080p.MP4-oRo
2017-06-23 17:38:02 Geisterjaeger_John_Sinclair-64_Die_Grausamen_Ritter-DE-AUDIOBOOK-REMASTERED-CD-FLAC-2017-VOLDiES
2017-06-23 17:38:13 VA-Surface_Tech_House_Essentials_Vol_2-(B072MWG492)-WEB-2017-2FAST4U
2017-06-23 17:38:54 Heyzo.17.03.29.Azumi.Nakama.Bondage.Fetish.XXX.1080p.MP4-oRo
2017-06-23 17:40:19 Cyrus.vs.Cyrus.Design.and.Conquer.S01E05.WEB.x264-TBS
2017-06-23 17:40:20 Cyrus.vs.Cyrus.Design.and.Conquer.S01E05.720p.WEB.x264-TBS
2017-06-23 17:41:18 Cyrus.vs.Cyrus.Design.and.Conquer.S01E05.1080p.WEB.x264-TBS
2017-06-23 17:41:25 GLOW.S01E06.FRENCH.WEBRip.x264-AMB3R
2017-06-23 17:41:44 GLOW.S01E07.FRENCH.WEBRip.x264-AMB3R
2017-06-23 17:42:02 GLOW.S01E08.FRENCH.WEBRip.x264-AMB3R
2017-06-23 17:42:23 GLOW.S01E09.FRENCH.WEBRip.x264-AMB3R
2017-06-23 17:42:41 GLOW.S01E10.FiNAL.FRENCH.WEBRip.x264-AMB3R
2017-06-23 17:42:42 Adventures.With.The.Baumgartners.2017.DiSC1.XXX.DVDRip.x264-HAiRYPUSSY
2017-06-23 17:43:53 Adventures.With.The.Baumgartners.2017.DiSC2.XXX.DVDRip.x264-HAiRYPUSSY
2017-06-23 17:44:30 GLOW.S01E01.German.DL.DUBBED.1080p.WebHD.x264-AIDA
2017-06-23 17:44:44 Like.Honey.2017.XXX.DVDRip.x264-HAiRYPUSSY
2017-06-23 17:45:30 Pregnant.and.Pounded.4.2017.XXX.DVDRip.x264-HAiRYPUSSY
2017-06-23 17:46:07 VA-Nova_Club_Sounds_Vol_1_-_Progressive_House_Bullets-(B072MWHD7X)-WEB-2017-2FAST4U
2017-06-23 17:46:48 Twin.Peaks.S03E07.German.DL.DUBBED.1080p.WebHD.x264-AIDA
2017-06-23 17:47:46 Twin.Peaks.S03E07.German.DL.DUBBED.720p.WebHD.x264-AIDA
2017-06-23 17:48:05 Empire_State_Human-Romo-(SA092)-WEB-2017-2FAST4U
2017-06-23 17:48:15 True.Life.S22E36.720p.WEB.x264-CookieMonster
2017-06-23 17:48:44 Twin.Peaks.S03E07.German.DUBBED.WebRip.x264-AIDA
2017-06-23 17:49:33 True.Life.S22E36.WEB.x264-CookieMonster
2017-06-23 17:49:34 Keope-Tropicalni-(KEOPEMUSIK001)-WEB-2017-2FAST4U
2017-06-23 17:50:02 True.Life.S22E36.1080p.WEB.x264-CookieMonster
2017-06-23 17:50:23 Inner.Voices.Update.v20170622-BAT
2017-06-23 17:50:51 Free.Rein.S01E08.720p.WEBRip.x264-STRiFE
2017-06-23 17:51:01 Iivii-Invasion-(B06ZXXCJYY)-WEB-2017-2FAST4U
2017-06-23 17:51:33 Hostages.S02E05.German.DL.1080p.HDTV.x264-AIDA
2017-06-23 17:52:31 Hostages.S02E05.German.DL.720p.HDTV.x264-AIDA
2017-06-23 17:53:29 Hostages.S02E05.German.HDTVRip.x264-AIDA
2017-06-23 17:54:14 Shades.of.Grey.1-3.Abook-Cowboy
2017-06-23 17:55:30 Free.Rein.S01E06.1080p.WEBRip.x264-STRiFE
2017-06-23 17:56:28 Dreamworld-8_Ball-(B072WXTMQ1)-WEB-2017-WRT
2017-06-23 17:57:43 Subculture_Sage-T_A_K_E_3_E_P-(B06Y2HKRYD)-WEB-2017-WRT
2017-06-23 17:57:48 Celebrity.Stand-Up.S02E04.DUTCH.720p.HDTV.x264-iFH
2017-06-23 17:58:58 Gennaro-The_Revelation-(B07337Q9G6)-WEB-2017-WRT
2017-06-23 18:00:11 Errol_Lee-2U-(B0734LNQMV)-WEB-2017-WRT
2017-06-23 18:00:32 Masseuse.Et.Experte.FRENCH.XXX.720p.HDTV.x264-PERVERT
2017-06-23 18:01:30 Rello__Jo-Ndsv-(B073354DN6)-WEB-2017-WRT
2017-06-23 18:03:58 Lucky_5_-_Ways-(SDU117)-WEB-2017-ZzZz
2017-06-23 18:06:23 Masseuse.Et.Experte.FRENCH.XXX.HDTV.x264-PERVERT
2017-06-23 18:06:45 Free.Rein.S01E02.1080p.WEBRip.x264-STRiFE
2017-06-23 18:07:45 Yella_Beezy-Broke_Night_Rich_Days_(Hosted_By_Bigga_Rankin)-2017-CR
2017-06-23 18:07:50 Bull.2016.S01E20.SPANiSH.1080p.HDTV.x264-FCC
2017-06-23 18:08:20 Bull.2016.S01E20.SPANiSH.720p.HDTV.x264-FCC
2017-06-23 18:08:47 Bull.2016.S01E20.SPANiSH.HDTV.x264-FCC
2017-06-23 18:09:08 Candice.Renoir.S01E04.SPANiSH.1080p.HDTV.x264-FCC
2017-06-23 18:09:45 Candice.Renoir.S01E04.SPANiSH.720p.HDTV.x264-FCC
2017-06-23 18:10:09 Telussa__Tijssen-Let_Me_Tell_You-(10123141)-WEB-2017-2FAST4U
2017-06-23 18:10:17 Candice.Renoir.S01E04.SPANiSH.HDTV.x264-FCC
2017-06-23 18:10:38 El.Ministerio.Del.Tiempo.S03E04.SPANiSH.720p.HDTV.x264-FCC
2017-06-23 18:11:12 El.Ministerio.Del.Tiempo.S03E04.SPANiSH.HDTV.x264-FCC
2017-06-23 18:11:21 Dj_Baloo-Inconsolable-(390)-WEB-2017-2FAST4U
2017-06-23 18:11:35 Fargo.S03E10.SPANiSH.1080p.HDTV.x264-FCC
2017-06-23 18:12:07 Fargo.S03E10.SPANiSH.720p.HDTV.x264-FCC
2017-06-23 18:12:35 All.About.The.Asians.2017.DiSC1.XXX.DVDRip.x264-HAiRYPUSSY
2017-06-23 18:12:46 Fargo.S03E10.SPANiSH.HDTV.x264-FCC
2017-06-23 18:12:53 Dante_Lennon-Square_In_A_Circle-(B071JY1352)-WEB-2017-2FAST4U
2017-06-23 18:13:07 Major.Crimes.S05E21.SPANiSH.1080p.HDTV.x264-FCC
2017-06-23 18:13:12 All.About.The.Asians.2017.DiSC2.XXX.DVDRip.x264-HAiRYPUSSY
2017-06-23 18:13:39 Major.Crimes.S05E21.SPANiSH.720p.HDTV.x264-FCC
2017-06-23 18:13:55 Linus_Quick-Elevate_To_Saturn_EP-(ONHCET051)-WEB-2017-2FAST4U
2017-06-23 18:14:16 Major.Crimes.S05E21.SPANiSH.HDTV.x264-FCC
2017-06-23 18:15:29 C._Struggs-Da_Fat_Crip-2017-CR
2017-06-23 18:18:05 Shio.v1.1.3.RIP.MULTI12-SiMPLEX
2017-06-23 18:20:09 Windchill-2Nd_Wind-(B072ZVBF4X)-WEB-2017-WRT
2017-06-23 18:21:04 Celebrity.Stand-Up.S02E04.DUTCH.1080p.HDTV.x264-iFH
2017-06-23 18:21:51 Jamestown.S01E01.1080p.BluRay.x264-SHORTBREHD
2017-06-23 18:21:54 Godhood-The_Compilation_Tape_Vol_1-(B072Z94SP4)-WEB-2017-WRT
2017-06-23 18:22:38 King_Saylee-Elevation-(B07216Z4B5)-WEB-2017-WRT
2017-06-23 18:23:31 Zane_Smith-Rebel-(B071YSDTYK)-WEB-2017-WRT
2017-06-23 18:24:46 Yellow_Hippy-The_Adventures_Of_The_Yellow_Hippy-(B071HZ9H5K)-WEB-2017-WRT
2017-06-23 18:24:55 Jamestown.S01E02.1080p.BluRay.x264-SHORTBREHD
2017-06-23 18:25:59 VA-Chaingang_Compilation_Vol_1-(B071SDSZF3)-WEB-2017-WRT
2017-06-23 18:26:35 Jimmy.Kimmel.2017.06.22.Anthony.Hopkins.720p.HDTV.x264-CROOKS
2017-06-23 18:26:37 Jimmy.Kimmel.2017.06.22.Anthony.Hopkins.HDTV.x264-CROOKS
2017-06-23 18:27:20 Hawaii.Five-0.2010.S07E21.SPANiSH.HDTV.x264-FERiCE
2017-06-23 18:27:32 Hawaii.Five-0.2010.S07E21.SPANiSH.720p.HDTV.x264-FERiCE
2017-06-23 18:27:51 Hawaii.Five-0.2010.S07E21.SPANiSH.1080p.HDTV.x264-FERiCE
2017-06-23 18:27:57 Jamestown.S01E04.1080p.BluRay.x264-SHORTBREHD
2017-06-23 18:31:00 Jamestown.S01E05.1080p.BluRay.x264-SHORTBREHD
2017-06-23 18:32:23 GLOW.S01E10.1080p.WEBRip.x264-STRiFE
2017-06-23 18:33:44 Levi_Townsend-ROOTS-(B0714LD5F5)-WEB-2017-WRT
2017-06-23 18:34:04 Jamestown.S01E07.1080p.BluRay.x264-SHORTBREHD
2017-06-23 18:35:39 G_Precious-Walk_On_Water_Evolution-(B072KRJ3P6)-WEB-2017-WRT
2017-06-23 18:37:00 BMW.Navigation.Update.USB.Road.Map.Europe.Premium.WEST.2017-2.ML.iNTERNAL-NAViGON
2017-06-23 18:37:17 Radio_Phoenix-Live_Beats_Vol_I-(B072V1CXVZ)-WEB-2017-WRT
2017-06-23 18:38:06 Free.Rein.S01E08.1080p.WEBRip.x264-STRiFE
2017-06-23 18:38:45 Bone_Thugs-New_Waves-2017-NOiR
2017-06-23 18:39:02 Yung_Leo-Lost_Inspiration-(B0721HVXVS)-WEB-2017-WRT
2017-06-23 18:42:46 Cyrus.vs.Cyrus.Design.and.Conquer.S01E04.WEB.x264-TBS
2017-06-23 18:42:57 Cyrus.vs.Cyrus.Design.and.Conquer.S01E04.720p.WEB.x264-TBS
2017-06-23 18:43:19 Cyrus.vs.Cyrus.Design.and.Conquer.S01E04.1080p.WEB.x264-TBS
2017-06-23 18:46:57 BMW.Navigation.Update.USB.Road.Map.Europe.Premium.EAST.2017-2.ML.iNTERNAL-NAViGON
2017-06-23 18:46:57 BMW.Navigation.Update.USB.Road.Map.Europe.Prmium.EAST.2017--2.ML.iNTERNAL-NAViGON
2017-06-23 18:47:31 Formula1.2017.Azerbaijan.Grand.Prix.Practice.Two.720p.HDTV.x264-VERUM
2017-06-23 18:49:11 Moto3.2017.Assen.Practice.Two.HDTV.x264-VERUM
2017-06-23 18:51:18 Moto3.2017.Assen.Practice.Two.720p.HDTV.x264-VERUM
2017-06-23 18:53:57 The.Carer.2016.COMPLETE.PAL.DVDR-WaLMaRT
2017-06-23 18:54:54 MotoGP.2017.Assen.Practice.Two.HDTV.x264-VERUM
2017-06-23 18:57:01 GLOW.S01E04.1080p.WEBRip.x264-STRiFE
2017-06-23 18:58:05 Vet.On.The.Hill.S01E09.HDTV.x264-CBFM
2017-06-23 18:58:07 Vet.On.The.Hill.S01E09.720p.HDTV.x264-CBFM
2017-06-23 19:12:23 Jamestown.S01E03.1080p.BluRay.x264-SHORTBREHD
2017-06-23 19:12:31 Jamie.and.Jimmys.Food.Fight.Club.S05E02.Libanesische.Hackbaellchen.mit.Salma.Hayek.GERMAN.DOKU.720p.HDTV.x264-KiTCHEN
2017-06-23 19:12:45 Chance.S01E04.SPANiSH.1080p.HDTV.x264-FERiCE
2017-06-23 19:13:44 Sgt.Bilko.1996.COMPLETE.BLURAY-COASTER
2017-06-23 19:14:02 Chance.S01E04.SPANiSH.720p.HDTV.x264-FERiCE
2017-06-23 19:14:43 Chance.S01E04.SPANiSH.HDTV.x264-FERiCE
2017-06-23 19:14:47 Jamie.and.Jimmys.Food.Fight.Club.S05E02.Libanesische.Hackbaellchen.mit.Salma.Hayek.GERMAN.DOKU.HDTV.x264-KiTCHEN
2017-06-23 19:15:26 Jamestown.S01E06.1080p.BluRay.x264-SHORTBREHD
2017-06-23 19:16:04 The.Job.Lot.Das.Jobcenter.S03E05.GERMAN.720p.HDTV.x264-ACED
2017-06-23 19:17:13 The.Job.Lot.Das.Jobcenter.S03E05.GERMAN.HDTV.x264-ACED
2017-06-23 19:18:07 VA-Toolroom_Ibiza_2017-(TOOL559)-WEB-2017-XTC
2017-06-23 19:18:31 The.Job.Lot.Das.Jobcenter.S03E06.GERMAN.720p.HDTV.x264-ACED
2017-06-23 19:19:40 The.Job.Lot.Das.Jobcenter.S03E06.GERMAN.HDTV.x264-ACED
2017-06-23 19:30:58 Formel1.2017.Aserbajdsjans.Grand.Prix.Anden.Traening.DANiSH.HDTV.x264-SKANK
2017-06-23 19:31:25 The.Daily.Show.2017.06.22.Jerrod.Carmichael.720p.HDTV.x264-CROOKS
2017-06-23 19:31:27 The.Daily.Show.2017.06.22.Jerrod.Carmichael.HDTV.x264-CROOKS
2017-06-23 19:32:15 Simon_Jaxx-The_Revelation-(10122967)-WEB-2017-2FAST4U
2017-06-23 19:32:52 Moon.Hunters.Eternal.Echoes.v2.0.3287.RIP.MULTI9-SiMPLEX
2017-06-23 19:34:03 AlexyNov-Deep_Dreams-(WHUB0000001AMB)-WEB-2017-2FAST4U
2017-06-23 19:35:29 The.Flash.S03E14.Attack.on.Central.City.GERMAN.DUBBED.DL.1080p.WebHD.x264-TVP
2017-06-23 19:35:43 Moon.Hunters.Eternal.Echoes.v2.0.3287.RIP.MUSIC.ADDON-SiMPLEX
2017-06-23 19:35:57 Radaman-Radaman_Dos_Chopped_N_Screwed_By_Dj_Teddy-(B07216ZBK6)-WEB-2017-WRT
2017-06-23 19:38:28 Ramires_Ortega-Dj_Tools_Vol_015-(10118991)-WEB-2017-2FAST4U
2017-06-23 19:40:48 Supergirl.S02E11.The.Martian.Chronicles.GERMAN.DUBBED.DL.1080p.WebHD.x264-TVP
2017-06-23 19:42:16 Million.Dollar.Listing.New.York.S06E05.WEB.x264-TBS
2017-06-23 19:42:30 Million.Dollar.Listing.New.York.S06E05.720p.WEB.x264-TBS
2017-06-23 19:45:26 Overdrive-In__Out_Of_Love-(VDH002)-WEB-2017-2FAST4U
2017-06-23 19:46:25 D-Unique-Astral_Journey-(POLP1207)-WEB-2017-2FAST4U
2017-06-23 19:46:26 VA-Summer_Gym_Hits_2017-(B072X85Y3P)-WEB-2017-2FAST4U
2017-06-23 19:47:30 VA-The_Rough_Guide_to_World_Playtime-RGNET1256-2CD-2011-NOiR
2017-06-23 19:47:57 Mateo_Relief-Little_Turtle-(10121620)-WEB-2017-2FAST4U
2017-06-23 19:49:58 Patrick_Seeker-Special_Studio_Loops-(SUP045)-WEB-2017-2FAST4U
2017-06-23 19:50:21 MotoGP.2017.Assen.Practice.Two.720p.HDTV.x264-VERUM
2017-06-23 19:50:35 Damyard-Dreams_Come_True-(DMYRD002)-WEB-2017-2FAST4U
2017-06-23 19:51:21 Moto2.2017.Assen.Practice.Two.HDTV.x264-VERUM
2017-06-23 19:52:06 F1.2017.Grosser.Preis.von.Aserbaidschan.1.Freies.Training.in.Baku.German.HDTVRiP.x264-F1ANA
2017-06-23 19:52:43 Formel1.2017.Aserbajdsjans.Grand.Prix.Anden.Traening.DANiSH.720p.HDTV.x264-SKANK
2017-06-23 19:52:51 Neuron_Killa-896_Vip-(SSCD1415)-WEB-2017-2FAST4U
2017-06-23 19:52:58 F1.2017.Grosser.Preis.von.Aserbaidschan.1.Freies.Training.in.Baku.German.720p.HDTV.x264-F1ANA
2017-06-23 19:53:38 Henzo-Awakening-(CAT34142)-WEB-2017-2FAST4U
2017-06-23 19:55:36 VA-Main_Stage_Festival_2017-(B072KB4T2M)-WEB-2017-2FAST4U
2017-06-23 19:55:52 GLOW.S01E02.1080p.WEBRip.x264-STRiFE
2017-06-23 19:59:02 Von-Von_Compilation_Vol_3-(GONG0090)-WEB-2017-2FAST4U
2017-06-23 20:02:17 Terry_Riley-Persian_Surgery_Dervishes-(EF108)-WEB-1993-2FAST4U
2017-06-23 20:03:30 Free.Rein.S01E09.720p.WEBRip.x264-STRiFE
2017-06-23 20:03:43 Free.Rein.S01E09.1080p.WEBRip.x264-STRiFE
2017-06-23 20:04:06 The.Only.Way.Is.Essex.S20E01.WEB.x264-TASTETV
2017-06-23 20:05:10 The.Only.Way.Is.Essex.S20E02.WEB.x264-TASTETV
2017-06-23 20:06:13 The.Only.Way.Is.Essex.S20E03.WEB.x264-TASTETV
2017-06-23 20:07:22 The.Only.Way.Is.Essex.S20E04.WEB.x264-TASTETV
2017-06-23 20:08:27 The.Only.Way.Is.Essex.S20E05.WEB.x264-TASTETV
2017-06-23 20:09:30 The.Only.Way.Is.Essex.S20E06.WEB.x264-TASTETV
2017-06-23 20:10:34 The.Only.Way.Is.Essex.S20E07.WEB.x264-TASTETV
2017-06-23 20:11:37 The.Only.Way.Is.Essex.S20E08.WEB.x264-TASTETV
2017-06-23 20:11:53 Vixen.17.06.23.Charity.Crawford.XXX.1080p.MP4-KTR
2017-06-23 20:12:42 The.Only.Way.Is.Essex.S20E09.WEB.x264-TASTETV
2017-06-23 20:12:57 Vixen.17.06.23.Charity.Crawford.XXX.2160p.MP4-KTR
2017-06-23 20:13:46 The.Only.Way.Is.Essex.S20E10.WEB.x264-TASTETV
2017-06-23 20:14:05 Going_Deeper_and_Deep_Matter_ft._AWR_-_First_Glimpse__Extended_Mix-(ARTR200)-WEB-2017-MMS
2017-06-23 20:14:50 The.Only.Way.Is.Essex.S20E11.WEB.x264-TASTETV
2017-06-23 20:15:53 The.Only.Way.Is.Essex.S20E12.WEB.x264-TASTETV
2017-06-23 20:16:57 The.Only.Way.Is.Essex.S20E13.WEB.x264-TASTETV
2017-06-23 20:17:38 Katrinski__Marliani-Unicorn_Bait-(HMTL003)-WEB-2017-2FAST4U
2017-06-23 20:18:00 The.Only.Way.Is.Essex.S20E14.WEB.x264-TASTETV
2017-06-23 20:19:02 The.Only.Way.Is.Essex.S20E15.WEB.x264-TASTETV
2017-06-23 20:19:33 Million.Dollar.Listing.New.York.S06E05.1080p.WEB.x264-TBS
2017-06-23 20:20:06 The.Only.Way.Is.Essex.S20E16.WEB.x264-TASTETV
2017-06-23 20:20:16 Great.News.S01E07.SPANiSH.1080p.HDTV.x264-FCC
2017-06-23 20:20:32 Sully.2016.RU.DVDRip.x264-NnD
2017-06-23 20:20:52 Great.News.S01E07.SPANiSH.720p.HDTV.x264-FCC
2017-06-23 20:20:55 Chon-Homey-2017-PMS
2017-06-23 20:21:09 The.Only.Way.Is.Essex.S20E17.WEB.x264-TASTETV
2017-06-23 20:21:17 Great.News.S01E07.SPANiSH.HDTV.x264-FCC
2017-06-23 20:21:22 Zero_Range-We_Touch-(JACKED006)-WEB-2017-bAMM
2017-06-23 20:21:38 Great.News.S01E08.SPANiSH.1080p.HDTV.x264-FCC
2017-06-23 20:22:12 Great.News.S01E08.SPANiSH.720p.HDTV.x264-FCC
2017-06-23 20:22:13 The.Only.Way.Is.Essex.S20E18.WEB.x264-TASTETV
2017-06-23 20:22:14 Abhi_The_Nomad-Somebody_To_Love-(TB2994)-WEB-2017-bAMM
2017-06-23 20:22:28 Tiny.House.Hunters.S05E25.Going.Tiny.in.Two.Cities.720p.WEB.h264-CookieMonster
2017-06-23 20:22:37 Great.News.S01E08.SPANiSH.HDTV.x264-FCC
2017-06-23 20:22:59 Tiny.House.Hunters.S05E25.Going.Tiny.in.Two.Cities.WEB.h264-CookieMonster
2017-06-23 20:22:59 Servir.Y.Proteger.S01E44.SPANiSH.720p.HDTV.x264-FCC
2017-06-23 20:23:18 Tiny.House.Hunters.S05E26.Food.Scientist.Goes.Tiny.WEB.h264-CookieMonster
2017-06-23 20:23:31 Servir.Y.Proteger.S01E44.SPANiSH.HDTV.x264-FCC
2017-06-23 20:25:03 Tiny.House.Hunters.S05E26.Food.Scientist.Goes.Tiny.720p.WEB.h264-CookieMonster
2017-06-23 20:25:51 Tiny.House.Hunters.S05E27.Colorado.Millenial.Goes.Tiny.WEB.h264-CookieMonster
2017-06-23 20:26:17 Tiny.House.Hunters.S05E27.Colorado.Millenial.Goes.Tiny.720p.WEB.h264-CookieMonster
2017-06-23 20:28:00 Dj_Rafcool-Jazz_In_One-(UM240)-WEB-2017-WRT
2017-06-23 20:28:35 Moto2.2017.Assen.Practice.Two.720p.HDTV.x264-VERUM
2017-06-23 20:28:55 Nativez_Of_Gary-My_Hood-(GAO001)-WEB-2017-WRT
2017-06-23 20:28:58 Nativez_Of_Gary-My_Hood-(GA001)-WEB-2017-WWRT
2017-06-23 20:29:29 Pathfinder.Adventures.Update.v1.2.6.4-PLAZA
2017-06-23 20:31:39 At.Midnight.2017.06.22.720p.HDTV.x264-CROOKS
2017-06-23 20:31:43 At.Midnight.2017.06.22.HDTV.x264-CROOKS
2017-06-23 20:41:01 Genius.S01E09.GERMAN.720p.HDTV.x264-ACED
2017-06-23 20:41:49 Genius.S01E09.GERMAN.HDTV.x264-ACED
2017-06-23 20:42:40 NEO.Magazin.Royale.S05E20.GERMAN.720p.HDTV.x264-ACED
2017-06-23 20:43:27 NEO.Magazin.Royale.S05E20.GERMAN.HDTV.x264-ACED
2017-06-23 20:46:21 Gardeners.World.S50E14.720p.HDTV.x264-QPEL
2017-06-23 20:48:20 Madlib_and_Dudley_Perkins-Flowers-Vinyl-2002-CMS
2017-06-23 20:48:48 Violent.Cop.1989.720p.BluRay.x264-SADPANDA
2017-06-23 20:51:00 VA_-_Civil_Dance_Vol_4-(10113246)-WEB-2017-ZzZz
2017-06-23 20:53:59 Die.Mr.Peabody.und.Sherman.Show.S03E05.Gehirntausch.und.Koikawa.Harumachi.GERMAN.WS.HDTV.x264-aWake
2017-06-23 20:54:50 Die.Mr.Peabody.und.Sherman.Show.S03E05.Gehirntausch.und.Koikawa.Harumachi.GERMAN.WS.720p.HDTV.x264-aWake
2017-06-23 20:55:41 Die.Mr.Peabody.und.Sherman.Show.S03E05.Gehirntausch.und.Koikawa.Harumachi.GERMAN.WS.1080p.HDTV.x264-aWake
2017-06-23 20:56:33 Sofia.Flux.S01E01.Die.Wasserbombe.GERMAN.WS.HDTV.x264-aWake
2017-06-23 20:57:25 Sofia.Flux.S01E01.Die.Wasserbombe.GERMAN.WS.720p.HDTV.x264-aWake
2017-06-23 21:02:23 Lemony.Snicket.Raetselhafte.Ereignisse.German.2004.AC3.BDRip.x264.iNTERNAL-VideoStar
2017-06-23 21:02:38 Lemony.Snicket.Raetselhafte.Ereignisse.2004.German.DL.1080p.BluRay.x264.iNTERNAL-VideoStar
2017-06-23 21:04:02 Peter_Van_Hoesen-Coast_To_Coast-(T2X29)-WEB-2017-AGITB
2017-06-23 21:10:41 Astin_Clark-Love__Self_Loathing-(B072FS9BGT)-WEB-2017-WRT
2017-06-23 21:10:50 Party.Hard.v1.4.030r.MULTI10-SiMPLEX
2017-06-23 21:21:04 VA_-_Ibiza_Sunset_Dreams_Vol_3-(Mixed_By_DJ_Zappi)-(CLS0003682-2CD)-2017-DRUM
2017-06-23 21:21:14 Allen_Watts_And_Jak_Aggas_-_Slipstream-(DR002)-WEB-2017-MMS
2017-06-23 21:22:28 Mauro_Picotto_-_Unthinkable_(Astuni_And_Manuel_Le_Saux_Remix)-(ALCDG087)-WEB-2017-MMS
2017-06-23 21:28:26 GLOW.S01E03.1080p.WEBRip.x264-STRiFE
2017-06-23 21:28:43 P-SOL_-_These_Times-(WOF_10)-WEB-2017-ZzZz
2017-06-23 21:29:57 RUNNING.WITH.RIFLES.v1.52.MULTI10-SiMPLEX
2017-06-23 21:30:09 SexAndSubmission.17.06.23.AJ.Applegate.XXX.720p.MP4-KTR
2017-06-23 21:30:12 Gotham.S03E08.Blood.Rush.GERMAN.DUBBED.DL.1080p.WebHD.x264-TVP
2017-06-23 21:32:16 Gotham.S03E08.Blood.Rush.GERMAN.DUBBED.DL.720p.WebHD.x264-TVP
2017-06-23 21:32:45 Glastonbury.2017.Royal.Blood.720p.HDTV.x264-QPEL
2017-06-23 21:34:03 South_Beach_Recycling_-_Beach_Party_Disco_Vol_1-(SFSB_001)-WEB-2017-ZzZz
2017-06-23 21:34:21 Gotham.S03E08.Blood.Rush.GERMAN.DUBBED.WS.WebRip.x264-TVP
2017-06-23 21:35:05 Roque_Banos-Evil_Dead_(Original_Motion_Picture_Soundtrack)-WEB-2013-ENTiTLED
2017-06-23 21:35:13 Sigrid-Dont_Kill_My_Vibe_(Acoustic_Versions)-WEB-2017-ENTiTLED
2017-06-23 21:36:21 Sigrid-Dont_Kill_My_Vibe_(Remixes)-WEB-2017-ENTiTLED
2017-06-23 21:37:15 Kong.Skull.Island.2017.3D.1080p.BluRay.x264-SPRiNTER
2017-06-23 21:39:32 Bunnydeth-Deux-(B072QBXYTJ)-WEB-2017-bAMM
2017-06-23 21:39:45 Unomas_feat_Fritz_Helder_-_Shari_Vari-(BLACKRIOTD_05)-WEB-2017-ZzZz
2017-06-23 21:41:37 Mozes_ft_Assaf_Averbuch_-_Bright_Eyes_(Incl_Blaikz_Remixes)-WEB-2017-MMS
2017-06-23 21:45:05 Baz_Francis-Trainwrecks_In_The_Desert_Giza_2017_(Recorded_Live_At_Cairo_Jazz_Club)-(B0733G5Q61)-WEB-2017-bAMM
2017-06-23 21:45:21 Free.Rein.S01E02.German.WebRip.x264-BiGiNT
2017-06-23 21:46:00 Free.Rein.S01E02.German.720p.WebHD.x264-BiGiNT
2017-06-23 21:46:52 Free.Rein.S01E02.German.1080p.WebHD.x264-BiGiNT
2017-06-23 21:48:06 Aladdin.1992.PLDUB.DUAL.720p.BluRay.x264-FLAME
2017-06-23 21:48:11 Delphinia.Chronicle.REPACK-DARKSiDERS
2017-06-23 21:48:56 Big_Drill_Car-Batch-WEB-1987-ENTiTLED_iNT
2017-06-23 21:49:04 Free.Rein.S01E03.German.WebRip.x264-BiGiNT
2017-06-23 21:49:10 Aladdin.1992.PLDUB.DUAL.1080p.BluRay.x264-FLAME
2017-06-23 21:49:12 Felice_-_Boom_Boom_Boom-(FYE_0003)-WEB-2017-ZzZz
2017-06-23 21:49:16 Big_Drill_Car-CD_Type_Thing-WEB-1989-ENTiTLED_iNT
2017-06-23 21:49:37 Big_Drill_Car-No_Worse_for_the_Wear-WEB-1993-ENTiTLED_iNT
2017-06-23 21:49:59 Big_Drill_Car-Small_Block-WEB-1988-ENTiTLED_iNT
2017-06-23 21:50:02 Big_Drillr-Small_Blockock-WEB-1988-ENTiTLED_iNT
2017-06-23 21:50:16 Free.Rein.S01E03.German.720p.WebHD.x264-BiGiNT
2017-06-23 21:50:18 Big_Drill_Car-Toured_(A_Live_Album)-WEB-1991-ENTiTLED_iNT
2017-06-23 21:50:41 Finch-Falling_Into_Place-WEB-2001-ENTiTLED_iNT
2017-06-23 21:51:02 Finch-Say_Hello_To_Sunshine-WEB-2005-ENTiTLED_iNT
2017-06-23 21:51:22 Groovie_Ghoulies-Live_Music_Series-WEB-2007-ENTiTLED
2017-06-23 21:51:38 Duda.Razonable.S01E10.SPANiSH.1080p.HDTV.x264-FCC
2017-06-23 21:51:39 Free.Rein.S01E03.German.1080p.WebHD.x264-BiGiNT
2017-06-23 21:51:42 Guttermouth-Live_Music_Series-WEB-2007-ENTiTLED
2017-06-23 21:52:03 Ignite-A_Place_Called_Home-WEB-2000-ENTiTLED_iNT
2017-06-23 21:52:14 Duda.Razonable.S01E10.SPANiSH.720p.HDTV.x264-FCC
2017-06-23 21:52:24 Ignite-Call_On_My_Brothers-WEB-1995-ENTiTLED_iNT
2017-06-23 21:52:40 Duda.Razonable.S01E10.SPANiSH.HDTV.x264-FCC
2017-06-23 21:52:45 Ignite-Past_Our_Means-WEB-1996-ENTiTLED_iNT
2017-06-23 21:52:52 Happy.Feet.2006.PLDUB.DUAL.720p.BluRay.x264-FLAME
2017-06-23 21:53:06 Millencolin-Kingwood-WEB-2005-ENTiTLED_iNT
2017-06-23 21:53:26 Millencolin-The_Melancholy_Collection-WEB-1999-ENTiTLED_iNT
2017-06-23 21:53:47 Happy.Feet.2006.PLDUB.DUAL.1080p.BluRay.x264-FLAME
2017-06-23 21:53:48 NOFX-So_Long_and_Thanks_For_All_The_Shoes-WEB-1997-ENTiTLED_iNT
2017-06-23 21:53:57 Munchie_Squad_feat_Chelsea_Collins_-_No_Sleep-(FYE_0004)-WEB-2017-ZzZz
2017-06-23 21:54:08 New_Bomb_Turks-At_Ropes_End-WEB-1996-ENTiTLED_iNT
2017-06-23 21:54:13 Yung_Cat-Only_In_Killa_City_Ftj_Vol_1-WEB-2017-ESG
2017-06-23 21:54:29 New_Bomb_Turks-Beruhren_Meiner_Affe-WEB-1999-ENTiTLED_iNT
2017-06-23 21:54:41 Scoot_Da_Kidd-Apply_Pressure_(AP1)-WEB-2017-ESG
2017-06-23 21:54:50 New_Bomb_Turks-Drunk_On_Cock-WEB-1993-ENTiTLED_iNT
2017-06-23 21:55:10 New_Bomb_Turks-Nightmare_Scenario-WEB-2000-ENTiTLED_iNT
2017-06-23 21:55:31 New_Bomb_Turks-Pissing_Out_The_Poison-WEB-1995-ENTiTLED_iNT
2017-06-23 21:55:37 Happy.Feet.2006.PLDUB.BDRip.PROPER.x264-FLAME
2017-06-23 21:55:47 Animal.Kingdom.US.S02E03.720p.HDTV.x264-KILLERS
2017-06-23 21:55:52 New_Bomb_Turks-Scared_Straight-WEB-1996-ENTiTLED_iNT
2017-06-23 21:56:13 New_Bomb_Turks-Switchblade_Tongues_Butterknife_Brains-WEB-2003-ENTiTLED_iNT
2017-06-23 21:56:34 Pegboy-Cha-Cha_Damore-WEB-1997-ENTiTLED_iNT
2017-06-23 21:56:55 Pegboy-Earwig-WEB-1994-ENTiTLED_iNT
2017-06-23 21:57:15 Pegboy-Fore-WEB-1993-ENTiTLED_iNT
2017-06-23 21:57:36 Pegboy-Strong_Reaction-WEB-1991-ENTiTLED_iNT
2017-06-23 21:57:41 Jackie.2016.PL.BDRip.x264-FLAME
2017-06-23 21:57:56 Pegboy-Three_Chord_Monte-WEB-1990-ENTiTLED_iNT
2017-06-23 21:58:17 Pulley-Live_Music_Series-WEB-2006-ENTiTLED
2017-06-23 21:58:38 River_City_Rebels-Live_Music_Series-WEB-2007-ENTiTLED
2017-06-23 21:58:58 Seaweed-Actions_and_Indications-WEB-1998-ENTiTLED_iNT
2017-06-23 21:59:13 Vacation.2015.PL.BDRip.x264-FLAME
2017-06-23 21:59:20 Seaweed-Despised-WEB-1991-ENTiTLED_iNT
2017-06-23 21:59:41 Seaweed-Four-WEB-1993-ENTiTLED_iNT
2017-06-23 22:00:01 Seaweed-Weak-WEB-1992-ENTiTLED_iNT
2017-06-23 22:00:22 Story_Untold-Delete-SINGLE-WEB-2017-ENTiTLED
2017-06-23 22:00:42 Waking_Ashland-Live_Music_Series-WEB-2007-ENTiTLED
2017-06-23 22:01:03 Wester-Danger_Music-WEB-2004-ENTiTLED_iNT
2017-06-23 22:01:24 Yesterdays_Rising-Live_Music_Series-WEB-2007-ENTiTLED
2017-06-23 22:01:45 Zeke-Dirty_Sanchez-WEB-2000-ENTiTLED_iNT
2017-06-23 22:01:57 Vacation.2015.PL.DUAL.720p.PROPER.BluRay.x264-FLAME
2017-06-23 22:02:05 Zeke-Kicked_In_The_Teeth-WEB-1998-ENTiTLED_iNT
2017-06-23 22:02:27 Zeke-Super_Sound_Racing-WEB-1996-ENTiTLED_iNT
2017-06-23 22:02:47 Zeke-Til_the_Livin_End-WEB-2004-ENTiTLED_iNT
2017-06-23 22:02:56 Bad.Sheriff.2017.GERMAN.1080p.HDTV.x264-FiLMCHEN
2017-06-23 22:03:08 Zeke-True_Crime-WEB-1999-ENTiTLED_iNT
2017-06-23 22:03:45 Bad.Sheriff.2017.GERMAN.720p.HDTV.x264-FiLMCHEN
2017-06-23 22:04:14 Animal.Kingdom.US.S02E03.HDTV.x264-KILLERS
2017-06-23 22:04:33 Bad.Sheriff.2017.GERMAN.HDTV.x264-FiLMCHEN
2017-06-23 22:05:59 Sco-Partout_Et_Nulle_Part-WEB-FR-2017-H5N1
2017-06-23 22:08:07 Before.We.Go.GERMAN.2014.Dubbed.BDRip.x264-DECiDE
2017-06-23 22:08:24 Above_and_Beyond_-_Group_Therapy_237__Incl_Zoo_Brazil_Guestmix-SAT-06-23-2017-TALiON
2017-06-23 22:09:15 Before.We.Go.2014.GERMAN.DL.AC3D.720p.BluRay.x264-DECiDE
2017-06-23 22:10:55 VA_-_Trance_Maschine_Vol_3-(10113076)-WEB-2017-ZzZz
2017-06-23 22:11:03 Before.We.Go.2014.GERMAN.DL.AC3D.1080p.BluRay.x264-DECiDE
2017-06-23 22:13:32 Alfredo_Escudero_Leonidas_Moreno_And_Los_Montaneros-Chiquillo_Enamorado-SP-2017-KiEF
2017-06-23 22:14:57 Do.Not.Call.2017.GERMAN.1080p.HDTV.h264-FiLMCHEN
2017-06-23 22:15:07 Kafu_Banton-Kaboom_Mixtape-SP-2013-KiEF
2017-06-23 22:15:46 Do.Not.Call.2017.GERMAN.720p.HDTV.x264-FiLMCHEN
2017-06-23 22:16:35 Do.Not.Call.2017.GERMAN.HDTV.x264-FiLMCHEN
2017-06-23 22:17:32 Galit-613-(B072V1RN6B)-WEB-2017-bAMM
2017-06-23 22:18:23 The_Boy_Next_Door_And_Fresh_Coast_Feat_Jody_Bernal_-_La_Colegiala-(SP_1311AP)-WEB-SP-2017-ZzZz
2017-06-23 22:19:16 Vic_Davi-Breathe_Love-(B071SJ3QCD)-WEB-2017-bAMM
2017-06-23 22:20:08 Nico_Andrulli-Where_The_Ocean_Dies-(B0732PLZV3)-WEB-2017-bAMM
2017-06-23 22:21:12 Killer_At_Large-Handling_The_Pain-(B072YWG7F4)-WEB-2017-bAMM
2017-06-23 22:22:27 Pedro_Alonso-Vivo_Pensando-SP-2015-KiEF
2017-06-23 22:22:34 Danny_Cruz_-_Feel_So_Real-(CMS_098)-WEB-2017-ZzZz
2017-06-23 22:22:49 Personal.Shopper.2016.LIMITED.720p.BluRay.x264-USURY
2017-06-23 22:23:38 MasterChef.Slovenija.S03E24.SI.720p.WEB.x264-RADiOACTiVE
2017-06-23 22:25:06 Sociedad_Anonima-Con_Sabor_Y_Tumbao-SP-2015-KiEF
2017-06-23 22:25:38 HP_Vince_-_Close_Your_Eyes-(REDISCO_007)-WEB-2017-ZzZz
2017-06-23 22:26:44 VA-Gummy_Records_Presenta_Reggae_Overload_4-SP-1998-KiEF_INT
2017-06-23 22:26:51 Personal.Shopper.2016.LIMITED.BDRip.x264-BiPOLAR
2017-06-23 22:31:32 Bad_Intent-Hunted-(ER0004)-WEB-2017-2FAST4U
2017-06-23 22:32:39 Um-Take_My_Way-(3614976086530)-WEB-2017-2FAST4U
2017-06-23 22:33:14 Jon_Sine-All_About-(SUPER5021)-WEB-2016-2FAST4U
2017-06-23 22:34:06 Max_Muller-Eternity-(022)-WEB-2017-2FAST4U
2017-06-23 22:34:59 Jaques_Le_Noir-Fluta_EP-(JANGO419)-WEB-2017-2FAST4U
2017-06-23 22:35:34 Stefan.Zweig.Farewell.to.Europe.2016.LIMITED.720p.BluRay.x264-USURY
2017-06-23 22:36:41 Jonny_F_Dee-Race_Of_Base-(10123192)-WEB-2017-2FAST4U
2017-06-23 22:37:22 Free.Rein.S01E05.1080p.WEBRip.x264-STRiFE
2017-06-23 22:38:29 Ransom.S01E08.FRENCH.720p.HDTV.x264-DEAL
2017-06-23 22:41:03 Stefan.Zweig.Farewell.to.Europe.2016.LIMITED.BDRip.x264-BiPOLAR
2017-06-23 22:41:57 Ransom.S01E08.FRENCH.HDTV.x264-DEAL
2017-06-23 22:42:05 Erpressung.Wie.viel.ist.deine.Familie.wert.German.2017.AC3.BDRiP.x264-XF
2017-06-23 22:43:16 Erpressung.Wie.viel.ist.deine.Familie.wert.2017.German.720p.BluRay.x264-ENCOUNTERS
2017-06-23 22:44:18 Adventure_Club-Chocolate_Coconut_Milk_Presentation-WEB-2017-BPM
2017-06-23 22:44:36 Aiotto-Dark_White-WEB-2017-BPM
2017-06-23 22:44:37 Profeetat.Cheeck.and.Elastinen.Live.FiNNiSH.720p.HDTV.x264-DEDSEC
2017-06-23 22:44:40 Cluster_Lizard-Edge_Of_The_Universe-(LECABANONSA001)-WEB-2017-2FAST4U
2017-06-23 22:44:44 Erpressung.Wie.viel.ist.deine.Familie.wert.2017.German.DL.1080p.BluRay.x264-ENCOUNTERS
2017-06-23 22:44:53 Alberto_Costas-La_Boqueria-WEB-2017-BPM
2017-06-23 22:45:11 Audiofly-Alone_In_A_Sea_Of_Likes-WEB-2017-BPM
2017-06-23 22:45:23 GLOW.S01E05.1080p.WEBRip.x264-STRiFE
2017-06-23 22:45:29 Banda_Caliente-La_Chica_Kenna-WEB-2017-BPM
2017-06-23 22:45:47 Bunny_House-Who_Love_Deep-WEB-2017-BPM
2017-06-23 22:45:52 Marcel_Stroedter-Chapter_Ii-(MZZ031S)-WEB-2017-2FAST4U
2017-06-23 22:46:05 Claremont-Do_You_Feel-WEB-2017-BPM
2017-06-23 22:46:08 Stefan.Zweig.Farewell.to.Europe.2016.LIMITED.1080p.BluRay.x264-USURY
2017-06-23 22:46:23 Corner-Into_The_Groove-WEB-2017-BPM
2017-06-23 22:46:34 Gav_Filthy_Plastic-Hold_Me-(ENC062)-WEB-2017-2FAST4U
2017-06-23 22:46:41 Cumbia_Latin_Band-Cumbias_Peruanas-WEB-2017-BPM
2017-06-23 22:46:58 DJ_List-Remixes-WEB-2017-BPM
2017-06-23 22:47:16 Dawid_Web-Cryptic_Code-WEB-2017-BPM
2017-06-23 22:47:29 Man-K-No_Life_After_Music-(3614975672000)-WEB-2017-2FAST4U
2017-06-23 22:47:33 Dublusters-House_Nation-WEB-2017-BPM
2017-06-23 22:47:51 Fideles-The_Border_EP-WEB-2017-BPM
2017-06-23 22:48:08 Franky-Now-WEB-2017-BPM
2017-06-23 22:48:27 Gai_Barone-Theres_A_Lady-WEB-2017-BPM
2017-06-23 22:48:29 Steve_Murrell-Shut_Em_Down_EP-(BMD643)-WEB-2017-2FAST4U
2017-06-23 22:48:44 INFUTURE-Party_Proof-WEB-2017-BPM
2017-06-23 22:49:02 Ivan_Spell-So_Brave-WEB-2017-BPM
2017-06-23 22:49:20 Jori_Hulkkonen-I_Am_The_Night__Tintan_Terdel_EP-WEB-2017-BPM
2017-06-23 22:49:37 Koni-Mad_About_You_(THE_REMIXES)-WEB-2017-BPM
2017-06-23 22:49:54 LANDIS-Crewella_De_Ville-WEB-2017-BPM
2017-06-23 22:50:13 LOKI-New_World_Order-WEB-2017-BPM
2017-06-23 22:50:27 Biker-Abduction_Trip-(SSCD1413)-WEB-2017-2FAST4U
2017-06-23 22:50:31 Laera-Inside_My_House-WEB-2017-BPM
2017-06-23 22:50:50 Latmun-Please_Stop_EP-WEB-2017-BPM
2017-06-23 22:51:06 Profeetat.Cheek.and.Elastinen.Live.DIRFiX.FiNNiSH.720p.HDTV.x264-DEDSEC
2017-06-23 22:51:07 Luca_Debonaire_and_Mike_Ferullo_ft_Sylvia_Quartz-Drive_Me_Mad-WEB-2017-BPM
2017-06-23 22:51:24 Cristian_Varela-Project10S_EP-(ID129)-WEB-2017-2FAST4U
2017-06-23 22:51:24 Glastonbury.2017.The.XX.720p.HDTV.x264-QPEL
2017-06-23 22:51:25 Luis_Rodriguez-Summertime-WEB-2017-BPM
2017-06-23 22:51:42 Mahalo-Heaven_(feat_Cat_Lewis)-WEB-2017-BPM
2017-06-23 22:52:00 Mike_Cox-People_Without_A_Face-WEB-2017-BPM
2017-06-23 22:52:15 Fabrizio_Conti-Duties-(OTR674)-WEB-2017-2FAST4U
2017-06-23 22:52:18 Mike_Newman-Bring_Ya_Body-WEB-2017-BPM
2017-06-23 22:52:36 Mike_Shiver-Stay-WEB-2017-BPM
2017-06-23 22:52:53 Ollie-What_U_Need-WEB-2017-BPM
2017-06-23 22:53:10 Phonique-Just_the_Beginning-WEB-2017-BPM
2017-06-23 22:53:21 Funk_Mediterraneo-Dance_Dance_Everybody-(UNQTZ085)-WEB-2017-2FAST4U
2017-06-23 22:53:29 Popcorn_Poppers-The_Land_of_the_Sunshine-WEB-2017-BPM
2017-06-23 22:53:46 Quantek-Love_and_Happiness_(Radio_Edit)-WEB-2017-BPM
2017-06-23 22:54:04 Rene_Amesz-Aydin_EP-WEB-2017-BPM
2017-06-23 22:54:22 Rick_Marshall-Let_It_Groove-WEB-2017-BPM
2017-06-23 22:54:39 Riva_Starr_Dennis_Cruz_and_Gene_Farris-Play_EP-WEB-2017-BPM
2017-06-23 22:54:57 Robin_Feelgood-Future_Funky_House_2017-WEB-2017-BPM
2017-06-23 22:55:15 SAN_Bon_Finix-Bouncerville-WEB-2017-BPM
2017-06-23 22:55:32 SamNSK-My_Son-WEB-2017-BPM
2017-06-23 22:55:50 Sydney_Blu-Showdown_EP-WEB-2017-BPM
2017-06-23 22:56:19 Vomit_Remnants-Collecting_The_Remnants-(LE039)-2CD-FLAC-2017-86D
2017-06-23 22:56:19 The_Him_feat_Cub_Rayan-Secrets-WEB-2017-BPM
2017-06-23 22:56:26 Tommy_Largo-Fire_It_Up-WEB-2017-BPM
2017-06-23 22:57:17 White-Max-Sun-WEB-2017-BPM
2017-06-23 22:57:44 The.Code.S02E01.GERMAN.HDTVRiP.x264.iNTERNAL-BTVG
2017-06-23 22:57:45 The.Code.S02E01.GERMAN.720p.HDTV.x264-BTVG
2017-06-23 22:57:49 I.am.not.your.Negro.German.2016.DL.PAL.DOKU.DVDR-HiGHLiGHT
2017-06-23 22:58:12 Future-The_Future_Is_Now_Mixed_By_DJ_Smoke-Bootleg-CD-FLAC-2017-Mrflac
2017-06-23 22:59:24 Gorgeous.1999.iNTERNAL.DVDRip.x264-MULTiPLY
2017-06-23 22:59:27 Mr_Argenis-House_Deeper_EP-(CUT117)-WEB-2017-2FAST4U
2017-06-23 22:59:53 Les_10-Artefacts_Vol_1-FR-Bootleg-CD-FLAC-2017-Mrflac
2017-06-23 23:00:36 Fonzie_Ciaco-Freefall-(CFN040)-WEB-2017-2FAST4U
2017-06-23 23:00:52 Les_Freres_De_La_Rue-Lecole_Ou_La_Barette-FR-CD-FLAC-2009-Mrflac
2017-06-23 23:02:03 Ndal-Colis_Piege_Vol_3-FR-CD-FLAC-2010-Mrflac
2017-06-23 23:02:14 Gorgeous.EXTRAS.1999.DVDRip.x264-MULTiPLY
2017-06-23 23:02:20 Tb1-Kea_Galalela-(BKT002)-WEB-2017-2FAST4U
2017-06-23 23:02:21 Malon_Dark-Feelings_EP-(CAT33269)-WEB-2017-2FAST4U
2017-06-23 23:02:22 Dj_Bonie-Desire_Of_Sun-(DJB01)-WEB-2017-2FAST4U
2017-06-23 23:02:50 Le_Syndic-Premieres_Revendications-FR-Bootleg-CD-FLAC-2012-Mrflac
2017-06-23 23:03:12 Jamestown.S01E08.BDRip.x264-HAGGiS
2017-06-23 23:03:52 Nouvel_R-Hybride-FR-CD-FLAC-2008-Mrflac
2017-06-23 23:04:03 Jamestown.S01E08.720p.BluRay.x264-SHORTBREHD
2017-06-23 23:04:17 Guombat-Big_Dreams-(BLACKSERIESMOLA222)-WEB-2017-2FAST4U
2017-06-23 23:05:14 Nouvel_R-Tout_Va_Bien-FR-CD-FLAC-2010-Mrflac
2017-06-23 23:05:16 Sharox-Brain_Damage-(040M)-WEB-2017-2FAST4U
2017-06-23 23:05:18 Days.of.our.Lives.S52E192.720p.WEB.x264-TASTETV
2017-06-23 23:05:57 Shanghai.Knights.2003.iNTERNAL.DVDRip.x264-MULTiPLY
2017-06-23 23:06:06 Jamestown.S01E08.1080p.BluRay.x264-SHORTBREHD
2017-06-23 23:06:55 Days.of.our.Lives.S52E192.WEB.x264-TASTETV
2017-06-23 23:06:55 Vomit_Remnants-Collecting_The_Remnants-2CD-2017-DiTCH
2017-06-23 23:06:59 The.Crystal.Maze.2017.S01E01.Celebrity.Special.720p.HDTV.x264-QPEL
2017-06-23 23:07:30 Atze_Ton-I_Like_It_Ep-(038_X)-WEB-2017-BB8
2017-06-23 23:07:56 Shanghai.Knights.EXTRAS.2003.DVDRip.x264-MULTiPLY
2017-06-23 23:08:14 Irazu-Shtamm-(ST_172)-WEB-2017-BB8
2017-06-23 23:12:24 Falling.Water.S01E08.German.DL.DUBBED.1080p.WebHD.x264-TVNATiON
2017-06-23 23:13:41 Falling.Water.S01E08.German.DL.DUBBED.720p.WebHD.x264-TVNATiON
2017-06-23 23:14:46 Living_Colour-Biscuits-EP-WEB-1991-ENTiTLED_iNT
2017-06-23 23:15:00 Falling.Water.S01E08.German.DUBBED.WebRip.x264-TVNATiON
2017-06-23 23:15:06 Living_Colour-CBGB_OMFUG_Masters_August_19_2005_The_Bowery_Collection-WEB-2008-ENTiTLED
2017-06-23 23:15:27 Living_Colour-Collideoscope-WEB-2003-ENTiTLED_iNT
2017-06-23 23:15:48 Living_Colour-Come_On-SINGLE-WEB-2017-ENTiTLED
2017-06-23 23:15:51 Tabletop.Simulator.Cavern.Tavern-PLAZA
2017-06-23 23:16:11 Living_Colour-Live_from_CBGBs-WEB-2005-ENTiTLED_iNT
2017-06-23 23:16:18 Nowhere.Boys.S01E05.German.1080p.WebHD.x264-TVNATiON
2017-06-23 23:16:31 Living_Colour-Paris_Concert-WEB-2009-ENTiTLED
2017-06-23 23:16:54 Living_Colour-Pride-WEB-1995-ENTiTLED_iNT
2017-06-23 23:17:16 Living_Colour-Stain-WEB-1993-ENTiTLED_iNT
2017-06-23 23:17:36 Nowhere.Boys.S01E05.German.720p.WebHD.x264-TVNATiON
2017-06-23 23:17:38 Living_Colour-The_Chair_in_the_Doorway-WEB-2009-ENTiTLED_iNT
2017-06-23 23:17:42 Berserk.Second.Season.E10.DiRFiX.SUBFRENCH.1080p.WEBRip.X264-SLEEPINGFOREST
2017-06-23 23:17:59 Living_Colour-TimeS_Up-WEB-1990-ENTiTLED_iNT
2017-06-23 23:18:02 Berserk.Second.Season.E11.DiRFIX.SUBFRENCH.1080p.WEBRip.X264-SLEEPINGFOREST
2017-06-23 23:18:16 Berserk.Second.Season.E12.FiNAL.READNFO.SUBFRENCH.1080p.WEBRip.X264-SLEEPINGFOREST
2017-06-23 23:18:20 Living_Colour-Vivid-WEB-1988-ENTiTLED_iNT
2017-06-23 23:18:32 Berserk.Second.Season.SUMMARY.DiRFiX.SUBFRENCH.1080p.WEBRip.X264-SLEEPINGFOREST
2017-06-23 23:18:41 Living_Colour-Whats_Your_Favorite_Color_(Remixes_B-sides_and_Rarities)-WEB-2005-ENTiTLED
2017-06-23 23:18:45 Hinako.Note.E12.FiNAL.SUBFRENCH.1080p.WEBRip.X264-SLEEPINGFOREST
2017-06-23 23:18:53 Nowhere.Boys.S01E05.German.WebRip.x264-TVNATiON
2017-06-23 23:19:00 Nobunaga.no.Shinobi.Second.Season.E12.SUBFRENCH.1080p.WEBRip.X264-SLEEPINGFOREST
2017-06-23 23:19:01 Living_Colour-Who_Shot_Ya-WEB-2016-ENTiTLED
2017-06-23 23:19:14 Seikai.Suru.Kado.E11.SUBFRENCH.1080p.WEBRip.X264-SLEEPINGFOREST
2017-06-23 23:19:30 Sin.Nanatsu.no.Taizai.E10.SUBFRENCH.1080p.WEBRip.X264-SLEEPINGFOREST
2017-06-23 23:19:46 Tsuki.ga.Kirei.E11.SUBFRENCH.1080p.WEBRip.X264-SLEEPINGFOREST
2017-06-23 23:19:58 Twin.Angel.Break.E12.FiNAL.SUBFRENCH.1080p.WEBRip.X264-SLEEPINGFOREST
2017-06-23 23:20:10 Nowhere.Boys.S02E05.German.1080p.WebHD.x264-TVNATiON
2017-06-23 23:20:16 Berserk.Second.Season.E10.DiRFiX.SUBFRENCH.720p.WEBRip.X264-SLEEPINGFOREST
2017-06-23 23:20:27 Berserk.Second.Season.E11.DiRFiX.SUBFRENCH.720p.WEBRip.X264-SLEEPINGFOREST
2017-06-23 23:20:39 Berserk.Second.Season.E12.FiNAL.READNFO.SUBFRENCH.720p.WEBRip.X264-SLEEPINGFOREST
2017-06-23 23:21:04 Berserk.Second.Season.SUMMARY.DiRFiX.SUBFRENCH.720p.WEBRip.X264-SLEEPINGFOREST
2017-06-23 23:21:20 Nobunaga.no.Shinobi.Second.Season.E12.SUBFRENCH.720p.WEBRip.X264-SLEEPINGFOREST
2017-06-23 23:21:28 Nowhere.Boys.S02E05.German.720p.WebHD.x264-TVNATiON
2017-06-23 23:21:33 Seikai.Suru.Kado.E11.SUBFRENCH.720p.WEBRip.X264-SLEEPINGFOREST
2017-06-23 23:21:48 Sin.Nanatsu.no.Taizai.E10.SUBFRENCH.720p.WEBRip.X264-SLEEPINGFOREST
2017-06-23 23:22:04 Tsuki.ga.Kirei.E11.SUBFRENCH.720p.WEBRip.X264-SLEEPINGFOREST
2017-06-23 23:22:23 Twin.Angel.Break.E12.FiNAL.SUBFRENCH.720p.WEBRip.X264-SLEEPINGFOREST
2017-06-23 23:22:46 Nowhere.Boys.S02E05.German.WebRip.x264-TVNATiON
2017-06-23 23:23:11 Hinako.Note.E12.FiNAL.SUBFRENCH.720p.WEBRip.X264-SLEEPINGFOREST
2017-06-23 23:23:29 Arma.3.Jets.Update.v1.72.incl.DLC-CODEX
2017-06-23 23:24:38 Aldo_Bergamasco_and_Antonello_Ferrari--Superstition-(SMR0002A)-WEB-2017-dh
2017-06-23 23:24:38 Law.and.Order.SVU.S18E19.FRENCH.HDTV.x264-AMB3R
2017-06-23 23:24:46 Twin.Angel.Break.E12.FiNAL.SUBFRENCH.1080p.WEBRip.X264-S
2017-06-23 23:27:27 Anthos-Multiverse-(CAT32289)-WEB-2017-2FAST4U
2017-06-23 23:27:58 Die.Drei.vom.Pfandhaus.S13E30.Houston.wir.haben.einen.Deal.GERMAN.DL.DOKU.720p.HDTV.x264-TVP
2017-06-23 23:28:38 Heat_Alliance-Come_Into_My_Heart-(IR009)-WEB-2017-2FAST4U
2017-06-23 23:29:18 Das.Messer.1985.GERMAN.720p.HDTV.x264-muhHD
2017-06-23 23:29:30 Lucho_Perez-Groove_Ahead-(OSD060)-WEB-2017-2FAST4U
2017-06-23 23:30:02 Die.Drei.vom.Pfandhaus.S13E30.Houston.wir.haben.einen.Deal.GERMAN.DOKU.WS.HDTVRip.x264-TVP
2017-06-23 23:30:28 Caputi-Tu_Eres_Todo-(UAR022)-WEB-2017-2FAST4U
2017-06-23 23:31:17 Burdock_Clover-Lost-(10119104)-WEB-2017-2FAST4U
2017-06-23 23:32:59 Bass_Hours-Element-(GG46)-WEB-2017-2FAST4U
2017-06-23 23:33:54 Headpunch-Underpush-(OSD058)-WEB-2017-2FAST4U
2017-06-23 23:34:33 Dawn_Lee-Easy_As-(JAM011)-WEB-2017-2FAST4U
2017-06-23 23:34:46 Die.Konfirmation.2017.GERMAN.720p.HDTV.x264-muhHD
2017-06-23 23:39:17 VA-Get_Physical_Presents_Ibiza_2017_(Unmixed_Tracks)-(GPMCD173)-WEB-2017-dh
2017-06-23 23:39:44 Die.Drei.vom.Pfandhaus.S13E23.Blutige.Dusche.GERMAN.DL.DOKU.720p.HDTV.x264-TVP
2017-06-23 23:39:50 Formel1.2017.Aserbajdsjans.Grand.Prix.Foerste.Traening.DANiSH.720p.HDTV.x264-SKANK
2017-06-23 23:41:18 The.Code.S02E02.GERMAN.HDTVRiP.x264.iNTERNAL-BTVG
2017-06-23 23:41:47 The.Code.S02E03.GERMAN.HDTVRiP.x264.iNTERNAL-BTVG
2017-06-23 23:41:51 Die.Drei.vom.Pfandhaus.S13E23.Blutige.Dusche.GERMAN.DOKU.WS.HDTVRip.x264-TVP
2017-06-23 23:42:08 The.Code.S02E02.GERMAN.720p.HDTV.x264-BTVG
2017-06-23 23:42:34 German_TOP100_Single_Charts_19_06_2017-MCG
2017-06-23 23:43:24 German_TOP100_Single_Charts_26_06_2017-MCG
2017-06-23 23:43:27 Violent.Cop.1989.1080p.BluRay.x264-SADPANDA
2017-06-23 23:43:39 German_TOP20_BC_19_06_2017-MCG
2017-06-23 23:43:51 German_TOP20_PSC_19_06_2017-MCG
2017-06-23 23:44:09 German_TOP50_ODC_19_06_2017-MCG
2017-06-23 23:53:02 Violent.Cop.1989.REMASTERED.BDRip.x264-VoMiT
2017-06-23 23:55:11 Chefs.Table.S01E05.German.DOKU.1080p.WebHD.x264-DOKUMANiA
2017-06-23 23:56:32 Chefs.Table.S01E05.German.DOKU.720p.WebHD.x264-DOKUMANiA
2017-06-23 23:56:58 Ch_La_Seye_and_Coda_Deep--Enchanted_Forest-(BBE433SDG)-WEB-2017-dh
2017-06-23 23:57:51 Chefs.Table.S01E05.German.DOKU.WebRip.x264-DOKUMANiA